PWSweather.com
Personal Weather Stations
Station Observations
2450ARBOR
Round Rock, TX 78681

Round Rock, TX 78681

Lat: 30.535239, Lon: -97.728137

Elevation: 800

Station Type:

Latest ConditionsUpdated 5:41:32 PM CDT Friday, Jul 21, 2017
Currently Today's Max Today's Min Today's Average
Temperature 100.6°F38.1°C 104.2°F40.1°C 77.4°F25.2°C 87.8°F31.0°C
Dew Point 70.3°F21.3°C 75.0°F23.9°C 68.0°F20.0°C 72.6°F22.6°C
Winds 1.7 mph S2.7 kmh S 5.8 mph W9.3 kmh W - 0.9 mph 1.4 kmh
Wind Gusts 3.2 mph5.1 kmh 5.8 mph9.3 kmh - -
Humidity 38% 84% 33% 64%
Pressure 29.10 in985.4 mb 29.24 in990.2 mb 29.10 in985.4 mb -
Hour Temp Dew Point Humidity Winds Wind Gusts Pressure Precip Precip Rate Daily Precip Total
05:41 PM 100.6°F38.1°C 70.3°F21.3°C 38% Calm Calm 3.2 mph5.1 kmh 29.10 in985.4 mb 0.00 in0.0 mm 0.00 in0.0 mm 0.00 in0.0 mm
05:40 PM 100.4°F38.0°C 70.1°F21.2°C 38% 2.2 mph ENE3.5 kmh ENE 3.2 mph5.1 kmh 29.10 in985.4 mb 0.00 in0.0 mm 0.00 in0.0 mm 0.00 in0.0 mm
05:39 PM 100.0°F37.8°C 69.8°F21.0°C 38% 1.7 mph E2.7 kmh E 3.2 mph5.1 kmh 29.11 in985.8 mb 0.00 in0.0 mm 0.00 in0.0 mm 0.00 in0.0 mm
05:38 PM 99.9°F37.7°C 69.7°F20.9°C 38% 3.2 mph NW5.1 kmh NW 3.2 mph5.1 kmh 29.11 in985.8 mb 0.00 in0.0 mm 0.00 in0.0 mm 0.00 in0.0 mm
05:37 PM 99.9°F37.7°C 69.7°F20.9°C 38% 1.7 mph NE2.7 kmh NE 3.2 mph5.1 kmh 29.11 in985.8 mb 0.00 in0.0 mm 0.00 in0.0 mm 0.00 in0.0 mm
05:36 PM 100.4°F38.0°C 70.1°F21.2°C 38% Calm Calm 3.2 mph5.1 kmh 29.11 in985.8 mb 0.00 in0.0 mm 0.00 in0.0 mm 0.00 in0.0 mm
05:35 PM 100.8°F38.2°C 70.5°F21.4°C 38% 1.7 mph NE2.7 kmh NE 3.2 mph5.1 kmh 29.11 in985.8 mb 0.00 in0.0 mm 0.00 in0.0 mm 0.00 in0.0 mm
05:34 PM 101.7°F38.7°C 69.7°F20.9°C 36% Calm Calm 3.2 mph5.1 kmh 29.11 in985.8 mb 0.00 in0.0 mm 0.00 in0.0 mm 0.00 in0.0 mm
05:33 PM 101.8°F38.8°C 69.8°F21.0°C 36% Calm Calm 3.2 mph5.1 kmh 29.11 in985.8 mb 0.00 in0.0 mm 0.00 in0.0 mm 0.00 in0.0 mm
05:32 PM 101.8°F38.8°C 68.9°F20.5°C 35% Calm Calm 3.2 mph5.1 kmh 29.11 in985.8 mb 0.00 in0.0 mm 0.00 in0.0 mm 0.00 in0.0 mm
05:31 PM 101.8°F38.8°C 68.9°F20.5°C 35% Calm Calm 3.2 mph5.1 kmh 29.11 in985.8 mb 0.00 in0.0 mm 0.00 in0.0 mm 0.00 in0.0 mm
05:30 PM 102.2°F39.0°C 69.3°F20.7°C 35% Calm Calm 3.2 mph5.1 kmh 29.11 in985.8 mb 0.00 in0.0 mm 0.00 in0.0 mm 0.00 in0.0 mm
05:29 PM 102.7°F39.3°C 69.7°F20.9°C 35% Calm Calm 3.2 mph5.1 kmh 29.11 in985.8 mb 0.00 in0.0 mm 0.00 in0.0 mm 0.00 in0.0 mm
05:28 PM 102.7°F39.3°C 69.7°F20.9°C 35% 2.7 mph SSW4.3 kmh SSW 3.7 mph6.0 kmh 29.11 in985.8 mb 0.00 in0.0 mm 0.00 in0.0 mm 0.00 in0.0 mm
05:27 PM 102.7°F39.3°C 69.7°F20.9°C 35% Calm Calm 3.7 mph6.0 kmh 29.11 in985.8 mb 0.00 in0.0 mm 0.00 in0.0 mm 0.00 in0.0 mm
05:26 PM 102.9°F39.4°C 69.0°F20.6°C 34% Calm Calm 3.7 mph6.0 kmh 29.11 in985.8 mb 0.00 in0.0 mm 0.00 in0.0 mm 0.00 in0.0 mm
05:25 PM 102.9°F39.4°C 69.0°F20.6°C 34% Calm Calm 3.7 mph6.0 kmh 29.11 in985.8 mb 0.00 in0.0 mm 0.00 in0.0 mm 0.00 in0.0 mm
05:24 PM 102.9°F39.4°C 69.0°F20.6°C 34% 1.7 mph WSW2.7 kmh WSW 3.7 mph6.0 kmh 29.11 in985.8 mb 0.00 in0.0 mm 0.00 in0.0 mm 0.00 in0.0 mm
05:23 PM 103.1°F39.5°C 69.2°F20.7°C 34% 1.7 mph SSW2.7 kmh SSW 3.7 mph6.0 kmh 29.11 in985.8 mb 0.00 in0.0 mm 0.00 in0.0 mm 0.00 in0.0 mm
05:22 PM 103.6°F39.8°C 68.8°F20.4°C 33% 1.7 mph S2.7 kmh S 3.7 mph6.0 kmh 29.11 in985.8 mb 0.00 in0.0 mm 0.00 in0.0 mm 0.00 in0.0 mm
05:21 PM 103.6°F39.8°C 68.8°F20.4°C 33% 2.2 mph SSW3.5 kmh SSW 3.7 mph6.0 kmh 29.11 in985.8 mb 0.00 in0.0 mm 0.00 in0.0 mm 0.00 in0.0 mm
05:20 PM 103.8°F39.9°C 69.0°F20.6°C 33% 3.2 mph SSW5.1 kmh SSW 3.7 mph6.0 kmh 29.11 in985.8 mb 0.00 in0.0 mm 0.00 in0.0 mm 0.00 in0.0 mm
05:19 PM 104.0°F40.0°C 69.1°F20.6°C 33% 2.2 mph SW3.5 kmh SW 3.7 mph6.0 kmh 29.11 in985.8 mb 0.00 in0.0 mm 0.00 in0.0 mm 0.00 in0.0 mm
05:18 PM 104.2°F40.1°C 69.3°F20.7°C 33% 3.2 mph SW5.1 kmh SW 3.2 mph5.1 kmh 29.11 in985.8 mb 0.00 in0.0 mm 0.00 in0.0 mm 0.00 in0.0 mm
05:17 PM 103.8°F39.9°C 69.8°F21.0°C 34% 2.2 mph SSW3.5 kmh SSW 2.7 mph4.3 kmh 29.11 in985.8 mb 0.00 in0.0 mm 0.00 in0.0 mm 0.00 in0.0 mm
05:16 PM 103.6°F39.8°C 69.7°F20.9°C 34% Calm Calm 2.2 mph3.5 kmh 29.11 in985.8 mb 0.00 in0.0 mm 0.00 in0.0 mm 0.00 in0.0 mm
05:15 PM 102.6°F39.2°C 69.6°F20.9°C 35% Calm Calm 2.2 mph3.5 kmh 29.11 in985.8 mb 0.00 in0.0 mm 0.00 in0.0 mm 0.00 in0.0 mm
05:14 PM 101.5°F38.6°C 68.7°F20.4°C 35% Calm Calm 2.2 mph3.5 kmh 29.11 in985.8 mb 0.00 in0.0 mm 0.00 in0.0 mm 0.00 in0.0 mm
05:13 PM 100.9°F38.3°C 69.0°F20.6°C 36% Calm Calm 4.2 mph6.8 kmh 29.11 in985.8 mb 0.00 in0.0 mm 0.00 in0.0 mm 0.00 in0.0 mm
05:12 PM 102.4°F39.1°C 69.5°F20.8°C 35% Calm Calm 4.2 mph6.8 kmh 29.11 in985.8 mb 0.00 in0.0 mm 0.00 in0.0 mm 0.00 in0.0 mm
05:11 PM 101.8°F38.8°C 68.9°F20.5°C 35% Calm Calm 4.2 mph6.8 kmh 29.11 in985.8 mb 0.00 in0.0 mm 0.00 in0.0 mm 0.00 in0.0 mm
05:10 PM 101.1°F38.4°C 69.2°F20.7°C 36% Calm Calm 4.2 mph6.8 kmh 29.11 in985.8 mb 0.00 in0.0 mm 0.00 in0.0 mm 0.00 in0.0 mm
05:09 PM 100.8°F38.2°C 69.7°F20.9°C 37% 1.7 mph SSW2.7 kmh SSW 4.2 mph6.8 kmh 29.11 in985.8 mb 0.00 in0.0 mm 0.00 in0.0 mm 0.00 in0.0 mm
05:08 PM 100.9°F38.3°C 69.0°F20.6°C 36% 1.7 mph W2.7 kmh W 4.2 mph6.8 kmh 29.11 in985.8 mb 0.00 in0.0 mm 0.00 in0.0 mm 0.00 in0.0 mm
05:07 PM 101.5°F38.6°C 69.5°F20.8°C 36% 2.2 mph SW3.5 kmh SW 4.2 mph6.8 kmh 29.11 in985.8 mb 0.00 in0.0 mm 0.00 in0.0 mm 0.00 in0.0 mm
05:06 PM 101.7°F38.7°C 68.0°F20.0°C 34% 2.2 mph SSW3.5 kmh SSW 4.2 mph6.8 kmh 29.11 in985.8 mb 0.00 in0.0 mm 0.00 in0.0 mm 0.00 in0.0 mm
05:05 PM 101.7°F38.7°C 68.9°F20.5°C 35% 2.2 mph SSW3.5 kmh SSW 4.2 mph6.8 kmh 29.11 in985.8 mb 0.00 in0.0 mm 0.00 in0.0 mm 0.00 in0.0 mm
05:04 PM 101.8°F38.8°C 68.9°F20.5°C 35% 2.7 mph SW4.3 kmh SW 4.2 mph6.8 kmh 29.11 in985.8 mb 0.00 in0.0 mm 0.00 in0.0 mm 0.00 in0.0 mm
05:03 PM 101.7°F38.7°C 68.9°F20.5°C 35% 2.2 mph SSW3.5 kmh SSW 3.7 mph6.0 kmh 29.12 in986.1 mb 0.00 in0.0 mm 0.00 in0.0 mm 0.00 in0.0 mm
05:02 PM 101.8°F38.8°C 68.9°F20.5°C 35% 1.7 mph SSW2.7 kmh SSW 3.7 mph6.0 kmh 29.12 in986.1 mb 0.00 in0.0 mm 0.00 in0.0 mm 0.00 in0.0 mm
05:01 PM 102.4°F39.1°C 69.5°F20.8°C 35% 1.7 mph SSW2.7 kmh SSW 3.7 mph6.0 kmh 29.12 in986.1 mb 0.00 in0.0 mm 0.00 in0.0 mm 0.00 in0.0 mm
05:00 PM 102.2°F39.0°C 69.3°F20.7°C 35% 2.2 mph SSW3.5 kmh SSW 3.7 mph6.0 kmh 29.12 in986.1 mb 0.00 in0.0 mm 0.00 in0.0 mm 0.00 in0.0 mm
04:59 PM 102.0°F38.9°C 69.9°F21.1°C 36% 2.7 mph SW4.3 kmh SW 3.7 mph6.0 kmh 29.12 in986.1 mb 0.00 in0.0 mm 0.00 in0.0 mm 0.00 in0.0 mm
04:58 PM 101.8°F38.8°C 70.6°F21.4°C 37% 2.2 mph SW3.5 kmh SW 3.7 mph6.0 kmh 29.12 in986.1 mb 0.00 in0.0 mm 0.00 in0.0 mm 0.00 in0.0 mm
04:57 PM 102.0°F38.9°C 70.7°F21.5°C 37% Calm Calm 3.7 mph6.0 kmh 29.12 in986.1 mb 0.00 in0.0 mm 0.00 in0.0 mm 0.00 in0.0 mm
04:56 PM 101.8°F38.8°C 70.6°F21.4°C 37% Calm Calm 3.7 mph6.0 kmh 29.12 in986.1 mb 0.00 in0.0 mm 0.00 in0.0 mm 0.00 in0.0 mm
04:55 PM 101.5°F38.6°C 70.3°F21.3°C 37% Calm Calm 3.7 mph6.0 kmh 29.12 in986.1 mb 0.00 in0.0 mm 0.00 in0.0 mm 0.00 in0.0 mm
04:54 PM 100.9°F38.3°C 70.6°F21.4°C 38% Calm Calm 4.7 mph7.6 kmh 29.12 in986.1 mb 0.00 in0.0 mm 0.00 in0.0 mm 0.00 in0.0 mm
04:53 PM 100.9°F38.3°C 70.6°F21.4°C 38% 2.2 mph W3.5 kmh W 5.8 mph9.3 kmh 29.12 in986.1 mb 0.00 in0.0 mm 0.00 in0.0 mm 0.00 in0.0 mm
04:52 PM 101.1°F38.4°C 70.7°F21.5°C 38% Calm Calm 5.8 mph9.3 kmh 29.12 in986.1 mb 0.00 in0.0 mm 0.00 in0.0 mm 0.00 in0.0 mm
04:51 PM 100.9°F38.3°C 70.6°F21.4°C 38% 1.7 mph SSW2.7 kmh SSW 5.8 mph9.3 kmh 29.12 in986.1 mb 0.00 in0.0 mm 0.00 in0.0 mm 0.00 in0.0 mm
04:50 PM 101.1°F38.4°C 70.7°F21.5°C 38% 2.7 mph WSW4.3 kmh WSW 5.8 mph9.3 kmh 29.12 in986.1 mb 0.00 in0.0 mm 0.00 in0.0 mm 0.00 in0.0 mm
04:49 PM 101.3°F38.5°C 70.9°F21.6°C 38% 2.2 mph SW3.5 kmh SW 5.8 mph9.3 kmh 29.12 in986.1 mb 0.00 in0.0 mm 0.00 in0.0 mm 0.00 in0.0 mm
04:48 PM 101.5°F38.6°C 71.1°F21.7°C 38% 3.7 mph SW6.0 kmh SW 5.8 mph9.3 kmh 29.12 in986.1 mb 0.00 in0.0 mm 0.00 in0.0 mm 0.00 in0.0 mm
04:47 PM 101.7°F38.7°C 71.3°F21.8°C 38% Calm Calm 5.8 mph9.3 kmh 29.12 in986.1 mb 0.00 in0.0 mm 0.00 in0.0 mm 0.00 in0.0 mm
04:46 PM 102.2°F39.0°C 70.9°F21.6°C 37% Calm Calm 5.8 mph9.3 kmh 29.12 in986.1 mb 0.00 in0.0 mm 0.00 in0.0 mm 0.00 in0.0 mm
04:45 PM 102.0°F38.9°C 70.7°F21.5°C 37% Calm Calm 5.8 mph9.3 kmh 29.12 in986.1 mb 0.00 in0.0 mm 0.00 in0.0 mm 0.00 in0.0 mm
04:44 PM 101.1°F38.4°C 70.7°F21.5°C 38% 5.8 mph W9.3 kmh W 5.8 mph9.3 kmh 29.12 in986.1 mb 0.00 in0.0 mm 0.00 in0.0 mm 0.00 in0.0 mm
04:43 PM 100.9°F38.3°C 70.6°F21.4°C 38% Calm Calm 2.2 mph3.5 kmh 29.12 in986.1 mb 0.00 in0.0 mm 0.00 in0.0 mm 0.00 in0.0 mm
04:42 PM 101.1°F38.4°C 70.7°F21.5°C 38% Calm Calm 2.2 mph3.5 kmh 29.12 in986.1 mb 0.00 in0.0 mm 0.00 in0.0 mm 0.00 in0.0 mm
04:41 PM 100.9°F38.3°C 70.6°F21.4°C 38% Calm Calm 2.7 mph4.3 kmh 29.12 in986.1 mb 0.00 in0.0 mm 0.00 in0.0 mm 0.00 in0.0 mm
04:40 PM 100.9°F38.3°C 70.6°F21.4°C 38% Calm Calm 2.7 mph4.3 kmh 29.13 in986.5 mb 0.00 in0.0 mm 0.00 in0.0 mm 0.00 in0.0 mm
04:39 PM 100.9°F38.3°C 70.6°F21.4°C 38% Calm Calm 2.7 mph4.3 kmh 29.13 in986.5 mb 0.00 in0.0 mm 0.00 in0.0 mm 0.00 in0.0 mm
04:38 PM 101.1°F38.4°C 70.0°F21.1°C 37% Calm Calm 2.7 mph4.3 kmh 29.13 in986.5 mb 0.00 in0.0 mm 0.00 in0.0 mm 0.00 in0.0 mm
04:37 PM 101.7°F38.7°C 70.5°F21.4°C 37% 2.2 mph SSW3.5 kmh SSW 2.7 mph4.3 kmh 29.13 in986.5 mb 0.00 in0.0 mm 0.00 in0.0 mm 0.00 in0.0 mm
04:36 PM 101.7°F38.7°C 70.5°F21.4°C 37% 2.2 mph SW3.5 kmh SW 2.7 mph4.3 kmh 29.13 in986.5 mb 0.00 in0.0 mm 0.00 in0.0 mm 0.00 in0.0 mm
04:35 PM 102.0°F38.9°C 71.5°F21.9°C 38% 1.7 mph W2.7 kmh W 2.7 mph4.3 kmh 29.13 in986.5 mb 0.00 in0.0 mm 0.00 in0.0 mm 0.00 in0.0 mm
04:34 PM 102.2°F39.0°C 71.7°F22.1°C 38% 1.7 mph SSW2.7 kmh SSW 2.7 mph4.3 kmh 29.13 in986.5 mb 0.00 in0.0 mm 0.00 in0.0 mm 0.00 in0.0 mm
04:33 PM 102.4°F39.1°C 71.9°F22.2°C 38% 1.7 mph WSW2.7 kmh WSW 2.7 mph4.3 kmh 29.13 in986.5 mb 0.00 in0.0 mm 0.00 in0.0 mm 0.00 in0.0 mm
04:32 PM 102.6°F39.2°C 72.1°F22.3°C 38% 1.7 mph SSE2.7 kmh SSE 2.7 mph4.3 kmh 29.13 in986.5 mb 0.00 in0.0 mm 0.00 in0.0 mm 0.00 in0.0 mm
04:31 PM 102.4°F39.1°C 71.9°F22.2°C 38% 2.2 mph WSW3.5 kmh WSW 3.2 mph5.1 kmh 29.13 in986.5 mb 0.00 in0.0 mm 0.00 in0.0 mm 0.00 in0.0 mm
04:30 PM 102.4°F39.1°C 71.9°F22.2°C 38% 2.7 mph SSW4.3 kmh SSW 3.2 mph5.1 kmh 29.13 in986.5 mb 0.00 in0.0 mm 0.00 in0.0 mm 0.00 in0.0 mm
04:29 PM 102.2°F39.0°C 72.5°F22.5°C 39% 1.7 mph W2.7 kmh W 3.2 mph5.1 kmh 29.13 in986.5 mb 0.00 in0.0 mm 0.00 in0.0 mm 0.00 in0.0 mm
04:28 PM 102.0°F38.9°C 72.3°F22.4°C 39% 1.7 mph SW2.7 kmh SW 3.2 mph5.1 kmh 29.13 in986.5 mb 0.00 in0.0 mm 0.00 in0.0 mm 0.00 in0.0 mm
04:27 PM 101.7°F38.7°C 72.0°F22.2°C 39% 1.7 mph SSW2.7 kmh SSW 3.2 mph5.1 kmh 29.13 in986.5 mb 0.00 in0.0 mm 0.00 in0.0 mm 0.00 in0.0 mm
04:26 PM 102.0°F38.9°C 71.5°F21.9°C 38% 2.2 mph SW3.5 kmh SW 3.2 mph5.1 kmh 29.13 in986.5 mb 0.00 in0.0 mm 0.00 in0.0 mm 0.00 in0.0 mm
04:25 PM 102.2°F39.0°C 71.7°F22.1°C 38% 2.2 mph SW3.5 kmh SW 3.2 mph5.1 kmh 29.13 in986.5 mb 0.00 in0.0 mm 0.00 in0.0 mm 0.00 in0.0 mm
04:24 PM 102.0°F38.9°C 71.5°F21.9°C 38% 2.7 mph SSW4.3 kmh SSW 3.2 mph5.1 kmh 29.13 in986.5 mb 0.00 in0.0 mm 0.00 in0.0 mm 0.00 in0.0 mm
04:23 PM 102.0°F38.9°C 71.5°F21.9°C 38% 1.7 mph SW2.7 kmh SW 3.2 mph5.1 kmh 29.13 in986.5 mb 0.00 in0.0 mm 0.00 in0.0 mm 0.00 in0.0 mm
04:22 PM 101.8°F38.8°C 71.4°F21.9°C 38% 2.2 mph SSW3.5 kmh SSW 3.2 mph5.1 kmh 29.13 in986.5 mb 0.00 in0.0 mm 0.00 in0.0 mm 0.00 in0.0 mm
04:21 PM 102.4°F39.1°C 71.1°F21.7°C 37% 2.2 mph SW3.5 kmh SW 3.2 mph5.1 kmh 29.13 in986.5 mb 0.00 in0.0 mm 0.00 in0.0 mm 0.00 in0.0 mm
04:20 PM 102.4°F39.1°C 71.9°F22.2°C 38% Calm Calm 3.2 mph5.1 kmh 29.13 in986.5 mb 0.00 in0.0 mm 0.00 in0.0 mm 0.00 in0.0 mm
04:19 PM 102.0°F38.9°C 70.7°F21.5°C 37% 1.1 mph E1.8 kmh E 3.2 mph5.1 kmh 29.13 in986.5 mb 0.00 in0.0 mm 0.00 in0.0 mm 0.00 in0.0 mm
04:18 PM 102.2°F39.0°C 70.9°F21.6°C 37% 1.1 mph SSW1.8 kmh SSW 3.2 mph5.1 kmh 29.13 in986.5 mb 0.00 in0.0 mm 0.00 in0.0 mm 0.00 in0.0 mm
04:17 PM 102.0°F38.9°C 70.7°F21.5°C 37% 2.2 mph SSW3.5 kmh SSW 4.2 mph6.8 kmh 29.13 in986.5 mb 0.00 in0.0 mm 0.00 in0.0 mm 0.00 in0.0 mm
04:16 PM 101.8°F38.8°C 71.4°F21.9°C 38% 1.7 mph SW2.7 kmh SW 4.2 mph6.8 kmh 29.13 in986.5 mb 0.00 in0.0 mm 0.00 in0.0 mm 0.00 in0.0 mm
04:15 PM 102.0°F38.9°C 70.7°F21.5°C 37% Calm Calm 4.2 mph6.8 kmh 29.14 in986.8 mb 0.00 in0.0 mm 0.00 in0.0 mm 0.00 in0.0 mm
04:14 PM 101.8°F38.8°C 70.6°F21.4°C 37% 2.7 mph W4.3 kmh W 4.2 mph6.8 kmh 29.14 in986.8 mb 0.00 in0.0 mm 0.00 in0.0 mm 0.00 in0.0 mm
04:13 PM 101.5°F38.6°C 71.1°F21.7°C 38% Calm Calm 4.2 mph6.8 kmh 29.14 in986.8 mb 0.00 in0.0 mm 0.00 in0.0 mm 0.00 in0.0 mm
04:12 PM 101.3°F38.5°C 72.4°F22.4°C 40% 3.2 mph SW5.1 kmh SW 4.2 mph6.8 kmh 29.14 in986.8 mb 0.00 in0.0 mm 0.00 in0.0 mm 0.00 in0.0 mm
04:11 PM 101.1°F38.4°C 71.5°F21.9°C 39% 2.2 mph SW3.5 kmh SW 4.2 mph6.8 kmh 29.14 in986.8 mb 0.00 in0.0 mm 0.00 in0.0 mm 0.00 in0.0 mm
04:10 PM 101.3°F38.5°C 71.7°F22.1°C 39% 1.7 mph SSW2.7 kmh SSW 4.2 mph6.8 kmh 29.14 in986.8 mb 0.00 in0.0 mm 0.00 in0.0 mm 0.00 in0.0 mm
04:09 PM 101.3°F38.5°C 71.7°F22.1°C 39% Calm Calm 4.2 mph6.8 kmh 29.14 in986.8 mb 0.00 in0.0 mm 0.00 in0.0 mm 0.00 in0.0 mm
04:08 PM 100.9°F38.3°C 70.6°F21.4°C 38% 2.7 mph SSW4.3 kmh SSW 4.2 mph6.8 kmh 29.14 in986.8 mb 0.00 in0.0 mm 0.00 in0.0 mm 0.00 in0.0 mm
04:07 PM 101.1°F38.4°C 70.0°F21.1°C 37% 4.2 mph SSW6.8 kmh SSW 4.2 mph6.8 kmh 29.14 in986.8 mb 0.00 in0.0 mm 0.00 in0.0 mm 0.00 in0.0 mm
04:06 PM 100.9°F38.3°C 69.8°F21.0°C 37% 1.7 mph SSW2.7 kmh SSW 3.2 mph5.1 kmh 29.14 in986.8 mb 0.00 in0.0 mm 0.00 in0.0 mm 0.00 in0.0 mm
04:05 PM 100.9°F38.3°C 69.8°F21.0°C 37% 2.7 mph SSW4.3 kmh SSW 3.7 mph6.0 kmh 29.14 in986.8 mb 0.00 in0.0 mm 0.00 in0.0 mm 0.00 in0.0 mm
04:04 PM 102.0°F38.9°C 70.7°F21.5°C 37% Calm Calm 3.7 mph6.0 kmh 29.14 in986.8 mb 0.00 in0.0 mm 0.00 in0.0 mm 0.00 in0.0 mm
04:03 PM 102.0°F38.9°C 70.7°F21.5°C 37% Calm Calm 4.7 mph7.6 kmh 29.14 in986.8 mb 0.00 in0.0 mm 0.00 in0.0 mm 0.00 in0.0 mm
04:02 PM 102.4°F39.1°C 71.1°F21.7°C 37% Calm Calm 4.7 mph7.6 kmh 29.14 in986.8 mb 0.00 in0.0 mm 0.00 in0.0 mm 0.00 in0.0 mm
04:01 PM 102.6°F39.2°C 70.5°F21.4°C 36% 1.7 mph SW2.7 kmh SW 5.3 mph8.5 kmh 29.14 in986.8 mb 0.00 in0.0 mm 0.00 in0.0 mm 0.00 in0.0 mm
04:00 PM 102.6°F39.2°C 70.5°F21.4°C 36% 2.2 mph SSW3.5 kmh SSW 5.3 mph8.5 kmh 29.14 in986.8 mb 0.00 in0.0 mm 0.00 in0.0 mm 0.00 in0.0 mm
03:59 PM 102.2°F39.0°C 70.9°F21.6°C 37% 1.7 mph SSW2.7 kmh SSW 5.3 mph8.5 kmh 29.14 in986.8 mb 0.00 in0.0 mm 0.00 in0.0 mm 0.00 in0.0 mm
03:58 PM 101.8°F38.8°C 71.4°F21.9°C 38% Calm Calm 5.3 mph8.5 kmh 29.14 in986.8 mb 0.00 in0.0 mm 0.00 in0.0 mm 0.00 in0.0 mm
03:57 PM 101.8°F38.8°C 71.4°F21.9°C 38% 1.7 mph SW2.7 kmh SW 5.3 mph8.5 kmh 29.14 in986.8 mb 0.00 in0.0 mm 0.00 in0.0 mm 0.00 in0.0 mm
03:56 PM 102.4°F39.1°C 71.1°F21.7°C 37% 2.2 mph SW3.5 kmh SW 5.3 mph8.5 kmh 29.14 in986.8 mb 0.00 in0.0 mm 0.00 in0.0 mm 0.00 in0.0 mm
03:55 PM 102.0°F38.9°C 70.7°F21.5°C 37% 2.7 mph S4.3 kmh S 5.3 mph8.5 kmh 29.14 in986.8 mb 0.00 in0.0 mm 0.00 in0.0 mm 0.00 in0.0 mm
03:54 PM 101.7°F38.7°C 70.5°F21.4°C 37% 2.2 mph E3.5 kmh E 5.3 mph8.5 kmh 29.14 in986.8 mb 0.00 in0.0 mm 0.00 in0.0 mm 0.00 in0.0 mm
03:53 PM 102.0°F38.9°C 70.7°F21.5°C 37% 2.7 mph SSW4.3 kmh SSW 5.3 mph8.5 kmh 29.14 in986.8 mb 0.00 in0.0 mm 0.00 in0.0 mm 0.00 in0.0 mm
03:52 PM 101.8°F38.8°C 71.4°F21.9°C 38% 4.2 mph SSW6.8 kmh SSW 5.3 mph8.5 kmh 29.14 in986.8 mb 0.00 in0.0 mm 0.00 in0.0 mm 0.00 in0.0 mm
03:51 PM 101.5°F38.6°C 71.1°F21.7°C 38% 2.7 mph SSW4.3 kmh SSW 3.7 mph6.0 kmh 29.14 in986.8 mb 0.00 in0.0 mm 0.00 in0.0 mm 0.00 in0.0 mm
03:50 PM 101.1°F38.4°C 70.7°F21.5°C 38% 1.7 mph SW2.7 kmh SW 3.7 mph6.0 kmh 29.14 in986.8 mb 0.00 in0.0 mm 0.00 in0.0 mm 0.00 in0.0 mm
03:49 PM 101.1°F38.4°C 70.7°F21.5°C 38% Calm Calm 4.7 mph7.6 kmh 29.14 in986.8 mb 0.00 in0.0 mm 0.00 in0.0 mm 0.00 in0.0 mm
03:48 PM 101.5°F38.6°C 71.1°F21.7°C 38% 1.7 mph W2.7 kmh W 4.7 mph7.6 kmh 29.14 in986.8 mb 0.00 in0.0 mm 0.00 in0.0 mm 0.00 in0.0 mm
03:47 PM 101.7°F38.7°C 71.3°F21.8°C 38% 1.7 mph WSW2.7 kmh WSW 4.7 mph7.6 kmh 29.14 in986.8 mb 0.00 in0.0 mm 0.00 in0.0 mm 0.00 in0.0 mm
03:46 PM 101.7°F38.7°C 72.0°F22.2°C 39% 1.7 mph S2.7 kmh S 4.7 mph7.6 kmh 29.14 in986.8 mb 0.00 in0.0 mm 0.00 in0.0 mm 0.00 in0.0 mm
03:45 PM 102.2°F39.0°C 70.9°F21.6°C 37% 1.7 mph SW2.7 kmh SW 4.7 mph7.6 kmh 29.14 in986.8 mb 0.00 in0.0 mm 0.00 in0.0 mm 0.00 in0.0 mm
03:44 PM 102.0°F38.9°C 71.5°F21.9°C 38% 2.2 mph SSW3.5 kmh SSW 4.7 mph7.6 kmh 29.14 in986.8 mb 0.00 in0.0 mm 0.00 in0.0 mm 0.00 in0.0 mm
03:43 PM 102.2°F39.0°C 71.7°F22.1°C 38% 2.2 mph SSW3.5 kmh SSW 4.7 mph7.6 kmh 29.14 in986.8 mb 0.00 in0.0 mm 0.00 in0.0 mm 0.00 in0.0 mm
03:42 PM 102.6°F39.2°C 71.3°F21.8°C 37% 2.2 mph W3.5 kmh W 4.7 mph7.6 kmh 29.14 in986.8 mb 0.00 in0.0 mm 0.00 in0.0 mm 0.00 in0.0 mm
03:41 PM 102.7°F39.3°C 70.6°F21.4°C 36% 3.7 mph W6.0 kmh W 4.7 mph7.6 kmh 29.14 in986.8 mb 0.00 in0.0 mm 0.00 in0.0 mm 0.00 in0.0 mm
03:40 PM 102.6°F39.2°C 71.3°F21.8°C 37% 2.7 mph SW4.3 kmh SW 4.7 mph7.6 kmh 29.14 in986.8 mb 0.00 in0.0 mm 0.00 in0.0 mm 0.00 in0.0 mm
03:39 PM 102.4°F39.1°C 71.9°F22.2°C 38% 4.2 mph S6.8 kmh S 4.2 mph6.8 kmh 29.15 in987.1 mb 0.00 in0.0 mm 0.00 in0.0 mm 0.00 in0.0 mm
03:38 PM 102.0°F38.9°C 72.3°F22.4°C 39% 2.2 mph SW3.5 kmh SW 3.2 mph5.1 kmh 29.15 in987.1 mb 0.00 in0.0 mm 0.00 in0.0 mm 0.00 in0.0 mm
03:37 PM 102.0°F38.9°C 71.5°F21.9°C 38% 1.7 mph SW2.7 kmh SW 3.2 mph5.1 kmh 29.15 in987.1 mb 0.00 in0.0 mm 0.00 in0.0 mm 0.00 in0.0 mm
03:36 PM 101.7°F38.7°C 72.0°F22.2°C 39% 1.7 mph SSW2.7 kmh SSW 3.2 mph5.1 kmh 29.15 in987.1 mb 0.00 in0.0 mm 0.00 in0.0 mm 0.00 in0.0 mm
03:35 PM 101.7°F38.7°C 72.0°F22.2°C 39% 2.7 mph SSW4.3 kmh SSW 3.7 mph6.0 kmh 29.15 in987.1 mb 0.00 in0.0 mm 0.00 in0.0 mm 0.00 in0.0 mm
03:34 PM 101.8°F38.8°C 71.4°F21.9°C 38% 2.7 mph SSW4.3 kmh SSW 3.7 mph6.0 kmh 29.15 in987.1 mb 0.00 in0.0 mm 0.00 in0.0 mm 0.00 in0.0 mm
03:33 PM 102.2°F39.0°C 72.5°F22.5°C 39% 2.7 mph WSW4.3 kmh WSW 3.7 mph6.0 kmh 29.15 in987.1 mb 0.00 in0.0 mm 0.00 in0.0 mm 0.00 in0.0 mm
03:32 PM 102.6°F39.2°C 72.1°F22.3°C 38% 2.2 mph SSW3.5 kmh SSW 3.7 mph6.0 kmh 29.15 in987.1 mb 0.00 in0.0 mm 0.00 in0.0 mm 0.00 in0.0 mm
03:31 PM 102.4°F39.1°C 71.9°F22.2°C 38% 1.7 mph W2.7 kmh W 3.7 mph6.0 kmh 29.15 in987.1 mb 0.00 in0.0 mm 0.00 in0.0 mm 0.00 in0.0 mm
03:30 PM 102.2°F39.0°C 71.7°F22.1°C 38% 2.2 mph SW3.5 kmh SW 3.7 mph6.0 kmh 29.15 in987.1 mb 0.00 in0.0 mm 0.00 in0.0 mm 0.00 in0.0 mm
03:29 PM 102.4°F39.1°C 71.9°F22.2°C 38% 2.7 mph SSW4.3 kmh SSW 3.7 mph6.0 kmh 29.15 in987.1 mb 0.00 in0.0 mm 0.00 in0.0 mm 0.00 in0.0 mm
03:28 PM 102.2°F39.0°C 71.7°F22.1°C 38% 1.7 mph SSW2.7 kmh SSW 3.7 mph6.0 kmh 29.15 in987.1 mb 0.00 in0.0 mm 0.00 in0.0 mm 0.00 in0.0 mm
03:27 PM 102.6°F39.2°C 72.8°F22.7°C 39% 3.2 mph W5.1 kmh W 3.7 mph6.0 kmh 29.15 in987.1 mb 0.00 in0.0 mm 0.00 in0.0 mm 0.00 in0.0 mm
03:26 PM 102.0°F38.9°C 73.1°F22.8°C 40% 3.7 mph SSW6.0 kmh SSW 3.7 mph6.0 kmh 29.15 in987.1 mb 0.00 in0.0 mm 0.00 in0.0 mm 0.00 in0.0 mm
03:25 PM 102.0°F38.9°C 72.3°F22.4°C 39% 2.2 mph WSW3.5 kmh WSW 3.2 mph5.1 kmh 29.15 in987.1 mb 0.00 in0.0 mm 0.00 in0.0 mm 0.00 in0.0 mm
03:24 PM 102.2°F39.0°C 73.2°F22.9°C 40% 1.7 mph SSW2.7 kmh SSW 3.2 mph5.1 kmh 29.15 in987.1 mb 0.00 in0.0 mm 0.00 in0.0 mm 0.00 in0.0 mm
03:23 PM 102.4°F39.1°C 72.7°F22.6°C 39% 1.7 mph SW2.7 kmh SW 3.2 mph5.1 kmh 29.15 in987.1 mb 0.00 in0.0 mm 0.00 in0.0 mm 0.00 in0.0 mm
03:22 PM 102.2°F39.0°C 72.5°F22.5°C 39% 2.2 mph SW3.5 kmh SW 3.2 mph5.1 kmh 29.15 in987.1 mb 0.00 in0.0 mm 0.00 in0.0 mm 0.00 in0.0 mm
03:21 PM 101.5°F38.6°C 74.1°F23.4°C 42% 2.2 mph SSW3.5 kmh SSW 2.7 mph4.3 kmh 29.15 in987.1 mb 0.00 in0.0 mm 0.00 in0.0 mm 0.00 in0.0 mm
03:20 PM 101.5°F38.6°C 74.1°F23.4°C 42% 1.7 mph SW2.7 kmh SW 2.7 mph4.3 kmh 29.15 in987.1 mb 0.00 in0.0 mm 0.00 in0.0 mm 0.00 in0.0 mm
03:19 PM 101.5°F38.6°C 74.1°F23.4°C 42% 2.2 mph WSW3.5 kmh WSW 2.7 mph4.3 kmh 29.15 in987.1 mb 0.00 in0.0 mm 0.00 in0.0 mm 0.00 in0.0 mm
03:18 PM 101.3°F38.5°C 73.9°F23.3°C 42% 1.7 mph SW2.7 kmh SW 2.7 mph4.3 kmh 29.15 in987.1 mb 0.00 in0.0 mm 0.00 in0.0 mm 0.00 in0.0 mm
03:17 PM 101.5°F38.6°C 74.1°F23.4°C 42% Calm Calm 2.7 mph4.3 kmh 29.15 in987.1 mb 0.00 in0.0 mm 0.00 in0.0 mm 0.00 in0.0 mm
03:16 PM 101.5°F38.6°C 73.3°F22.9°C 41% Calm Calm 3.2 mph5.1 kmh 29.15 in987.1 mb 0.00 in0.0 mm 0.00 in0.0 mm 0.00 in0.0 mm
03:15 PM 101.1°F38.4°C 73.7°F23.2°C 42% 2.2 mph SW3.5 kmh SW 3.2 mph5.1 kmh 29.16 in987.5 mb 0.00 in0.0 mm 0.00 in0.0 mm 0.00 in0.0 mm
03:14 PM 100.9°F38.3°C 72.8°F22.7°C 41% 2.2 mph SW3.5 kmh SW 3.2 mph5.1 kmh 29.16 in987.5 mb 0.00 in0.0 mm 0.00 in0.0 mm 0.00 in0.0 mm
03:13 PM 100.9°F38.3°C 72.8°F22.7°C 41% Calm Calm 3.2 mph5.1 kmh 29.16 in987.5 mb 0.00 in0.0 mm 0.00 in0.0 mm 0.00 in0.0 mm
03:12 PM 100.9°F38.3°C 73.5°F23.1°C 42% Calm Calm 3.2 mph5.1 kmh 29.16 in987.5 mb 0.00 in0.0 mm 0.00 in0.0 mm 0.00 in0.0 mm
03:11 PM 100.9°F38.3°C 72.8°F22.7°C 41% Calm Calm 3.2 mph5.1 kmh 29.16 in987.5 mb 0.00 in0.0 mm 0.00 in0.0 mm 0.00 in0.0 mm
03:10 PM 101.1°F38.4°C 73.7°F23.2°C 42% Calm Calm 3.7 mph6.0 kmh 29.16 in987.5 mb 0.00 in0.0 mm 0.00 in0.0 mm 0.00 in0.0 mm
03:09 PM 101.5°F38.6°C 73.3°F22.9°C 41% Calm Calm 3.7 mph6.0 kmh 29.16 in987.5 mb 0.00 in0.0 mm 0.00 in0.0 mm 0.00 in0.0 mm
03:08 PM 101.5°F38.6°C 72.6°F22.6°C 40% 1.7 mph SW2.7 kmh SW 3.7 mph6.0 kmh 29.16 in987.5 mb 0.00 in0.0 mm 0.00 in0.0 mm 0.00 in0.0 mm
03:07 PM 101.1°F38.4°C 72.3°F22.4°C 40% 1.7 mph SSW2.7 kmh SSW 3.7 mph6.0 kmh 29.16 in987.5 mb 0.00 in0.0 mm 0.00 in0.0 mm 0.00 in0.0 mm
03:06 PM 101.1°F38.4°C 72.3°F22.4°C 40% 1.7 mph SW2.7 kmh SW 3.7 mph6.0 kmh 29.16 in987.5 mb 0.00 in0.0 mm 0.00 in0.0 mm 0.00 in0.0 mm
03:05 PM 101.3°F38.5°C 72.4°F22.4°C 40% 2.7 mph W4.3 kmh W 3.7 mph6.0 kmh 29.16 in987.5 mb 0.00 in0.0 mm 0.00 in0.0 mm 0.00 in0.0 mm
03:04 PM 101.1°F38.4°C 72.3°F22.4°C 40% 2.2 mph N3.5 kmh N 3.7 mph6.0 kmh 29.16 in987.5 mb 0.00 in0.0 mm 0.00 in0.0 mm 0.00 in0.0 mm
03:03 PM 100.9°F38.3°C 72.1°F22.3°C 40% 2.7 mph N4.3 kmh N 3.7 mph6.0 kmh 29.16 in987.5 mb 0.00 in0.0 mm 0.00 in0.0 mm 0.00 in0.0 mm
03:02 PM 101.1°F38.4°C 72.3°F22.4°C 40% 2.2 mph WSW3.5 kmh WSW 3.7 mph6.0 kmh 29.16 in987.5 mb 0.00 in0.0 mm 0.00 in0.0 mm 0.00 in0.0 mm
03:01 PM 100.8°F38.2°C 71.2°F21.8°C 39% 1.7 mph SW2.7 kmh SW 3.7 mph6.0 kmh 29.16 in987.5 mb 0.00 in0.0 mm 0.00 in0.0 mm 0.00 in0.0 mm
03:00 PM 100.8°F38.2°C 72.0°F22.2°C 40% 2.7 mph SSW4.3 kmh SSW 3.7 mph6.0 kmh 29.16 in987.5 mb 0.00 in0.0 mm 0.00 in0.0 mm 0.00 in0.0 mm
02:59 PM 101.1°F38.4°C 72.3°F22.4°C 40% 2.7 mph SW4.3 kmh SW 3.7 mph6.0 kmh 29.16 in987.5 mb 0.00 in0.0 mm 0.00 in0.0 mm 0.00 in0.0 mm
02:58 PM 100.9°F38.3°C 72.8°F22.7°C 41% 3.7 mph W6.0 kmh W 3.7 mph6.0 kmh 29.16 in987.5 mb 0.00 in0.0 mm 0.00 in0.0 mm 0.00 in0.0 mm
02:57 PM 100.9°F38.3°C 72.1°F22.3°C 40% 1.7 mph SW2.7 kmh SW 3.7 mph6.0 kmh 29.16 in987.5 mb 0.00 in0.0 mm 0.00 in0.0 mm 0.00 in0.0 mm
02:56 PM 100.4°F38.0°C 71.6°F22.0°C 40% 1.1 mph SSW1.8 kmh SSW 3.7 mph6.0 kmh 29.16 in987.5 mb 0.00 in0.0 mm 0.00 in0.0 mm 0.00 in0.0 mm
02:55 PM 100.0°F37.8°C 72.0°F22.2°C 41% 2.7 mph SSW4.3 kmh SSW 3.7 mph6.0 kmh 29.16 in987.5 mb 0.00 in0.0 mm 0.00 in0.0 mm 0.00 in0.0 mm
02:54 PM 99.9°F37.7°C 73.3°F22.9°C 43% Calm Calm 3.7 mph6.0 kmh 29.16 in987.5 mb 0.00 in0.0 mm 0.00 in0.0 mm 0.00 in0.0 mm
02:53 PM 100.2°F37.9°C 70.7°F21.5°C 39% 2.7 mph SSW4.3 kmh SSW 3.7 mph6.0 kmh 29.16 in987.5 mb 0.00 in0.0 mm 0.00 in0.0 mm 0.00 in0.0 mm
02:52 PM 101.1°F38.4°C 70.7°F21.5°C 38% 3.2 mph SSW5.1 kmh SSW 3.7 mph6.0 kmh 29.16 in987.5 mb 0.00 in0.0 mm 0.00 in0.0 mm 0.00 in0.0 mm
02:51 PM 100.9°F38.3°C 71.3°F21.8°C 39% 2.7 mph N4.3 kmh N 3.7 mph6.0 kmh 29.17 in987.8 mb 0.00 in0.0 mm 0.00 in0.0 mm 0.00 in0.0 mm
02:50 PM 101.1°F38.4°C 73.0°F22.8°C 41% Calm Calm 3.7 mph6.0 kmh 29.17 in987.8 mb 0.00 in0.0 mm 0.00 in0.0 mm 0.00 in0.0 mm
02:49 PM 100.9°F38.3°C 72.1°F22.3°C 40% 1.7 mph SSW2.7 kmh SSW 3.7 mph6.0 kmh 29.17 in987.8 mb 0.00 in0.0 mm 0.00 in0.0 mm 0.00 in0.0 mm
02:48 PM 100.8°F38.2°C 73.4°F23.0°C 42% 1.7 mph SSW2.7 kmh SSW 3.7 mph6.0 kmh 29.17 in987.8 mb 0.00 in0.0 mm 0.00 in0.0 mm 0.00 in0.0 mm
02:47 PM 101.1°F38.4°C 71.5°F21.9°C 39% 2.2 mph SSW3.5 kmh SSW 3.7 mph6.0 kmh 29.17 in987.8 mb 0.00 in0.0 mm 0.00 in0.0 mm 0.00 in0.0 mm
02:46 PM 100.9°F38.3°C 72.1°F22.3°C 40% 3.2 mph SW5.1 kmh SW 3.7 mph6.0 kmh 29.17 in987.8 mb 0.00 in0.0 mm 0.00 in0.0 mm 0.00 in0.0 mm
02:45 PM 101.1°F38.4°C 72.3°F22.4°C 40% 2.7 mph SSW4.3 kmh SSW 3.7 mph6.0 kmh 29.17 in987.8 mb 0.00 in0.0 mm 0.00 in0.0 mm 0.00 in0.0 mm
02:44 PM 101.1°F38.4°C 72.3°F22.4°C 40% 2.7 mph SW4.3 kmh SW 3.7 mph6.0 kmh 29.17 in987.8 mb 0.00 in0.0 mm 0.00 in0.0 mm 0.00 in0.0 mm
02:43 PM 101.1°F38.4°C 72.3°F22.4°C 40% 3.7 mph SW6.0 kmh SW 3.7 mph6.0 kmh 29.17 in987.8 mb 0.00 in0.0 mm 0.00 in0.0 mm 0.00 in0.0 mm
02:42 PM 100.8°F38.2°C 72.0°F22.2°C 40% 2.2 mph SW3.5 kmh SW 3.7 mph6.0 kmh 29.17 in987.8 mb 0.00 in0.0 mm 0.00 in0.0 mm 0.00 in0.0 mm
02:41 PM 100.8°F38.2°C 72.0°F22.2°C 40% 1.7 mph S2.7 kmh S 3.7 mph6.0 kmh 29.17 in987.8 mb 0.00 in0.0 mm 0.00 in0.0 mm 0.00 in0.0 mm
02:40 PM 100.8°F38.2°C 72.7°F22.6°C 41% 2.2 mph SSW3.5 kmh SSW 3.7 mph6.0 kmh 29.17 in987.8 mb 0.00 in0.0 mm 0.00 in0.0 mm 0.00 in0.0 mm
02:39 PM 100.8°F38.2°C 71.2°F21.8°C 39% 2.7 mph SSW4.3 kmh SSW 3.7 mph6.0 kmh 29.17 in987.8 mb 0.00 in0.0 mm 0.00 in0.0 mm 0.00 in0.0 mm
02:38 PM 100.6°F38.1°C 72.5°F22.5°C 41% 3.2 mph WSW5.1 kmh WSW 3.7 mph6.0 kmh 29.17 in987.8 mb 0.00 in0.0 mm 0.00 in0.0 mm 0.00 in0.0 mm
02:37 PM 100.4°F38.0°C 73.1°F22.8°C 42% 2.2 mph SW3.5 kmh SW 4.2 mph6.8 kmh 29.17 in987.8 mb 0.00 in0.0 mm 0.00 in0.0 mm 0.00 in0.0 mm
02:36 PM 100.2°F37.9°C 72.9°F22.7°C 42% 3.2 mph S5.1 kmh S 4.2 mph6.8 kmh 29.17 in987.8 mb 0.00 in0.0 mm 0.00 in0.0 mm 0.00 in0.0 mm
02:35 PM 100.4°F38.0°C 72.4°F22.4°C 41% 1.7 mph SSW2.7 kmh SSW 4.2 mph6.8 kmh 29.17 in987.8 mb 0.00 in0.0 mm 0.00 in0.0 mm 0.00 in0.0 mm
02:34 PM 100.6°F38.1°C 71.8°F22.1°C 40% 2.7 mph WSW4.3 kmh WSW 4.2 mph6.8 kmh 29.17 in987.8 mb 0.00 in0.0 mm 0.00 in0.0 mm 0.00 in0.0 mm
02:33 PM 100.6°F38.1°C 71.8°F22.1°C 40% 2.7 mph ENE4.3 kmh ENE 4.2 mph6.8 kmh 29.17 in987.8 mb 0.00 in0.0 mm 0.00 in0.0 mm 0.00 in0.0 mm
02:32 PM 100.6°F38.1°C 72.5°F22.5°C 41% Calm Calm 4.2 mph6.8 kmh 29.17 in987.8 mb 0.00 in0.0 mm 0.00 in0.0 mm 0.00 in0.0 mm
02:31 PM 100.9°F38.3°C 72.8°F22.7°C 41% Calm Calm 4.2 mph6.8 kmh 29.17 in987.8 mb 0.00 in0.0 mm 0.00 in0.0 mm 0.00 in0.0 mm
02:30 PM 100.6°F38.1°C 72.5°F22.5°C 41% 1.7 mph W2.7 kmh W 4.2 mph6.8 kmh 29.17 in987.8 mb 0.00 in0.0 mm 0.00 in0.0 mm 0.00 in0.0 mm
02:29 PM 100.8°F38.2°C 72.0°F22.2°C 40% 2.7 mph SW4.3 kmh SW 4.2 mph6.8 kmh 29.17 in987.8 mb 0.00 in0.0 mm 0.00 in0.0 mm 0.00 in0.0 mm
02:28 PM 100.8°F38.2°C 72.0°F22.2°C 40% 4.2 mph SSW6.8 kmh SSW 4.2 mph6.8 kmh 29.17 in987.8 mb 0.00 in0.0 mm 0.00 in0.0 mm 0.00 in0.0 mm
02:27 PM 100.2°F37.9°C 72.2°F22.3°C 41% 2.2 mph WSW3.5 kmh WSW 3.7 mph6.0 kmh 29.18 in988.1 mb 0.00 in0.0 mm 0.00 in0.0 mm 0.00 in0.0 mm
02:26 PM 100.0°F37.8°C 72.0°F22.2°C 41% 3.2 mph SW5.1 kmh SW 3.7 mph6.0 kmh 29.18 in988.1 mb 0.00 in0.0 mm 0.00 in0.0 mm 0.00 in0.0 mm
02:25 PM 100.4°F38.0°C 73.1°F22.8°C 42% 1.1 mph SSW1.8 kmh SSW 3.7 mph6.0 kmh 29.18 in988.1 mb 0.00 in0.0 mm 0.00 in0.0 mm 0.00 in0.0 mm
02:24 PM 100.6°F38.1°C 74.0°F23.3°C 43% 1.7 mph WNW2.7 kmh WNW 3.7 mph6.0 kmh 29.18 in988.1 mb 0.00 in0.0 mm 0.00 in0.0 mm 0.00 in0.0 mm
02:23 PM 100.2°F37.9°C 72.2°F22.3°C 41% 1.7 mph WSW2.7 kmh WSW 3.7 mph6.0 kmh 29.18 in988.1 mb 0.00 in0.0 mm 0.00 in0.0 mm 0.00 in0.0 mm
02:22 PM 100.2°F37.9°C 72.2°F22.3°C 41% 2.2 mph SSW3.5 kmh SSW 4.2 mph6.8 kmh 29.18 in988.1 mb 0.00 in0.0 mm 0.00 in0.0 mm 0.00 in0.0 mm
02:21 PM 100.0°F37.8°C 71.3°F21.8°C 40% 2.7 mph SSW4.3 kmh SSW 4.2 mph6.8 kmh 29.18 in988.1 mb 0.00 in0.0 mm 0.00 in0.0 mm 0.00 in0.0 mm
02:20 PM 100.0°F37.8°C 71.3°F21.8°C 40% 2.7 mph SSW4.3 kmh SSW 4.2 mph6.8 kmh 29.18 in988.1 mb 0.00 in0.0 mm 0.00 in0.0 mm 0.00 in0.0 mm
02:19 PM 100.0°F37.8°C 70.5°F21.4°C 39% 2.2 mph SSW3.5 kmh SSW 4.2 mph6.8 kmh 29.18 in988.1 mb 0.00 in0.0 mm 0.00 in0.0 mm 0.00 in0.0 mm
02:18 PM 99.7°F37.6°C 70.3°F21.3°C 39% 1.1 mph SW1.8 kmh SW 4.2 mph6.8 kmh 29.18 in988.1 mb 0.00 in0.0 mm 0.00 in0.0 mm 0.00 in0.0 mm
02:17 PM 99.3°F37.4°C 70.7°F21.5°C 40% 2.7 mph SSW4.3 kmh SSW 4.2 mph6.8 kmh 29.18 in988.1 mb 0.00 in0.0 mm 0.00 in0.0 mm 0.00 in0.0 mm
02:16 PM 99.5°F37.5°C 69.3°F20.7°C 38% Calm Calm 4.2 mph6.8 kmh 29.18 in988.1 mb 0.00 in0.0 mm 0.00 in0.0 mm 0.00 in0.0 mm
02:15 PM 99.5°F37.5°C 69.3°F20.7°C 38% 2.7 mph WSW4.3 kmh WSW 4.2 mph6.8 kmh 29.18 in988.1 mb 0.00 in0.0 mm 0.00 in0.0 mm 0.00 in0.0 mm
02:14 PM 99.5°F37.5°C 69.3°F20.7°C 38% 2.7 mph SSW4.3 kmh SSW 4.2 mph6.8 kmh 29.18 in988.1 mb 0.00 in0.0 mm 0.00 in0.0 mm 0.00 in0.0 mm
02:13 PM 99.5°F37.5°C 70.8°F21.6°C 40% 2.2 mph SSW3.5 kmh SSW 4.2 mph6.8 kmh 29.18 in988.1 mb 0.00 in0.0 mm 0.00 in0.0 mm 0.00 in0.0 mm
02:12 PM 99.5°F37.5°C 70.8°F21.6°C 40% 2.7 mph WSW4.3 kmh WSW 3.2 mph5.1 kmh 29.18 in988.1 mb 0.00 in0.0 mm 0.00 in0.0 mm 0.00 in0.0 mm
02:11 PM 99.5°F37.5°C 70.8°F21.6°C 40% 3.2 mph SSW5.1 kmh SSW 3.2 mph5.1 kmh 29.18 in988.1 mb 0.00 in0.0 mm 0.00 in0.0 mm 0.00 in0.0 mm
02:10 PM 99.1°F37.3°C 69.7°F20.9°C 39% 2.2 mph SSW3.5 kmh SSW 4.2 mph6.8 kmh 29.18 in988.1 mb 0.00 in0.0 mm 0.00 in0.0 mm 0.00 in0.0 mm
02:09 PM 99.5°F37.5°C 70.1°F21.2°C 39% 2.7 mph SW4.3 kmh SW 4.2 mph6.8 kmh 29.18 in988.1 mb 0.00 in0.0 mm 0.00 in0.0 mm 0.00 in0.0 mm
02:08 PM 99.9°F37.7°C 71.2°F21.8°C 40% 3.2 mph NW5.1 kmh NW 4.2 mph6.8 kmh 29.18 in988.1 mb 0.00 in0.0 mm 0.00 in0.0 mm 0.00 in0.0 mm
02:07 PM 100.2°F37.9°C 70.7°F21.5°C 39% 2.2 mph SSW3.5 kmh SSW 4.2 mph6.8 kmh 29.18 in988.1 mb 0.00 in0.0 mm 0.00 in0.0 mm 0.00 in0.0 mm
02:06 PM 100.2°F37.9°C 71.5°F21.9°C 40% 3.2 mph SW5.1 kmh SW 4.2 mph6.8 kmh 29.18 in988.1 mb 0.00 in0.0 mm 0.00 in0.0 mm 0.00 in0.0 mm
02:05 PM 99.9°F37.7°C 71.9°F22.2°C 41% Calm Calm 4.2 mph6.8 kmh 29.18 in988.1 mb 0.00 in0.0 mm 0.00 in0.0 mm 0.00 in0.0 mm
02:04 PM 99.1°F37.3°C 71.9°F22.2°C 42% 1.7 mph SSW2.7 kmh SSW 4.2 mph6.8 kmh 29.18 in988.1 mb 0.00 in0.0 mm 0.00 in0.0 mm 0.00 in0.0 mm
02:03 PM 99.3°F37.4°C 72.8°F22.7°C 43% 2.2 mph NNE3.5 kmh NNE 4.2 mph6.8 kmh 29.19 in988.5 mb 0.00 in0.0 mm 0.00 in0.0 mm 0.00 in0.0 mm
02:02 PM 99.5°F37.5°C 71.6°F22.0°C 41% 1.1 mph SSW1.8 kmh SSW 4.2 mph6.8 kmh 29.19 in988.5 mb 0.00 in0.0 mm 0.00 in0.0 mm 0.00 in0.0 mm
02:01 PM 99.7°F37.6°C 71.0°F21.7°C 40% 3.2 mph ENE5.1 kmh ENE 4.2 mph6.8 kmh 29.19 in988.5 mb 0.00 in0.0 mm 0.00 in0.0 mm 0.00 in0.0 mm
02:00 PM 99.9°F37.7°C 71.9°F22.2°C 41% 1.7 mph NNE2.7 kmh NNE 4.2 mph6.8 kmh 29.19 in988.5 mb 0.00 in0.0 mm 0.00 in0.0 mm 0.00 in0.0 mm
01:59 PM 99.5°F37.5°C 72.3°F22.4°C 42% 3.2 mph ESE5.1 kmh ESE 4.2 mph6.8 kmh 29.19 in988.5 mb 0.00 in0.0 mm 0.00 in0.0 mm 0.00 in0.0 mm
01:58 PM 99.3°F37.4°C 72.8°F22.7°C 43% 1.7 mph ESE2.7 kmh ESE 4.2 mph6.8 kmh 29.19 in988.5 mb 0.00 in0.0 mm 0.00 in0.0 mm 0.00 in0.0 mm
01:57 PM 99.5°F37.5°C 73.0°F22.8°C 43% 1.7 mph NNW2.7 kmh NNW 4.2 mph6.8 kmh 29.19 in988.5 mb 0.00 in0.0 mm 0.00 in0.0 mm 0.00 in0.0 mm
01:56 PM 99.9°F37.7°C 72.6°F22.6°C 42% 2.2 mph E3.5 kmh E 4.2 mph6.8 kmh 29.19 in988.5 mb 0.00 in0.0 mm 0.00 in0.0 mm 0.00 in0.0 mm
01:55 PM 100.0°F37.8°C 72.0°F22.2°C 41% 1.7 mph ESE2.7 kmh ESE 4.2 mph6.8 kmh 29.19 in988.5 mb 0.00 in0.0 mm 0.00 in0.0 mm 0.00 in0.0 mm
01:54 PM 99.9°F37.7°C 74.0°F23.3°C 44% 1.7 mph E2.7 kmh E 4.2 mph6.8 kmh 29.19 in988.5 mb 0.00 in0.0 mm 0.00 in0.0 mm 0.00 in0.0 mm
01:53 PM 99.7°F37.6°C 73.8°F23.2°C 44% Calm Calm 5.3 mph8.5 kmh 29.19 in988.5 mb 0.00 in0.0 mm 0.00 in0.0 mm 0.00 in0.0 mm
01:52 PM 99.5°F37.5°C 73.7°F23.2°C 44% Calm Calm 5.3 mph8.5 kmh 29.19 in988.5 mb 0.00 in0.0 mm 0.00 in0.0 mm 0.00 in0.0 mm
01:51 PM 99.5°F37.5°C 73.7°F23.2°C 44% Calm Calm 5.3 mph8.5 kmh 29.19 in988.5 mb 0.00 in0.0 mm 0.00 in0.0 mm 0.00 in0.0 mm
01:50 PM 99.0°F37.2°C 72.5°F22.5°C 43% 1.7 mph WSW2.7 kmh WSW 5.3 mph8.5 kmh 29.19 in988.5 mb 0.00 in0.0 mm 0.00 in0.0 mm 0.00 in0.0 mm
01:49 PM 98.8°F37.1°C 73.0°F22.8°C 44% Calm Calm 5.3 mph8.5 kmh 29.19 in988.5 mb 0.00 in0.0 mm 0.00 in0.0 mm 0.00 in0.0 mm
01:48 PM 98.8°F37.1°C 72.3°F22.4°C 43% Calm Calm 5.3 mph8.5 kmh 29.19 in988.5 mb 0.00 in0.0 mm 0.00 in0.0 mm 0.00 in0.0 mm
01:47 PM 99.3°F37.4°C 71.4°F21.9°C 41% 2.2 mph W3.5 kmh W 5.3 mph8.5 kmh 29.19 in988.5 mb 0.00 in0.0 mm 0.00 in0.0 mm 0.00 in0.0 mm
01:46 PM 99.1°F37.3°C 71.9°F22.2°C 42% 2.7 mph NW4.3 kmh NW 5.3 mph8.5 kmh 29.19 in988.5 mb 0.00 in0.0 mm 0.00 in0.0 mm 0.00 in0.0 mm
01:45 PM 98.6°F37.0°C 72.2°F22.3°C 43% 4.2 mph SSW6.8 kmh SSW 5.3 mph8.5 kmh 29.19 in988.5 mb 0.00 in0.0 mm 0.00 in0.0 mm 0.00 in0.0 mm
01:44 PM 98.4°F36.9°C 71.3°F21.8°C 42% 2.7 mph SSW4.3 kmh SSW 5.3 mph8.5 kmh 29.19 in988.5 mb 0.00 in0.0 mm 0.00 in0.0 mm 0.00 in0.0 mm
01:43 PM 98.4°F36.9°C 70.6°F21.4°C 41% 2.2 mph SSW3.5 kmh SSW 4.2 mph6.8 kmh 29.19 in988.5 mb 0.00 in0.0 mm 0.00 in0.0 mm 0.00 in0.0 mm
01:42 PM 98.4°F36.9°C 70.6°F21.4°C 41% 2.7 mph SSW4.3 kmh SSW 4.2 mph6.8 kmh 29.19 in988.5 mb 0.00 in0.0 mm 0.00 in0.0 mm 0.00 in0.0 mm
01:41 PM 97.9°F36.6°C 70.1°F21.2°C 41% 1.7 mph SSW2.7 kmh SSW 4.2 mph6.8 kmh 29.19 in988.5 mb 0.00 in0.0 mm 0.00 in0.0 mm 0.00 in0.0 mm
01:40 PM 98.8°F37.1°C 70.2°F21.2°C 40% 3.2 mph SSW5.1 kmh SSW 4.2 mph6.8 kmh 29.19 in988.5 mb 0.00 in0.0 mm 0.00 in0.0 mm 0.00 in0.0 mm
01:39 PM 99.3°F37.4°C 70.7°F21.5°C 40% 4.2 mph NW6.8 kmh NW 4.2 mph6.8 kmh 29.20 in988.8 mb 0.00 in0.0 mm 0.00 in0.0 mm 0.00 in0.0 mm
01:38 PM 99.3°F37.4°C 69.9°F21.1°C 39% 2.7 mph E4.3 kmh E 4.2 mph6.8 kmh 29.20 in988.8 mb 0.00 in0.0 mm 0.00 in0.0 mm 0.00 in0.0 mm
01:37 PM 99.3°F37.4°C 71.4°F21.9°C 41% 4.2 mph E6.8 kmh E 4.2 mph6.8 kmh 29.20 in988.8 mb 0.00 in0.0 mm 0.00 in0.0 mm 0.00 in0.0 mm
01:36 PM 99.5°F37.5°C 72.3°F22.4°C 42% 4.2 mph SSW6.8 kmh SSW 4.2 mph6.8 kmh 29.20 in988.8 mb 0.00 in0.0 mm 0.00 in0.0 mm 0.00 in0.0 mm
01:35 PM 99.3°F37.4°C 72.8°F22.7°C 43% 3.2 mph E5.1 kmh E 3.2 mph5.1 kmh 29.20 in988.8 mb 0.00 in0.0 mm 0.00 in0.0 mm 0.00 in0.0 mm
01:34 PM 99.5°F37.5°C 73.7°F23.2°C 44% Calm Calm 3.2 mph5.1 kmh 29.20 in988.8 mb 0.00 in0.0 mm 0.00 in0.0 mm 0.00 in0.0 mm
01:33 PM 99.5°F37.5°C 73.0°F22.8°C 43% Calm Calm 3.2 mph5.1 kmh 29.20 in988.8 mb 0.00 in0.0 mm 0.00 in0.0 mm 0.00 in0.0 mm
01:32 PM 99.1°F37.3°C 73.3°F22.9°C 44% Calm Calm 3.7 mph6.0 kmh 29.20 in988.8 mb 0.00 in0.0 mm 0.00 in0.0 mm 0.00 in0.0 mm
01:31 PM 99.0°F37.2°C 73.9°F23.3°C 45% Calm Calm 3.7 mph6.0 kmh 29.20 in988.8 mb 0.00 in0.0 mm 0.00 in0.0 mm 0.00 in0.0 mm
01:30 PM 98.4°F36.9°C 73.3°F22.9°C 45% Calm Calm 3.7 mph6.0 kmh 29.20 in988.8 mb 0.00 in0.0 mm 0.00 in0.0 mm 0.00 in0.0 mm
01:29 PM 98.4°F36.9°C 72.7°F22.6°C 44% 1.1 mph SSW1.8 kmh SSW 3.7 mph6.0 kmh 29.20 in988.8 mb 0.00 in0.0 mm 0.00 in0.0 mm 0.00 in0.0 mm
01:28 PM 98.4°F36.9°C 72.0°F22.2°C 43% 2.7 mph WSW4.3 kmh WSW 3.7 mph6.0 kmh 29.20 in988.8 mb 0.00 in0.0 mm 0.00 in0.0 mm 0.00 in0.0 mm
01:27 PM 98.8°F37.1°C 72.3°F22.4°C 43% 2.2 mph SSW3.5 kmh SSW 3.7 mph6.0 kmh 29.20 in988.8 mb 0.00 in0.0 mm 0.00 in0.0 mm 0.00 in0.0 mm
01:26 PM 99.0°F37.2°C 73.2°F22.9°C 44% 1.7 mph S2.7 kmh S 3.7 mph6.0 kmh 29.20 in988.8 mb 0.00 in0.0 mm 0.00 in0.0 mm 0.00 in0.0 mm
01:25 PM 98.8°F37.1°C 73.7°F23.2°C 45% 2.2 mph WSW3.5 kmh WSW 4.7 mph7.6 kmh 29.20 in988.8 mb 0.00 in0.0 mm 0.00 in0.0 mm 0.00 in0.0 mm
01:24 PM 98.4°F36.9°C 73.3°F22.9°C 45% 1.7 mph SW2.7 kmh SW 4.7 mph7.6 kmh 29.20 in988.8 mb 0.00 in0.0 mm 0.00 in0.0 mm 0.00 in0.0 mm
01:23 PM 98.6°F37.0°C 72.9°F22.7°C 44% 3.2 mph SSW5.1 kmh SSW 4.7 mph7.6 kmh 29.20 in988.8 mb 0.00 in0.0 mm 0.00 in0.0 mm 0.00 in0.0 mm
01:22 PM 98.4°F36.9°C 72.7°F22.6°C 44% 3.2 mph SSW5.1 kmh SSW 4.7 mph7.6 kmh 29.20 in988.8 mb 0.00 in0.0 mm 0.00 in0.0 mm 0.00 in0.0 mm
01:21 PM 98.6°F37.0°C 72.2°F22.3°C 43% 2.7 mph SW4.3 kmh SW 4.7 mph7.6 kmh 29.20 in988.8 mb 0.00 in0.0 mm 0.00 in0.0 mm 0.00 in0.0 mm
01:20 PM 98.6°F37.0°C 72.9°F22.7°C 44% 2.2 mph WSW3.5 kmh WSW 4.7 mph7.6 kmh 29.20 in988.8 mb 0.00 in0.0 mm 0.00 in0.0 mm 0.00 in0.0 mm
01:19 PM 99.0°F37.2°C 73.2°F22.9°C 44% 2.7 mph SW4.3 kmh SW 4.7 mph7.6 kmh 29.20 in988.8 mb 0.00 in0.0 mm 0.00 in0.0 mm 0.00 in0.0 mm
01:18 PM 98.8°F37.1°C 73.0°F22.8°C 44% Calm Calm 4.7 mph7.6 kmh 29.20 in988.8 mb 0.00 in0.0 mm 0.00 in0.0 mm 0.00 in0.0 mm
01:17 PM 98.6°F37.0°C 72.9°F22.7°C 44% 1.7 mph SSE2.7 kmh SSE 4.7 mph7.6 kmh 29.20 in988.8 mb 0.00 in0.0 mm 0.00 in0.0 mm 0.00 in0.0 mm
01:16 PM 98.1°F36.7°C 72.4°F22.4°C 44% 3.7 mph NE6.0 kmh NE 4.7 mph7.6 kmh 29.20 in988.8 mb 0.00 in0.0 mm 0.00 in0.0 mm 0.00 in0.0 mm
01:15 PM 97.9°F36.6°C 72.9°F22.7°C 45% 3.7 mph S6.0 kmh S 4.2 mph6.8 kmh 29.20 in988.8 mb 0.00 in0.0 mm 0.00 in0.0 mm 0.00 in0.0 mm
01:14 PM 97.5°F36.4°C 72.5°F22.5°C 45% 1.7 mph ENE2.7 kmh ENE 4.2 mph6.8 kmh 29.20 in988.8 mb 0.00 in0.0 mm 0.00 in0.0 mm 0.00 in0.0 mm
01:13 PM 97.2°F36.2°C 71.6°F22.0°C 44% 1.1 mph WSW1.8 kmh WSW 4.2 mph6.8 kmh 29.20 in988.8 mb 0.00 in0.0 mm 0.00 in0.0 mm 0.00 in0.0 mm
01:12 PM 97.9°F36.6°C 73.5°F23.1°C 46% 3.2 mph SSW5.1 kmh SSW 4.2 mph6.8 kmh 29.20 in988.8 mb 0.00 in0.0 mm 0.00 in0.0 mm 0.00 in0.0 mm
01:11 PM 97.7°F36.5°C 73.4°F23.0°C 46% 1.7 mph WSW2.7 kmh WSW 4.2 mph6.8 kmh 29.20 in988.8 mb 0.00 in0.0 mm 0.00 in0.0 mm 0.00 in0.0 mm
01:10 PM 97.2°F36.2°C 72.3°F22.4°C 45% Calm Calm 4.2 mph6.8 kmh 29.20 in988.8 mb 0.00 in0.0 mm 0.00 in0.0 mm 0.00 in0.0 mm
01:09 PM 97.2°F36.2°C 72.9°F22.7°C 46% 1.7 mph WNW2.7 kmh WNW 4.2 mph6.8 kmh 29.20 in988.8 mb 0.00 in0.0 mm 0.00 in0.0 mm 0.00 in0.0 mm
01:08 PM 97.3°F36.3°C 72.3°F22.4°C 45% 2.7 mph SSW4.3 kmh SSW 4.2 mph6.8 kmh 29.20 in988.8 mb 0.00 in0.0 mm 0.00 in0.0 mm 0.00 in0.0 mm
01:07 PM 97.3°F36.3°C 72.3°F22.4°C 45% 1.7 mph N2.7 kmh N 4.2 mph6.8 kmh 29.20 in988.8 mb 0.00 in0.0 mm 0.00 in0.0 mm 0.00 in0.0 mm
01:06 PM 97.3°F36.3°C 72.3°F22.4°C 45% 4.2 mph SW6.8 kmh SW 4.2 mph6.8 kmh 29.20 in988.8 mb 0.00 in0.0 mm 0.00 in0.0 mm 0.00 in0.0 mm
01:05 PM 97.5°F36.4°C 72.5°F22.5°C 45% Calm Calm 4.2 mph6.8 kmh 29.20 in988.8 mb 0.00 in0.0 mm 0.00 in0.0 mm 0.00 in0.0 mm
01:04 PM 97.2°F36.2°C 71.6°F22.0°C 44% 1.1 mph SW1.8 kmh SW 4.2 mph6.8 kmh 29.20 in988.8 mb 0.00 in0.0 mm 0.00 in0.0 mm 0.00 in0.0 mm
01:03 PM 97.3°F36.3°C 71.7°F22.1°C 44% 2.2 mph SSW3.5 kmh SSW 4.2 mph6.8 kmh 29.20 in988.8 mb 0.00 in0.0 mm 0.00 in0.0 mm 0.00 in0.0 mm
01:02 PM 97.0°F36.1°C 72.1°F22.3°C 45% Calm Calm 4.2 mph6.8 kmh 29.20 in988.8 mb 0.00 in0.0 mm 0.00 in0.0 mm 0.00 in0.0 mm
01:01 PM 97.0°F36.1°C 72.1°F22.3°C 45% 1.7 mph WNW2.7 kmh WNW 4.2 mph6.8 kmh 29.20 in988.8 mb 0.00 in0.0 mm 0.00 in0.0 mm 0.00 in0.0 mm
01:00 PM 97.0°F36.1°C 72.1°F22.3°C 45% 1.7 mph SW2.7 kmh SW 4.2 mph6.8 kmh 29.20 in988.8 mb 0.00 in0.0 mm 0.00 in0.0 mm 0.00 in0.0 mm
12:59 PM 97.2°F36.2°C 71.6°F22.0°C 44% 1.7 mph SSW2.7 kmh SSW 4.2 mph6.8 kmh 29.20 in988.8 mb 0.00 in0.0 mm 0.00 in0.0 mm 0.00 in0.0 mm
12:58 PM 97.0°F36.1°C 72.7°F22.6°C 46% 1.7 mph SSW2.7 kmh SSW 4.2 mph6.8 kmh 29.20 in988.8 mb 0.00 in0.0 mm 0.00 in0.0 mm 0.00 in0.0 mm
12:57 PM 96.8°F36.0°C 72.5°F22.5°C 46% Calm Calm 4.2 mph6.8 kmh 29.20 in988.8 mb 0.00 in0.0 mm 0.00 in0.0 mm 0.00 in0.0 mm
12:56 PM 97.0°F36.1°C 72.7°F22.6°C 46% 1.1 mph W1.8 kmh W 4.2 mph6.8 kmh 29.20 in988.8 mb 0.00 in0.0 mm 0.00 in0.0 mm 0.00 in0.0 mm
12:55 PM 97.0°F36.1°C 72.7°F22.6°C 46% 1.7 mph N2.7 kmh N 4.2 mph6.8 kmh 29.20 in988.8 mb 0.00 in0.0 mm 0.00 in0.0 mm 0.00 in0.0 mm
12:54 PM 96.6°F35.9°C 72.4°F22.4°C 46% 1.7 mph SSW2.7 kmh SSW 4.2 mph6.8 kmh 29.20 in988.8 mb 0.00 in0.0 mm 0.00 in0.0 mm 0.00 in0.0 mm
12:53 PM 96.8°F36.0°C 71.9°F22.2°C 45% 1.7 mph WSW2.7 kmh WSW 4.7 mph7.6 kmh 29.20 in988.8 mb 0.00 in0.0 mm 0.00 in0.0 mm 0.00 in0.0 mm
12:52 PM 96.8°F36.0°C 72.5°F22.5°C 46% 4.2 mph SW6.8 kmh SW 4.7 mph7.6 kmh 29.20 in988.8 mb 0.00 in0.0 mm 0.00 in0.0 mm 0.00 in0.0 mm
12:51 PM 96.6°F35.9°C 71.7°F22.1°C 45% 1.7 mph SW2.7 kmh SW 4.7 mph7.6 kmh 29.21 in989.2 mb 0.00 in0.0 mm 0.00 in0.0 mm 0.00 in0.0 mm
12:50 PM 96.6°F35.9°C 71.7°F22.1°C 45% 1.7 mph W2.7 kmh W 4.7 mph7.6 kmh 29.21 in989.2 mb 0.00 in0.0 mm 0.00 in0.0 mm 0.00 in0.0 mm
12:49 PM 96.6°F35.9°C 71.1°F21.7°C 44% 1.7 mph SSW2.7 kmh SSW 4.7 mph7.6 kmh 29.21 in989.2 mb 0.00 in0.0 mm 0.00 in0.0 mm 0.00 in0.0 mm
12:48 PM 96.4°F35.8°C 71.5°F21.9°C 45% 2.2 mph ENE3.5 kmh ENE 4.7 mph7.6 kmh 29.21 in989.2 mb 0.00 in0.0 mm 0.00 in0.0 mm 0.00 in0.0 mm
12:47 PM 96.3°F35.7°C 72.1°F22.3°C 46% 2.7 mph SSW4.3 kmh SSW 4.7 mph7.6 kmh 29.21 in989.2 mb 0.00 in0.0 mm 0.00 in0.0 mm 0.00 in0.0 mm
12:46 PM 96.4°F35.8°C 72.2°F22.3°C 46% 1.1 mph SSW1.8 kmh SSW 4.7 mph7.6 kmh 29.21 in989.2 mb 0.00 in0.0 mm 0.00 in0.0 mm 0.00 in0.0 mm
12:45 PM 96.3°F35.7°C 72.1°F22.3°C 46% 1.7 mph SSE2.7 kmh SSE 4.7 mph7.6 kmh 29.21 in989.2 mb 0.00 in0.0 mm 0.00 in0.0 mm 0.00 in0.0 mm
12:44 PM 96.1°F35.6°C 72.6°F22.6°C 47% 4.7 mph SSW7.6 kmh SSW 4.7 mph7.6 kmh 29.21 in989.2 mb 0.00 in0.0 mm 0.00 in0.0 mm 0.00 in0.0 mm
12:43 PM 96.1°F35.6°C 72.6°F22.6°C 47% Calm Calm 4.7 mph7.6 kmh 29.21 in989.2 mb 0.00 in0.0 mm 0.00 in0.0 mm 0.00 in0.0 mm
12:42 PM 96.3°F35.7°C 72.1°F22.3°C 46% 2.2 mph SW3.5 kmh SW 4.7 mph7.6 kmh 29.21 in989.2 mb 0.00 in0.0 mm 0.00 in0.0 mm 0.00 in0.0 mm
12:41 PM 96.1°F35.6°C 72.6°F22.6°C 47% Calm Calm 4.7 mph7.6 kmh 29.21 in989.2 mb 0.00 in0.0 mm 0.00 in0.0 mm 0.00 in0.0 mm
12:40 PM 95.9°F35.5°C 72.4°F22.4°C 47% 2.7 mph S4.3 kmh S 4.7 mph7.6 kmh 29.21 in989.2 mb 0.00 in0.0 mm 0.00 in0.0 mm 0.00 in0.0 mm
12:39 PM 95.9°F35.5°C 73.0°F22.8°C 48% 2.7 mph WSW4.3 kmh WSW 4.7 mph7.6 kmh 29.21 in989.2 mb 0.00 in0.0 mm 0.00 in0.0 mm 0.00 in0.0 mm
12:38 PM 95.7°F35.4°C 73.4°F23.0°C 49% 2.7 mph SSW4.3 kmh SSW 4.7 mph7.6 kmh 29.21 in989.2 mb 0.00 in0.0 mm 0.00 in0.0 mm 0.00 in0.0 mm
12:37 PM 95.5°F35.3°C 73.2°F22.9°C 49% 2.2 mph SSW3.5 kmh SSW 3.2 mph5.1 kmh 29.21 in989.2 mb 0.00 in0.0 mm 0.00 in0.0 mm 0.00 in0.0 mm
12:36 PM 95.9°F35.5°C 73.6°F23.1°C 49% 2.7 mph SW4.3 kmh SW 3.2 mph5.1 kmh 29.21 in989.2 mb 0.00 in0.0 mm 0.00 in0.0 mm 0.00 in0.0 mm
12:35 PM 95.7°F35.4°C 74.0°F23.3°C 50% 2.2 mph WSW3.5 kmh WSW 3.2 mph5.1 kmh 29.21 in989.2 mb 0.00 in0.0 mm 0.00 in0.0 mm 0.00 in0.0 mm
12:34 PM 95.4°F35.2°C 73.8°F23.2°C 50% 2.2 mph NNW3.5 kmh NNW 3.2 mph5.1 kmh 29.21 in989.2 mb 0.00 in0.0 mm 0.00 in0.0 mm 0.00 in0.0 mm
12:33 PM 95.2°F35.1°C 73.0°F22.8°C 49% 1.7 mph SSW2.7 kmh SSW 3.2 mph5.1 kmh 29.21 in989.2 mb 0.00 in0.0 mm 0.00 in0.0 mm 0.00 in0.0 mm
12:32 PM 95.2°F35.1°C 73.0°F22.8°C 49% 2.7 mph SSE4.3 kmh SSE 3.2 mph5.1 kmh 29.21 in989.2 mb 0.00 in0.0 mm 0.00 in0.0 mm 0.00 in0.0 mm
12:31 PM 95.0°F35.0°C 73.4°F23.0°C 50% 2.7 mph SSW4.3 kmh SSW 3.2 mph5.1 kmh 29.21 in989.2 mb 0.00 in0.0 mm 0.00 in0.0 mm 0.00 in0.0 mm
12:30 PM 95.4°F35.2°C 74.9°F23.8°C 52% 1.7 mph SSW2.7 kmh SSW 2.7 mph4.3 kmh 29.21 in989.2 mb 0.00 in0.0 mm 0.00 in0.0 mm 0.00 in0.0 mm
12:29 PM 95.2°F35.1°C 74.2°F23.4°C 51% 2.7 mph SW4.3 kmh SW 2.7 mph4.3 kmh 29.21 in989.2 mb 0.00 in0.0 mm 0.00 in0.0 mm 0.00 in0.0 mm
12:28 PM 94.8°F34.9°C 73.2°F22.9°C 50% 2.7 mph SW4.3 kmh SW 2.7 mph4.3 kmh 29.21 in989.2 mb 0.00 in0.0 mm 0.00 in0.0 mm 0.00 in0.0 mm
12:27 PM 94.5°F34.7°C 73.5°F23.1°C 51% Calm Calm 3.7 mph6.0 kmh 29.22 in989.5 mb 0.00 in0.0 mm 0.00 in0.0 mm 0.00 in0.0 mm
12:26 PM 94.1°F34.5°C 73.2°F22.9°C 51% 1.1 mph SW1.8 kmh SW 3.7 mph6.0 kmh 29.22 in989.5 mb 0.00 in0.0 mm 0.00 in0.0 mm 0.00 in0.0 mm
12:25 PM 94.1°F34.5°C 73.2°F22.9°C 51% Calm Calm 3.7 mph6.0 kmh 29.22 in989.5 mb 0.00 in0.0 mm 0.00 in0.0 mm 0.00 in0.0 mm
12:24 PM 94.3°F34.6°C 73.3°F22.9°C 51% Calm Calm 3.7 mph6.0 kmh 29.22 in989.5 mb 0.00 in0.0 mm 0.00 in0.0 mm 0.00 in0.0 mm
12:23 PM 94.5°F34.7°C 74.1°F23.4°C 52% Calm Calm 3.7 mph6.0 kmh 29.22 in989.5 mb 0.00 in0.0 mm 0.00 in0.0 mm 0.00 in0.0 mm
12:22 PM 94.5°F34.7°C 74.1°F23.4°C 52% Calm Calm 3.7 mph6.0 kmh 29.22 in989.5 mb 0.00 in0.0 mm 0.00 in0.0 mm 0.00 in0.0 mm
12:21 PM 94.3°F34.6°C 73.9°F23.3°C 52% Calm Calm 3.7 mph6.0 kmh 29.22 in989.5 mb 0.00 in0.0 mm 0.00 in0.0 mm 0.00 in0.0 mm
12:20 PM 94.1°F34.5°C 73.2°F22.9°C 51% 1.1 mph NE1.8 kmh NE 3.7 mph6.0 kmh 29.22 in989.5 mb 0.00 in0.0 mm 0.00 in0.0 mm 0.00 in0.0 mm
12:19 PM 94.1°F34.5°C 73.2°F22.9°C 51% 1.7 mph WSW2.7 kmh WSW 3.7 mph6.0 kmh 29.22 in989.5 mb 0.00 in0.0 mm 0.00 in0.0 mm 0.00 in0.0 mm
12:18 PM 93.9°F34.4°C 73.0°F22.8°C 51% 3.2 mph N5.1 kmh N 3.7 mph6.0 kmh 29.22 in989.5 mb 0.00 in0.0 mm 0.00 in0.0 mm 0.00 in0.0 mm
12:17 PM 93.4°F34.1°C 73.7°F23.2°C 53% 1.1 mph S1.8 kmh S 2.7 mph4.3 kmh 29.22 in989.5 mb 0.00 in0.0 mm 0.00 in0.0 mm 0.00 in0.0 mm
12:16 PM 93.2°F34.0°C 72.9°F22.7°C 52% Calm Calm 2.7 mph4.3 kmh 29.22 in989.5 mb 0.00 in0.0 mm 0.00 in0.0 mm 0.00 in0.0 mm
12:15 PM 93.2°F34.0°C 72.3°F22.4°C 51% Calm Calm 2.7 mph4.3 kmh 29.22 in989.5 mb 0.00 in0.0 mm 0.00 in0.0 mm 0.00 in0.0 mm
12:14 PM 93.6°F34.2°C 73.3°F22.9°C 52% Calm Calm 2.7 mph4.3 kmh 29.22 in989.5 mb 0.00 in0.0 mm 0.00 in0.0 mm 0.00 in0.0 mm
12:13 PM 93.6°F34.2°C 73.8°F23.2°C 53% Calm Calm 2.7 mph4.3 kmh 29.22 in989.5 mb 0.00 in0.0 mm 0.00 in0.0 mm 0.00 in0.0 mm
12:12 PM 93.4°F34.1°C 73.7°F23.2°C 53% 1.7 mph ESE2.7 kmh ESE 2.7 mph4.3 kmh 29.22 in989.5 mb 0.00 in0.0 mm 0.00 in0.0 mm 0.00 in0.0 mm
12:11 PM 93.2°F34.0°C 74.0°F23.3°C 54% Calm Calm 2.2 mph3.5 kmh 29.22 in989.5 mb 0.00 in0.0 mm 0.00 in0.0 mm 0.00 in0.0 mm
12:10 PM 93.0°F33.9°C 73.9°F23.3°C 54% Calm Calm 2.2 mph3.5 kmh 29.22 in989.5 mb 0.00 in0.0 mm 0.00 in0.0 mm 0.00 in0.0 mm
12:09 PM 92.8°F33.8°C 74.2°F23.4°C 55% Calm Calm 2.7 mph4.3 kmh 29.22 in989.5 mb 0.00 in0.0 mm 0.00 in0.0 mm 0.00 in0.0 mm
12:08 PM 92.7°F33.7°C 74.1°F23.4°C 55% Calm Calm 2.7 mph4.3 kmh 29.22 in989.5 mb 0.00 in0.0 mm 0.00 in0.0 mm 0.00 in0.0 mm
12:07 PM 92.5°F33.6°C 73.9°F23.3°C 55% Calm Calm 2.7 mph4.3 kmh 29.22 in989.5 mb 0.00 in0.0 mm 0.00 in0.0 mm 0.00 in0.0 mm
12:06 PM 92.5°F33.6°C 73.9°F23.3°C 55% Calm Calm 2.7 mph4.3 kmh 29.22 in989.5 mb 0.00 in0.0 mm 0.00 in0.0 mm 0.00 in0.0 mm
12:05 PM 92.5°F33.6°C 73.9°F23.3°C 55% Calm Calm 2.7 mph4.3 kmh 29.22 in989.5 mb 0.00 in0.0 mm 0.00 in0.0 mm 0.00 in0.0 mm
12:04 PM 92.5°F33.6°C 73.4°F23.0°C 54% 1.7 mph E2.7 kmh E 2.7 mph4.3 kmh 29.22 in989.5 mb 0.00 in0.0 mm 0.00 in0.0 mm 0.00 in0.0 mm
12:03 PM 92.3°F33.5°C 73.2°F22.9°C 54% Calm Calm 2.7 mph4.3 kmh 29.22 in989.5 mb 0.00 in0.0 mm 0.00 in0.0 mm 0.00 in0.0 mm
12:02 PM 92.1°F33.4°C 73.0°F22.8°C 54% 1.1 mph SSW1.8 kmh SSW 2.7 mph4.3 kmh 29.22 in989.5 mb 0.00 in0.0 mm 0.00 in0.0 mm 0.00 in0.0 mm
12:01 PM 92.1°F33.4°C 73.0°F22.8°C 54% Calm Calm 3.2 mph5.1 kmh 29.22 in989.5 mb 0.00 in0.0 mm 0.00 in0.0 mm 0.00 in0.0 mm
12:00 PM 92.1°F33.4°C 73.0°F22.8°C 54% Calm Calm 3.2 mph5.1 kmh 29.22 in989.5 mb 0.00 in0.0 mm 0.00 in0.0 mm 0.00 in0.0 mm
11:59 AM 91.9°F33.3°C 73.4°F23.0°C 55% Calm Calm 3.2 mph5.1 kmh 29.22 in989.5 mb 0.00 in0.0 mm 0.00 in0.0 mm 0.00 in0.0 mm
11:58 AM 91.9°F33.3°C 73.4°F23.0°C 55% 1.1 mph SSW1.8 kmh SSW 3.2 mph5.1 kmh 29.22 in989.5 mb 0.00 in0.0 mm 0.00 in0.0 mm 0.00 in0.0 mm
11:57 AM 91.8°F33.2°C 73.3°F22.9°C 55% 2.2 mph SSW3.5 kmh SSW 3.2 mph5.1 kmh 29.22 in989.5 mb 0.00 in0.0 mm 0.00 in0.0 mm 0.00 in0.0 mm
11:56 AM 91.8°F33.2°C 73.3°F22.9°C 55% Calm Calm 3.2 mph5.1 kmh 29.22 in989.5 mb 0.00 in0.0 mm 0.00 in0.0 mm 0.00 in0.0 mm
11:55 AM 91.6°F33.1°C 73.1°F22.8°C 55% 1.7 mph WSW2.7 kmh WSW 3.2 mph5.1 kmh 29.22 in989.5 mb 0.00 in0.0 mm 0.00 in0.0 mm 0.00 in0.0 mm
11:54 AM 91.6°F33.1°C 73.1°F22.8°C 55% Calm Calm 3.2 mph5.1 kmh 29.22 in989.5 mb 0.00 in0.0 mm 0.00 in0.0 mm 0.00 in0.0 mm
11:53 AM 91.6°F33.1°C 72.6°F22.6°C 54% Calm Calm 3.2 mph5.1 kmh 29.22 in989.5 mb 0.00 in0.0 mm 0.00 in0.0 mm 0.00 in0.0 mm
11:52 AM 91.4°F33.0°C 72.9°F22.7°C 55% 3.2 mph WSW5.1 kmh WSW 3.2 mph5.1 kmh 29.22 in989.5 mb 0.00 in0.0 mm 0.00 in0.0 mm 0.00 in0.0 mm
11:51 AM 91.2°F32.9°C 71.6°F22.0°C 53% 2.2 mph SW3.5 kmh SW 3.2 mph5.1 kmh 29.23 in989.8 mb 0.00 in0.0 mm 0.00 in0.0 mm 0.00 in0.0 mm
11:50 AM 91.2°F32.9°C 71.6°F22.0°C 53% 2.2 mph SSW3.5 kmh SSW 3.2 mph5.1 kmh 29.23 in989.8 mb 0.00 in0.0 mm 0.00 in0.0 mm 0.00 in0.0 mm
11:49 AM 91.0°F32.8°C 72.6°F22.6°C 55% 3.2 mph E5.1 kmh E 3.2 mph5.1 kmh 29.23 in989.8 mb 0.00 in0.0 mm 0.00 in0.0 mm 0.00 in0.0 mm
11:48 AM 91.0°F32.8°C 73.1°F22.8°C 56% 2.2 mph SSW3.5 kmh SSW 3.2 mph5.1 kmh 29.23 in989.8 mb 0.00 in0.0 mm 0.00 in0.0 mm 0.00 in0.0 mm
11:47 AM 90.9°F32.7°C 73.0°F22.8°C 56% 3.2 mph S5.1 kmh S 3.2 mph5.1 kmh 29.23 in989.8 mb 0.00 in0.0 mm 0.00 in0.0 mm 0.00 in0.0 mm
11:46 AM 90.9°F32.7°C 74.0°F23.3°C 58% 2.2 mph SW3.5 kmh SW 3.2 mph5.1 kmh 29.23 in989.8 mb 0.00 in0.0 mm 0.00 in0.0 mm 0.00 in0.0 mm
11:45 AM 90.7°F32.6°C 73.9°F23.3°C 58% Calm Calm 3.2 mph5.1 kmh 29.23 in989.8 mb 0.00 in0.0 mm 0.00 in0.0 mm 0.00 in0.0 mm
11:44 AM 90.7°F32.6°C 73.9°F23.3°C 58% Calm Calm 3.2 mph5.1 kmh 29.23 in989.8 mb 0.00 in0.0 mm 0.00 in0.0 mm 0.00 in0.0 mm
11:43 AM 90.5°F32.5°C 73.7°F23.2°C 58% 3.2 mph SSW5.1 kmh SSW 3.2 mph5.1 kmh 29.23 in989.8 mb 0.00 in0.0 mm 0.00 in0.0 mm 0.00 in0.0 mm
11:42 AM 90.5°F32.5°C 73.1°F22.8°C 57% Calm Calm 3.2 mph5.1 kmh 29.23 in989.8 mb 0.00 in0.0 mm 0.00 in0.0 mm 0.00 in0.0 mm
11:41 AM 90.5°F32.5°C 73.1°F22.8°C 57% Calm Calm 3.2 mph5.1 kmh 29.23 in989.8 mb 0.00 in0.0 mm 0.00 in0.0 mm 0.00 in0.0 mm
11:40 AM 90.5°F32.5°C 74.2°F23.4°C 59% Calm Calm 3.2 mph5.1 kmh 29.23 in989.8 mb 0.00 in0.0 mm 0.00 in0.0 mm 0.00 in0.0 mm
11:39 AM 90.5°F32.5°C 74.2°F23.4°C 59% Calm Calm 3.2 mph5.1 kmh 29.23 in989.8 mb 0.00 in0.0 mm 0.00 in0.0 mm 0.00 in0.0 mm
11:38 AM 90.3°F32.4°C 73.5°F23.1°C 58% Calm Calm 3.7 mph6.0 kmh 29.23 in989.8 mb 0.00 in0.0 mm 0.00 in0.0 mm 0.00 in0.0 mm
11:37 AM 90.3°F32.4°C 73.5°F23.1°C 58% Calm Calm 3.7 mph6.0 kmh 29.23 in989.8 mb 0.00 in0.0 mm 0.00 in0.0 mm 0.00 in0.0 mm
11:36 AM 90.1°F32.3°C 73.3°F22.9°C 58% 1.1 mph SSW1.8 kmh SSW 3.7 mph6.0 kmh 29.23 in989.8 mb 0.00 in0.0 mm 0.00 in0.0 mm 0.00 in0.0 mm
11:35 AM 90.1°F32.3°C 73.8°F23.2°C 59% 2.7 mph SSW4.3 kmh SSW 3.7 mph6.0 kmh 29.23 in989.8 mb 0.00 in0.0 mm 0.00 in0.0 mm 0.00 in0.0 mm
11:34 AM 90.1°F32.3°C 73.3°F22.9°C 58% Calm Calm 3.7 mph6.0 kmh 29.23 in989.8 mb 0.00 in0.0 mm 0.00 in0.0 mm 0.00 in0.0 mm
11:33 AM 90.0°F32.2°C 73.7°F23.2°C 59% Calm Calm 3.7 mph6.0 kmh 29.23 in989.8 mb 0.00 in0.0 mm 0.00 in0.0 mm 0.00 in0.0 mm
11:32 AM 90.0°F32.2°C 73.7°F23.2°C 59% 1.7 mph SW2.7 kmh SW 3.7 mph6.0 kmh 29.23 in989.8 mb 0.00 in0.0 mm 0.00 in0.0 mm 0.00 in0.0 mm
11:31 AM 90.0°F32.2°C 73.7°F23.2°C 59% Calm Calm 3.7 mph6.0 kmh 29.23 in989.8 mb 0.00 in0.0 mm 0.00 in0.0 mm 0.00 in0.0 mm
11:30 AM 89.8°F32.1°C 73.5°F23.1°C 59% 2.2 mph SW3.5 kmh SW 3.7 mph6.0 kmh 29.23 in989.8 mb 0.00 in0.0 mm 0.00 in0.0 mm 0.00 in0.0 mm
11:29 AM 89.8°F32.1°C 73.5°F23.1°C 59% 2.2 mph SSW3.5 kmh SSW 3.7 mph6.0 kmh 29.23 in989.8 mb 0.00 in0.0 mm 0.00 in0.0 mm 0.00 in0.0 mm
11:28 AM 89.8°F32.1°C 73.0°F22.8°C 58% Calm Calm 3.2 mph5.1 kmh 29.23 in989.8 mb 0.00 in0.0 mm 0.00 in0.0 mm 0.00 in0.0 mm
11:27 AM 89.6°F32.0°C 72.8°F22.7°C 58% 2.7 mph SW4.3 kmh SW 3.2 mph5.1 kmh 29.23 in989.8 mb 0.00 in0.0 mm 0.00 in0.0 mm 0.00 in0.0 mm
11:26 AM 89.6°F32.0°C 72.8°F22.7°C 58% 1.7 mph SW2.7 kmh SW 3.2 mph5.1 kmh 29.23 in989.8 mb 0.00 in0.0 mm 0.00 in0.0 mm 0.00 in0.0 mm
11:25 AM 89.6°F32.0°C 72.8°F22.7°C 58% 3.2 mph WNW5.1 kmh WNW 3.2 mph5.1 kmh 29.23 in989.8 mb 0.00 in0.0 mm 0.00 in0.0 mm 0.00 in0.0 mm
11:24 AM 89.4°F31.9°C 73.7°F23.2°C 60% Calm Calm 3.7 mph6.0 kmh 29.23 in989.8 mb 0.00 in0.0 mm 0.00 in0.0 mm 0.00 in0.0 mm
11:23 AM 89.4°F31.9°C 74.1°F23.4°C 61% 1.7 mph SSW2.7 kmh SSW 3.7 mph6.0 kmh 29.23 in989.8 mb 0.00 in0.0 mm 0.00 in0.0 mm 0.00 in0.0 mm
11:22 AM 89.2°F31.8°C 74.4°F23.6°C 62% 2.2 mph SSW3.5 kmh SSW 3.7 mph6.0 kmh 29.23 in989.8 mb 0.00 in0.0 mm 0.00 in0.0 mm 0.00 in0.0 mm
11:21 AM 89.2°F31.8°C 74.0°F23.3°C 61% Calm Calm 3.7 mph6.0 kmh 29.23 in989.8 mb 0.00 in0.0 mm 0.00 in0.0 mm 0.00 in0.0 mm
11:20 AM 89.2°F31.8°C 74.0°F23.3°C 61% Calm Calm 3.7 mph6.0 kmh 29.23 in989.8 mb 0.00 in0.0 mm 0.00 in0.0 mm 0.00 in0.0 mm
11:19 AM 89.2°F31.8°C 74.0°F23.3°C 61% Calm Calm 3.7 mph6.0 kmh 29.23 in989.8 mb 0.00 in0.0 mm 0.00 in0.0 mm 0.00 in0.0 mm
11:18 AM 89.1°F31.7°C 73.4°F23.0°C 60% Calm Calm 3.7 mph6.0 kmh 29.23 in989.8 mb 0.00 in0.0 mm 0.00 in0.0 mm 0.00 in0.0 mm
11:17 AM 89.1°F31.7°C 73.9°F23.3°C 61% Calm Calm 3.7 mph6.0 kmh 29.23 in989.8 mb 0.00 in0.0 mm 0.00 in0.0 mm 0.00 in0.0 mm
11:16 AM 89.1°F31.7°C 73.9°F23.3°C 61% 2.2 mph SW3.5 kmh SW 3.7 mph6.0 kmh 29.23 in989.8 mb 0.00 in0.0 mm 0.00 in0.0 mm 0.00 in0.0 mm
11:15 AM 88.9°F31.6°C 74.2°F23.4°C 62% 2.7 mph W4.3 kmh W 3.7 mph6.0 kmh 29.23 in989.8 mb 0.00 in0.0 mm 0.00 in0.0 mm 0.00 in0.0 mm
11:14 AM 88.9°F31.6°C 74.6°F23.7°C 63% 3.7 mph NE6.0 kmh NE 3.7 mph6.0 kmh 29.23 in989.8 mb 0.00 in0.0 mm 0.00 in0.0 mm 0.00 in0.0 mm
11:13 AM 88.7°F31.5°C 74.5°F23.6°C 63% Calm Calm 3.2 mph5.1 kmh 29.23 in989.8 mb 0.00 in0.0 mm 0.00 in0.0 mm 0.00 in0.0 mm
11:12 AM 88.5°F31.4°C 74.3°F23.5°C 63% Calm Calm 3.2 mph5.1 kmh 29.23 in989.8 mb 0.00 in0.0 mm 0.00 in0.0 mm 0.00 in0.0 mm
11:11 AM 88.5°F31.4°C 74.3°F23.5°C 63% 1.1 mph ENE1.8 kmh ENE 3.2 mph5.1 kmh 29.23 in989.8 mb 0.00 in0.0 mm 0.00 in0.0 mm 0.00 in0.0 mm
11:10 AM 88.5°F31.4°C 74.3°F23.5°C 63% Calm Calm 2.7 mph4.3 kmh 29.23 in989.8 mb 0.00 in0.0 mm 0.00 in0.0 mm 0.00 in0.0 mm
11:09 AM 88.3°F31.3°C 73.6°F23.1°C 62% Calm Calm 2.7 mph4.3 kmh 29.23 in989.8 mb 0.00 in0.0 mm 0.00 in0.0 mm 0.00 in0.0 mm
11:08 AM 88.3°F31.3°C 74.1°F23.4°C 63% Calm Calm 2.7 mph4.3 kmh 29.23 in989.8 mb 0.00 in0.0 mm 0.00 in0.0 mm 0.00 in0.0 mm
11:07 AM 88.3°F31.3°C 73.6°F23.1°C 62% Calm Calm 2.7 mph4.3 kmh 29.23 in989.8 mb 0.00 in0.0 mm 0.00 in0.0 mm 0.00 in0.0 mm
11:06 AM 88.3°F31.3°C 74.5°F23.6°C 64% Calm Calm 2.7 mph4.3 kmh 29.23 in989.8 mb 0.00 in0.0 mm 0.00 in0.0 mm 0.00 in0.0 mm
11:05 AM 88.3°F31.3°C 75.0°F23.9°C 65% Calm Calm 2.7 mph4.3 kmh 29.23 in989.8 mb 0.00 in0.0 mm 0.00 in0.0 mm 0.00 in0.0 mm
11:04 AM 88.2°F31.2°C 74.5°F23.6°C 64% Calm Calm 2.7 mph4.3 kmh 29.23 in989.8 mb 0.00 in0.0 mm 0.00 in0.0 mm 0.00 in0.0 mm
11:03 AM 88.2°F31.2°C 74.0°F23.3°C 63% 2.2 mph NNE3.5 kmh NNE 3.7 mph6.0 kmh 29.23 in989.8 mb 0.00 in0.0 mm 0.00 in0.0 mm 0.00 in0.0 mm
11:02 AM 88.2°F31.2°C 74.0°F23.3°C 63% 2.7 mph SSW4.3 kmh SSW 3.7 mph6.0 kmh 29.23 in989.8 mb 0.00 in0.0 mm 0.00 in0.0 mm 0.00 in0.0 mm
11:01 AM 88.0°F31.1°C 73.8°F23.2°C 63% 1.1 mph ENE1.8 kmh ENE 3.7 mph6.0 kmh 29.23 in989.8 mb 0.00 in0.0 mm 0.00 in0.0 mm 0.00 in0.0 mm
11:00 AM 88.0°F31.1°C 73.8°F23.2°C 63% 1.1 mph WSW1.8 kmh WSW 3.7 mph6.0 kmh 29.23 in989.8 mb 0.00 in0.0 mm 0.00 in0.0 mm 0.00 in0.0 mm
10:59 AM 88.0°F31.1°C 73.8°F23.2°C 63% Calm Calm 3.7 mph6.0 kmh 29.23 in989.8 mb 0.00 in0.0 mm 0.00 in0.0 mm 0.00 in0.0 mm
10:58 AM 87.8°F31.0°C 73.6°F23.1°C 63% Calm Calm 3.7 mph6.0 kmh 29.23 in989.8 mb 0.00 in0.0 mm 0.00 in0.0 mm 0.00 in0.0 mm
10:57 AM 87.8°F31.0°C 73.6°F23.1°C 63% 1.1 mph SE1.8 kmh SE 3.7 mph6.0 kmh 29.23 in989.8 mb 0.00 in0.0 mm 0.00 in0.0 mm 0.00 in0.0 mm
10:56 AM 87.6°F30.9°C 72.9°F22.7°C 62% 2.2 mph SSW3.5 kmh SSW 3.7 mph6.0 kmh 29.23 in989.8 mb 0.00 in0.0 mm 0.00 in0.0 mm 0.00 in0.0 mm
10:55 AM 87.6°F30.9°C 72.9°F22.7°C 62% 1.1 mph SSW1.8 kmh SSW 3.7 mph6.0 kmh 29.23 in989.8 mb 0.00 in0.0 mm 0.00 in0.0 mm 0.00 in0.0 mm
10:54 AM 87.6°F30.9°C 72.5°F22.5°C 61% 1.7 mph SSW2.7 kmh SSW 3.7 mph6.0 kmh 29.23 in989.8 mb 0.00 in0.0 mm 0.00 in0.0 mm 0.00 in0.0 mm
10:53 AM 87.6°F30.9°C 73.4°F23.0°C 63% Calm Calm 3.2 mph5.1 kmh 29.23 in989.8 mb 0.00 in0.0 mm 0.00 in0.0 mm 0.00 in0.0 mm
10:52 AM 87.6°F30.9°C 73.4°F23.0°C 63% Calm Calm 3.2 mph5.1 kmh 29.23 in989.8 mb 0.00 in0.0 mm 0.00 in0.0 mm 0.00 in0.0 mm
10:51 AM 87.6°F30.9°C 73.4°F23.0°C 63% Calm Calm 3.2 mph5.1 kmh 29.23 in989.8 mb 0.00 in0.0 mm 0.00 in0.0 mm 0.00 in0.0 mm
10:50 AM 87.4°F30.8°C 73.2°F22.9°C 63% 2.2 mph E3.5 kmh E 3.2 mph5.1 kmh 29.23 in989.8 mb 0.00 in0.0 mm 0.00 in0.0 mm 0.00 in0.0 mm
10:49 AM 87.3°F30.7°C 73.6°F23.1°C 64% 2.2 mph SSE3.5 kmh SSE 3.2 mph5.1 kmh 29.23 in989.8 mb 0.00 in0.0 mm 0.00 in0.0 mm 0.00 in0.0 mm
10:48 AM 87.3°F30.7°C 73.6°F23.1°C 64% 1.1 mph SSW1.8 kmh SSW 3.2 mph5.1 kmh 29.23 in989.8 mb 0.00 in0.0 mm 0.00 in0.0 mm 0.00 in0.0 mm
10:47 AM 87.1°F30.6°C 73.4°F23.0°C 64% Calm Calm 3.2 mph5.1 kmh 29.23 in989.8 mb 0.00 in0.0 mm 0.00 in0.0 mm 0.00 in0.0 mm
10:46 AM 86.9°F30.5°C 72.8°F22.7°C 63% Calm Calm 3.2 mph5.1 kmh 29.23 in989.8 mb 0.00 in0.0 mm 0.00 in0.0 mm 0.00 in0.0 mm
10:45 AM 86.9°F30.5°C 72.8°F22.7°C 63% Calm Calm 3.2 mph5.1 kmh 29.23 in989.8 mb 0.00 in0.0 mm 0.00 in0.0 mm 0.00 in0.0 mm
10:44 AM 86.9°F30.5°C 72.8°F22.7°C 63% Calm Calm 3.2 mph5.1 kmh 29.23 in989.8 mb 0.00 in0.0 mm 0.00 in0.0 mm 0.00 in0.0 mm
10:43 AM 86.9°F30.5°C 72.8°F22.7°C 63% Calm Calm 3.2 mph5.1 kmh 29.23 in989.8 mb 0.00 in0.0 mm 0.00 in0.0 mm 0.00 in0.0 mm
10:42 AM 86.9°F30.5°C 72.8°F22.7°C 63% Calm Calm 3.2 mph5.1 kmh 29.23 in989.8 mb 0.00 in0.0 mm 0.00 in0.0 mm 0.00 in0.0 mm
10:41 AM 86.9°F30.5°C 72.8°F22.7°C 63% 1.1 mph SSW1.8 kmh SSW 3.2 mph5.1 kmh 29.23 in989.8 mb 0.00 in0.0 mm 0.00 in0.0 mm 0.00 in0.0 mm
10:40 AM 86.9°F30.5°C 72.8°F22.7°C 63% 1.1 mph SSW1.8 kmh SSW 3.2 mph5.1 kmh 29.23 in989.8 mb 0.00 in0.0 mm 0.00 in0.0 mm 0.00 in0.0 mm
10:39 AM 86.9°F30.5°C 73.2°F22.9°C 64% 3.2 mph SSW5.1 kmh SSW 3.2 mph5.1 kmh 29.23 in989.8 mb 0.00 in0.0 mm 0.00 in0.0 mm 0.00 in0.0 mm
10:38 AM 86.9°F30.5°C 73.7°F23.2°C 65% Calm Calm 2.7 mph4.3 kmh 29.23 in989.8 mb 0.00 in0.0 mm 0.00 in0.0 mm 0.00 in0.0 mm
10:37 AM 86.9°F30.5°C 73.2°F22.9°C 64% Calm Calm 2.7 mph4.3 kmh 29.23 in989.8 mb 0.00 in0.0 mm 0.00 in0.0 mm 0.00 in0.0 mm
10:36 AM 86.7°F30.4°C 72.6°F22.6°C 63% Calm Calm 2.7 mph4.3 kmh 29.23 in989.8 mb 0.00 in0.0 mm 0.00 in0.0 mm 0.00 in0.0 mm
10:35 AM 86.7°F30.4°C 72.6°F22.6°C 63% 2.7 mph SSW4.3 kmh SSW 2.7 mph4.3 kmh 29.23 in989.8 mb 0.00 in0.0 mm 0.00 in0.0 mm 0.00 in0.0 mm
10:34 AM 86.7°F30.4°C 73.0°F22.8°C 64% 2.7 mph S4.3 kmh S 2.7 mph4.3 kmh 29.23 in989.8 mb 0.00 in0.0 mm 0.00 in0.0 mm 0.00 in0.0 mm
10:33 AM 86.7°F30.4°C 73.5°F23.1°C 65% 2.2 mph S3.5 kmh S 2.7 mph4.3 kmh 29.23 in989.8 mb 0.00 in0.0 mm 0.00 in0.0 mm 0.00 in0.0 mm
10:32 AM 86.5°F30.3°C 73.3°F22.9°C 65% Calm Calm 2.7 mph4.3 kmh 29.23 in989.8 mb 0.00 in0.0 mm 0.00 in0.0 mm 0.00 in0.0 mm
10:31 AM 86.5°F30.3°C 73.3°F22.9°C 65% Calm Calm 3.2 mph5.1 kmh 29.23 in989.8 mb 0.00 in0.0 mm 0.00 in0.0 mm 0.00 in0.0 mm
10:30 AM 86.4°F30.2°C 73.2°F22.9°C 65% 2.2 mph N3.5 kmh N 3.7 mph6.0 kmh 29.23 in989.8 mb 0.00 in0.0 mm 0.00 in0.0 mm 0.00 in0.0 mm
10:29 AM 86.4°F30.2°C 73.2°F22.9°C 65% Calm Calm 3.7 mph6.0 kmh 29.23 in989.8 mb 0.00 in0.0 mm 0.00 in0.0 mm 0.00 in0.0 mm
10:28 AM 86.4°F30.2°C 73.2°F22.9°C 65% Calm Calm 3.7 mph6.0 kmh 29.23 in989.8 mb 0.00 in0.0 mm 0.00 in0.0 mm 0.00 in0.0 mm
10:27 AM 86.4°F30.2°C 73.2°F22.9°C 65% 1.1 mph SSW1.8 kmh SSW 3.7 mph6.0 kmh 29.24 in990.2 mb 0.00 in0.0 mm 0.00 in0.0 mm 0.00 in0.0 mm
10:26 AM 86.4°F30.2°C 72.8°F22.7°C 64% 2.7 mph S4.3 kmh S 3.7 mph6.0 kmh 29.24 in990.2 mb 0.00 in0.0 mm 0.00 in0.0 mm 0.00 in0.0 mm
10:25 AM 86.2°F30.1°C 73.0°F22.8°C 65% 2.7 mph WSW4.3 kmh WSW 3.7 mph6.0 kmh 29.24 in990.2 mb 0.00 in0.0 mm 0.00 in0.0 mm 0.00 in0.0 mm
10:24 AM 86.0°F30.0°C 73.3°F22.9°C 66% Calm Calm 3.7 mph6.0 kmh 29.24 in990.2 mb 0.00 in0.0 mm 0.00 in0.0 mm 0.00 in0.0 mm
10:23 AM 86.0°F30.0°C 73.3°F22.9°C 66% Calm Calm 3.7 mph6.0 kmh 29.24 in990.2 mb 0.00 in0.0 mm 0.00 in0.0 mm 0.00 in0.0 mm
10:22 AM 86.0°F30.0°C 73.3°F22.9°C 66% Calm Calm 3.7 mph6.0 kmh 29.24 in990.2 mb 0.00 in0.0 mm 0.00 in0.0 mm 0.00 in0.0 mm
10:21 AM 85.8°F29.9°C 73.1°F22.8°C 66% 3.2 mph ENE5.1 kmh ENE 3.7 mph6.0 kmh 29.24 in990.2 mb 0.00 in0.0 mm 0.00 in0.0 mm 0.00 in0.0 mm
10:20 AM 85.8°F29.9°C 73.1°F22.8°C 66% 3.7 mph SW6.0 kmh SW 3.7 mph6.0 kmh 29.24 in990.2 mb 0.00 in0.0 mm 0.00 in0.0 mm 0.00 in0.0 mm
10:19 AM 85.6°F29.8°C 72.9°F22.7°C 66% 2.7 mph SSW4.3 kmh SSW 3.7 mph6.0 kmh 29.24 in990.2 mb 0.00 in0.0 mm 0.00 in0.0 mm 0.00 in0.0 mm
10:18 AM 85.6°F29.8°C 72.9°F22.7°C 66% 3.2 mph E5.1 kmh E 3.7 mph6.0 kmh 29.24 in990.2 mb 0.00 in0.0 mm 0.00 in0.0 mm 0.00 in0.0 mm
10:17 AM 85.6°F29.8°C 72.9°F22.7°C 66% 1.7 mph SSW2.7 kmh SSW 3.7 mph6.0 kmh 29.24 in990.2 mb 0.00 in0.0 mm 0.00 in0.0 mm 0.00 in0.0 mm
10:16 AM 85.5°F29.7°C 73.7°F23.2°C 68% 1.7 mph SSW2.7 kmh SSW 3.7 mph6.0 kmh 29.24 in990.2 mb 0.00 in0.0 mm 0.00 in0.0 mm 0.00 in0.0 mm
10:15 AM 85.5°F29.7°C 73.7°F23.2°C 68% Calm Calm 3.7 mph6.0 kmh 29.24 in990.2 mb 0.00 in0.0 mm 0.00 in0.0 mm 0.00 in0.0 mm
10:14 AM 85.5°F29.7°C 73.7°F23.2°C 68% 1.7 mph SSW2.7 kmh SSW 3.7 mph6.0 kmh 29.24 in990.2 mb 0.00 in0.0 mm 0.00 in0.0 mm 0.00 in0.0 mm
10:13 AM 85.3°F29.6°C 73.5°F23.1°C 68% Calm Calm 3.7 mph6.0 kmh 29.24 in990.2 mb 0.00 in0.0 mm 0.00 in0.0 mm 0.00 in0.0 mm
10:12 AM 85.3°F29.6°C 73.5°F23.1°C 68% Calm Calm 3.7 mph6.0 kmh 29.24 in990.2 mb 0.00 in0.0 mm 0.00 in0.0 mm 0.00 in0.0 mm
10:11 AM 85.3°F29.6°C 73.9°F23.3°C 69% Calm Calm 3.7 mph6.0 kmh 29.24 in990.2 mb 0.00 in0.0 mm 0.00 in0.0 mm 0.00 in0.0 mm
10:10 AM 85.1°F29.5°C 73.3°F22.9°C 68% 1.7 mph SSW2.7 kmh SSW 3.2 mph5.1 kmh 29.24 in990.2 mb 0.00 in0.0 mm 0.00 in0.0 mm 0.00 in0.0 mm
10:09 AM 85.1°F29.5°C 73.3°F22.9°C 68% 1.7 mph SSW2.7 kmh SSW 3.2 mph5.1 kmh 29.24 in990.2 mb 0.00 in0.0 mm 0.00 in0.0 mm 0.00 in0.0 mm
10:08 AM 85.1°F29.5°C 73.3°F22.9°C 68% 2.2 mph S3.5 kmh S 3.2 mph5.1 kmh 29.24 in990.2 mb 0.00 in0.0 mm 0.00 in0.0 mm 0.00 in0.0 mm
10:07 AM 85.1°F29.5°C 73.8°F23.2°C 69% 2.7 mph SSW4.3 kmh SSW 3.2 mph5.1 kmh 29.24 in990.2 mb 0.00 in0.0 mm 0.00 in0.0 mm 0.00 in0.0 mm
10:06 AM 84.9°F29.4°C 73.6°F23.1°C 69% 2.7 mph S4.3 kmh S 3.2 mph5.1 kmh 29.24 in990.2 mb 0.00 in0.0 mm 0.00 in0.0 mm 0.00 in0.0 mm
10:05 AM 84.9°F29.4°C 74.0°F23.3°C 70% 1.1 mph SSW1.8 kmh SSW 3.2 mph5.1 kmh 29.24 in990.2 mb 0.00 in0.0 mm 0.00 in0.0 mm 0.00 in0.0 mm
10:04 AM 84.7°F29.3°C 74.2°F23.4°C 71% Calm Calm -- 29.24 in990.2 mb 0.00 in0.0 mm 0.00 in0.0 mm 0.00 in0.0 mm
10:03 AM 84.7°F29.3°C 74.2°F23.4°C 71% Calm Calm -- 29.24 in990.2 mb 0.00 in0.0 mm 0.00 in0.0 mm 0.00 in0.0 mm
10:02 AM 84.6°F29.2°C 74.1°F23.4°C 71% Calm Calm -- 29.24 in990.2 mb 0.00 in0.0 mm 0.00 in0.0 mm 0.00 in0.0 mm
10:01 AM 84.6°F29.2°C 73.7°F23.2°C 70% Calm Calm -- 29.24 in990.2 mb 0.00 in0.0 mm 0.00 in0.0 mm 0.00 in0.0 mm
10:00 AM 84.4°F29.1°C 73.5°F23.1°C 70% Calm Calm -- 29.24 in990.2 mb 0.00 in0.0 mm 0.00 in0.0 mm 0.00 in0.0 mm
09:59 AM 84.4°F29.1°C 73.5°F23.1°C 70% Calm Calm -- 29.24 in990.2 mb 0.00 in0.0 mm 0.00 in0.0 mm 0.00 in0.0 mm
09:58 AM 84.4°F29.1°C 73.5°F23.1°C 70% Calm Calm -- 29.24 in990.2 mb 0.00 in0.0 mm 0.00 in0.0 mm 0.00 in0.0 mm
09:57 AM 84.4°F29.1°C 73.9°F23.3°C 71% Calm Calm -- 29.24 in990.2 mb 0.00 in0.0 mm 0.00 in0.0 mm 0.00 in0.0 mm
09:56 AM 84.2°F29.0°C 73.8°F23.2°C 71% Calm Calm -- 29.24 in990.2 mb 0.00 in0.0 mm 0.00 in0.0 mm 0.00 in0.0 mm
09:55 AM 84.2°F29.0°C 73.8°F23.2°C 71% Calm Calm -- 29.24 in990.2 mb 0.00 in0.0 mm 0.00 in0.0 mm 0.00 in0.0 mm
09:54 AM 84.2°F29.0°C 73.8°F23.2°C 71% Calm Calm 1.1 mph1.8 kmh 29.24 in990.2 mb 0.00 in0.0 mm 0.00 in0.0 mm 0.00 in0.0 mm
09:53 AM 84.2°F29.0°C 73.8°F23.2°C 71% Calm Calm 1.1 mph1.8 kmh 29.24 in990.2 mb 0.00 in0.0 mm 0.00 in0.0 mm 0.00 in0.0 mm
09:52 AM 84.0°F28.9°C 73.6°F23.1°C 71% Calm Calm 1.1 mph1.8 kmh 29.24 in990.2 mb 0.00 in0.0 mm 0.00 in0.0 mm 0.00 in0.0 mm
09:51 AM 84.0°F28.9°C 73.6°F23.1°C 71% Calm Calm 1.1 mph1.8 kmh 29.24 in990.2 mb 0.00 in0.0 mm 0.00 in0.0 mm 0.00 in0.0 mm
09:50 AM 84.0°F28.9°C 73.6°F23.1°C 71% Calm Calm 1.7 mph2.7 kmh 29.24 in990.2 mb 0.00 in0.0 mm 0.00 in0.0 mm 0.00 in0.0 mm
09:49 AM 84.0°F28.9°C 73.6°F23.1°C 71% Calm Calm 2.7 mph4.3 kmh 29.24 in990.2 mb 0.00 in0.0 mm 0.00 in0.0 mm 0.00 in0.0 mm
09:48 AM 83.8°F28.8°C 73.4°F23.0°C 71% Calm Calm 3.2 mph5.1 kmh 29.24 in990.2 mb 0.00 in0.0 mm 0.00 in0.0 mm 0.00 in0.0 mm
09:47 AM 83.8°F28.8°C 73.4°F23.0°C 71% Calm Calm 3.2 mph5.1 kmh 29.24 in990.2 mb 0.00 in0.0 mm 0.00 in0.0 mm 0.00 in0.0 mm
09:46 AM 83.8°F28.8°C 73.4°F23.0°C 71% Calm Calm 3.2 mph5.1 kmh 29.24 in990.2 mb 0.00 in0.0 mm 0.00 in0.0 mm 0.00 in0.0 mm
09:45 AM 83.7°F28.7°C 73.3°F22.9°C 71% 1.1 mph NE1.8 kmh NE 3.2 mph5.1 kmh 29.24 in990.2 mb 0.00 in0.0 mm 0.00 in0.0 mm 0.00 in0.0 mm
09:44 AM 83.7°F28.7°C 73.3°F22.9°C 71% Calm Calm 3.2 mph5.1 kmh 29.24 in990.2 mb 0.00 in0.0 mm 0.00 in0.0 mm 0.00 in0.0 mm
09:43 AM 83.7°F28.7°C 73.3°F22.9°C 71% Calm Calm 3.2 mph5.1 kmh 29.24 in990.2 mb 0.00 in0.0 mm 0.00 in0.0 mm 0.00 in0.0 mm
09:42 AM 83.7°F28.7°C 73.7°F23.2°C 72% Calm Calm 3.2 mph5.1 kmh 29.24 in990.2 mb 0.00 in0.0 mm 0.00 in0.0 mm 0.00 in0.0 mm
09:41 AM 83.7°F28.7°C 73.3°F22.9°C 71% Calm Calm 3.2 mph5.1 kmh 29.24 in990.2 mb 0.00 in0.0 mm 0.00 in0.0 mm 0.00 in0.0 mm
09:40 AM 83.5°F28.6°C 73.1°F22.8°C 71% 1.7 mph W2.7 kmh W 3.2 mph5.1 kmh 29.24 in990.2 mb 0.00 in0.0 mm 0.00 in0.0 mm 0.00 in0.0 mm
09:39 AM 83.3°F28.5°C 73.3°F22.9°C 72% 2.7 mph NE4.3 kmh NE 3.2 mph5.1 kmh 29.24 in990.2 mb 0.00 in0.0 mm 0.00 in0.0 mm 0.00 in0.0 mm
09:38 AM 83.3°F28.5°C 73.3°F22.9°C 72% Calm Calm 2.7 mph4.3 kmh 29.24 in990.2 mb 0.00 in0.0 mm 0.00 in0.0 mm 0.00 in0.0 mm
09:37 AM 83.1°F28.4°C 73.1°F22.8°C 72% Calm Calm 2.7 mph4.3 kmh 29.24 in990.2 mb 0.00 in0.0 mm 0.00 in0.0 mm 0.00 in0.0 mm
09:36 AM 83.1°F28.4°C 73.1°F22.8°C 72% 2.7 mph SSW4.3 kmh SSW 2.7 mph4.3 kmh 29.24 in990.2 mb 0.00 in0.0 mm 0.00 in0.0 mm 0.00 in0.0 mm
09:35 AM 83.1°F28.4°C 73.1°F22.8°C 72% Calm Calm 2.7 mph4.3 kmh 29.24 in990.2 mb 0.00 in0.0 mm 0.00 in0.0 mm 0.00 in0.0 mm
09:34 AM 82.9°F28.3°C 72.9°F22.7°C 72% Calm Calm 2.7 mph4.3 kmh 29.24 in990.2 mb 0.00 in0.0 mm 0.00 in0.0 mm 0.00 in0.0 mm
09:33 AM 82.9°F28.3°C 72.9°F22.7°C 72% Calm Calm 3.2 mph5.1 kmh 29.24 in990.2 mb 0.00 in0.0 mm 0.00 in0.0 mm 0.00 in0.0 mm
09:32 AM 82.9°F28.3°C 72.9°F22.7°C 72% Calm Calm 3.2 mph5.1 kmh 29.24 in990.2 mb 0.00 in0.0 mm 0.00 in0.0 mm 0.00 in0.0 mm
09:31 AM 82.9°F28.3°C 72.9°F22.7°C 72% 1.1 mph SSW1.8 kmh SSW 3.2 mph5.1 kmh 29.24 in990.2 mb 0.00 in0.0 mm 0.00 in0.0 mm 0.00 in0.0 mm
09:30 AM 82.8°F28.2°C 72.8°F22.7°C 72% Calm Calm 3.2 mph5.1 kmh 29.24 in990.2 mb 0.00 in0.0 mm 0.00 in0.0 mm 0.00 in0.0 mm
09:29 AM 82.8°F28.2°C 72.8°F22.7°C 72% Calm Calm 3.2 mph5.1 kmh 29.24 in990.2 mb 0.00 in0.0 mm 0.00 in0.0 mm 0.00 in0.0 mm
09:28 AM 82.8°F28.2°C 72.8°F22.7°C 72% Calm Calm 3.2 mph5.1 kmh 29.23 in989.8 mb 0.00 in0.0 mm 0.00 in0.0 mm 0.00 in0.0 mm
09:27 AM 82.8°F28.2°C 72.8°F22.7°C 72% Calm Calm 3.2 mph5.1 kmh 29.23 in989.8 mb 0.00 in0.0 mm 0.00 in0.0 mm 0.00 in0.0 mm
09:26 AM 82.8°F28.2°C 72.8°F22.7°C 72% Calm Calm 3.2 mph5.1 kmh 29.23 in989.8 mb 0.00 in0.0 mm 0.00 in0.0 mm 0.00 in0.0 mm
09:25 AM 82.6°F28.1°C 73.0°F22.8°C 73% Calm Calm 3.2 mph5.1 kmh 29.23 in989.8 mb 0.00 in0.0 mm 0.00 in0.0 mm 0.00 in0.0 mm
09:24 AM 82.6°F28.1°C 73.0°F22.8°C 73% 1.1 mph S1.8 kmh S 3.2 mph5.1 kmh 29.23 in989.8 mb 0.00 in0.0 mm 0.00 in0.0 mm 0.00 in0.0 mm
09:23 AM 82.6°F28.1°C 73.0°F22.8°C 73% 3.2 mph SSW5.1 kmh SSW 3.2 mph5.1 kmh 29.23 in989.8 mb 0.00 in0.0 mm 0.00 in0.0 mm 0.00 in0.0 mm
09:22 AM 82.4°F28.0°C 73.3°F22.9°C 74% 3.2 mph WNW5.1 kmh WNW 3.2 mph5.1 kmh 29.23 in989.8 mb 0.00 in0.0 mm 0.00 in0.0 mm 0.00 in0.0 mm
09:21 AM 82.4°F28.0°C 73.3°F22.9°C 74% 1.7 mph SW2.7 kmh SW 2.2 mph3.5 kmh 29.23 in989.8 mb 0.00 in0.0 mm 0.00 in0.0 mm 0.00 in0.0 mm
09:20 AM 82.4°F28.0°C 73.3°F22.9°C 74% Calm Calm 2.2 mph3.5 kmh 29.23 in989.8 mb 0.00 in0.0 mm 0.00 in0.0 mm 0.00 in0.0 mm
09:19 AM 82.4°F28.0°C 73.3°F22.9°C 74% Calm Calm 3.2 mph5.1 kmh 29.23 in989.8 mb 0.00 in0.0 mm 0.00 in0.0 mm 0.00 in0.0 mm
09:18 AM 82.4°F28.0°C 73.3°F22.9°C 74% Calm Calm 3.2 mph5.1 kmh 29.23 in989.8 mb 0.00 in0.0 mm 0.00 in0.0 mm 0.00 in0.0 mm
09:17 AM 82.2°F27.9°C 73.5°F23.1°C 75% Calm Calm 3.2 mph5.1 kmh 29.23 in989.8 mb 0.00 in0.0 mm 0.00 in0.0 mm 0.00 in0.0 mm
09:16 AM 82.0°F27.8°C 73.3°F22.9°C 75% Calm Calm 3.2 mph5.1 kmh 29.23 in989.8 mb 0.00 in0.0 mm 0.00 in0.0 mm 0.00 in0.0 mm
09:15 AM 81.9°F27.7°C 73.6°F23.1°C 76% Calm Calm 3.2 mph5.1 kmh 29.23 in989.8 mb 0.00 in0.0 mm 0.00 in0.0 mm 0.00 in0.0 mm
09:14 AM 81.7°F27.6°C 73.4°F23.0°C 76% Calm Calm 3.2 mph5.1 kmh 29.23 in989.8 mb 0.00 in0.0 mm 0.00 in0.0 mm 0.00 in0.0 mm
09:13 AM 81.7°F27.6°C 73.4°F23.0°C 76% Calm Calm 3.2 mph5.1 kmh 29.23 in989.8 mb 0.00 in0.0 mm 0.00 in0.0 mm 0.00 in0.0 mm
09:12 AM 81.7°F27.6°C 73.4°F23.0°C 76% 2.2 mph SSW3.5 kmh SSW 3.2 mph5.1 kmh 29.23 in989.8 mb 0.00 in0.0 mm 0.00 in0.0 mm 0.00 in0.0 mm
09:11 AM 81.7°F27.6°C 73.4°F23.0°C 76% 1.7 mph SSW2.7 kmh SSW 3.2 mph5.1 kmh 29.23 in989.8 mb 0.00 in0.0 mm 0.00 in0.0 mm 0.00 in0.0 mm
09:10 AM 81.5°F27.5°C 73.2°F22.9°C 76% 1.7 mph SSW2.7 kmh SSW 3.2 mph5.1 kmh 29.23 in989.8 mb 0.00 in0.0 mm 0.00 in0.0 mm 0.00 in0.0 mm
09:09 AM 81.5°F27.5°C 73.6°F23.1°C 77% 2.2 mph SSW3.5 kmh SSW 3.2 mph5.1 kmh 29.23 in989.8 mb 0.00 in0.0 mm 0.00 in0.0 mm 0.00 in0.0 mm
09:08 AM 81.5°F27.5°C 73.6°F23.1°C 77% 2.2 mph SSW3.5 kmh SSW 3.2 mph5.1 kmh 29.23 in989.8 mb 0.00 in0.0 mm 0.00 in0.0 mm 0.00 in0.0 mm
09:07 AM 81.3°F27.4°C 73.4°F23.0°C 77% 1.7 mph SW2.7 kmh SW 3.2 mph5.1 kmh 29.23 in989.8 mb 0.00 in0.0 mm 0.00 in0.0 mm 0.00 in0.0 mm
09:06 AM 81.3°F27.4°C 73.4°F23.0°C 77% 2.7 mph SW4.3 kmh SW 3.2 mph5.1 kmh 29.23 in989.8 mb 0.00 in0.0 mm 0.00 in0.0 mm 0.00 in0.0 mm
09:05 AM 81.3°F27.4°C 73.4°F23.0°C 77% 1.1 mph W1.8 kmh W 3.2 mph5.1 kmh 29.23 in989.8 mb 0.00 in0.0 mm 0.00 in0.0 mm 0.00 in0.0 mm
09:04 AM 81.1°F27.3°C 73.2°F22.9°C 77% 2.7 mph SSW4.3 kmh SSW 3.2 mph5.1 kmh 29.23 in989.8 mb 0.00 in0.0 mm 0.00 in0.0 mm 0.00 in0.0 mm
09:03 AM 81.1°F27.3°C 73.2°F22.9°C 77% Calm Calm 3.2 mph5.1 kmh 29.23 in989.8 mb 0.00 in0.0 mm 0.00 in0.0 mm 0.00 in0.0 mm
09:02 AM 81.1°F27.3°C 73.2°F22.9°C 77% 1.7 mph SSW2.7 kmh SSW 3.2 mph5.1 kmh 29.23 in989.8 mb 0.00 in0.0 mm 0.00 in0.0 mm 0.00 in0.0 mm
09:01 AM 81.0°F27.2°C 73.1°F22.8°C 77% 2.2 mph SW3.5 kmh SW 3.2 mph5.1 kmh 29.23 in989.8 mb 0.00 in0.0 mm 0.00 in0.0 mm 0.00 in0.0 mm
09:00 AM 81.0°F27.2°C 73.5°F23.1°C 78% 2.2 mph SW3.5 kmh SW 3.2 mph5.1 kmh 29.23 in989.8 mb 0.00 in0.0 mm 0.00 in0.0 mm 0.00 in0.0 mm
08:59 AM 81.0°F27.2°C 73.5°F23.1°C 78% 2.7 mph SSW4.3 kmh SSW 3.2 mph5.1 kmh 29.23 in989.8 mb 0.00 in0.0 mm 0.00 in0.0 mm 0.00 in0.0 mm
08:58 AM 80.8°F27.1°C 73.3°F22.9°C 78% 2.2 mph W3.5 kmh W 3.2 mph5.1 kmh 29.23 in989.8 mb 0.00 in0.0 mm 0.00 in0.0 mm 0.00 in0.0 mm
08:57 AM 80.8°F27.1°C 73.7°F23.2°C 79% 1.7 mph SSW2.7 kmh SSW 2.7 mph4.3 kmh 29.23 in989.8 mb 0.00 in0.0 mm 0.00 in0.0 mm 0.00 in0.0 mm
08:56 AM 80.6°F27.0°C 73.5°F23.1°C 79% 1.1 mph SSW1.8 kmh SSW 2.7 mph4.3 kmh 29.23 in989.8 mb 0.00 in0.0 mm 0.00 in0.0 mm 0.00 in0.0 mm
08:55 AM 80.6°F27.0°C 73.5°F23.1°C 79% Calm Calm 2.7 mph4.3 kmh 29.23 in989.8 mb 0.00 in0.0 mm 0.00 in0.0 mm 0.00 in0.0 mm
08:54 AM 80.6°F27.0°C 73.5°F23.1°C 79% 2.7 mph SSW4.3 kmh SSW 2.7 mph4.3 kmh 29.23 in989.8 mb 0.00 in0.0 mm 0.00 in0.0 mm 0.00 in0.0 mm
08:53 AM 80.6°F27.0°C 73.5°F23.1°C 79% Calm Calm 2.7 mph4.3 kmh 29.23 in989.8 mb 0.00 in0.0 mm 0.00 in0.0 mm 0.00 in0.0 mm
08:52 AM 80.6°F27.0°C 73.5°F23.1°C 79% 2.2 mph SSW3.5 kmh SSW 2.2 mph3.5 kmh 29.23 in989.8 mb 0.00 in0.0 mm 0.00 in0.0 mm 0.00 in0.0 mm
08:51 AM 80.4°F26.9°C 73.6°F23.1°C 80% Calm Calm -- 29.23 in989.8 mb 0.00 in0.0 mm 0.00 in0.0 mm 0.00 in0.0 mm
08:50 AM 80.4°F26.9°C 73.6°F23.1°C 80% Calm Calm 3.2 mph5.1 kmh 29.23 in989.8 mb 0.00 in0.0 mm 0.00 in0.0 mm 0.00 in0.0 mm
08:49 AM 80.4°F26.9°C 73.6°F23.1°C 80% Calm Calm 3.2 mph5.1 kmh 29.23 in989.8 mb 0.00 in0.0 mm 0.00 in0.0 mm 0.00 in0.0 mm
08:48 AM 80.4°F26.9°C 73.6°F23.1°C 80% Calm Calm 3.2 mph5.1 kmh 29.23 in989.8 mb 0.00 in0.0 mm 0.00 in0.0 mm 0.00 in0.0 mm
08:47 AM 80.4°F26.9°C 73.6°F23.1°C 80% Calm Calm 3.2 mph5.1 kmh 29.23 in989.8 mb 0.00 in0.0 mm 0.00 in0.0 mm 0.00 in0.0 mm
08:46 AM 80.2°F26.8°C 73.5°F23.1°C 80% Calm Calm 3.2 mph5.1 kmh 29.23 in989.8 mb 0.00 in0.0 mm 0.00 in0.0 mm 0.00 in0.0 mm
08:45 AM 80.2°F26.8°C 73.5°F23.1°C 80% Calm Calm 3.2 mph5.1 kmh 29.23 in989.8 mb 0.00 in0.0 mm 0.00 in0.0 mm 0.00 in0.0 mm
08:44 AM 80.2°F26.8°C 73.5°F23.1°C 80% Calm Calm 3.2 mph5.1 kmh 29.23 in989.8 mb 0.00 in0.0 mm 0.00 in0.0 mm 0.00 in0.0 mm
08:43 AM 80.2°F26.8°C 73.5°F23.1°C 80% Calm Calm 3.2 mph5.1 kmh 29.23 in989.8 mb 0.00 in0.0 mm 0.00 in0.0 mm 0.00 in0.0 mm
08:42 AM 80.2°F26.8°C 73.5°F23.1°C 80% Calm Calm 3.2 mph5.1 kmh 29.23 in989.8 mb 0.00 in0.0 mm 0.00 in0.0 mm 0.00 in0.0 mm
08:41 AM 80.1°F26.7°C 73.4°F23.0°C 80% Calm Calm 3.2 mph5.1 kmh 29.23 in989.8 mb 0.00 in0.0 mm 0.00 in0.0 mm 0.00 in0.0 mm
08:40 AM 80.1°F26.7°C 73.4°F23.0°C 80% Calm Calm 2.2 mph3.5 kmh 29.23 in989.8 mb 0.00 in0.0 mm 0.00 in0.0 mm 0.00 in0.0 mm
08:39 AM 80.1°F26.7°C 73.4°F23.0°C 80% Calm Calm 2.2 mph3.5 kmh 29.23 in989.8 mb 0.00 in0.0 mm 0.00 in0.0 mm 0.00 in0.0 mm
08:38 AM 79.7°F26.5°C 73.3°F22.9°C 81% Calm Calm 2.7 mph4.3 kmh 29.23 in989.8 mb 0.00 in0.0 mm 0.00 in0.0 mm 0.00 in0.0 mm
08:37 AM 79.7°F26.5°C 73.3°F22.9°C 81% Calm Calm 2.7 mph4.3 kmh 29.23 in989.8 mb 0.00 in0.0 mm 0.00 in0.0 mm 0.00 in0.0 mm
08:36 AM 79.5°F26.4°C 73.1°F22.8°C 81% 1.1 mph SSW1.8 kmh SSW 2.7 mph4.3 kmh 29.23 in989.8 mb 0.00 in0.0 mm 0.00 in0.0 mm 0.00 in0.0 mm
08:35 AM 79.5°F26.4°C 73.1°F22.8°C 81% Calm Calm 2.7 mph4.3 kmh 29.23 in989.8 mb 0.00 in0.0 mm 0.00 in0.0 mm 0.00 in0.0 mm
08:34 AM 79.5°F26.4°C 73.1°F22.8°C 81% Calm Calm 2.7 mph4.3 kmh 29.23 in989.8 mb 0.00 in0.0 mm 0.00 in0.0 mm 0.00 in0.0 mm
08:33 AM 79.5°F26.4°C 73.1°F22.8°C 81% Calm Calm 2.7 mph4.3 kmh 29.23 in989.8 mb 0.00 in0.0 mm 0.00 in0.0 mm 0.00 in0.0 mm
08:32 AM 79.3°F26.3°C 73.3°F22.9°C 82% Calm Calm 2.7 mph4.3 kmh 29.23 in989.8 mb 0.00 in0.0 mm 0.00 in0.0 mm 0.00 in0.0 mm
08:31 AM 79.3°F26.3°C 73.3°F22.9°C 82% 2.2 mph W3.5 kmh W 2.7 mph4.3 kmh 29.23 in989.8 mb 0.00 in0.0 mm 0.00 in0.0 mm 0.00 in0.0 mm
08:30 AM 79.3°F26.3°C 73.3°F22.9°C 82% 2.2 mph SW3.5 kmh SW 2.7 mph4.3 kmh 29.23 in989.8 mb 0.00 in0.0 mm 0.00 in0.0 mm 0.00 in0.0 mm
08:29 AM 79.2°F26.2°C 73.2°F22.9°C 82% 2.7 mph SSW4.3 kmh SSW 2.7 mph4.3 kmh 29.23 in989.8 mb 0.00 in0.0 mm 0.00 in0.0 mm 0.00 in0.0 mm
08:28 AM 79.2°F26.2°C 73.2°F22.9°C 82% Calm Calm 2.7 mph4.3 kmh 29.23 in989.8 mb 0.00 in0.0 mm 0.00 in0.0 mm 0.00 in0.0 mm
08:27 AM 79.2°F26.2°C 73.2°F22.9°C 82% Calm Calm 2.7 mph4.3 kmh 29.23 in989.8 mb 0.00 in0.0 mm 0.00 in0.0 mm 0.00 in0.0 mm
08:26 AM 79.2°F26.2°C 73.2°F22.9°C 82% Calm Calm 2.7 mph4.3 kmh 29.23 in989.8 mb 0.00 in0.0 mm 0.00 in0.0 mm 0.00 in0.0 mm
08:25 AM 79.2°F26.2°C 73.2°F22.9°C 82% Calm Calm 2.7 mph4.3 kmh 29.23 in989.8 mb 0.00 in0.0 mm 0.00 in0.0 mm 0.00 in0.0 mm
08:24 AM 79.2°F26.2°C 73.2°F22.9°C 82% Calm Calm 2.7 mph4.3 kmh 29.23 in989.8 mb 0.00 in0.0 mm 0.00 in0.0 mm 0.00 in0.0 mm
08:23 AM 79.2°F26.2°C 73.2°F22.9°C 82% Calm Calm 2.7 mph4.3 kmh 29.23 in989.8 mb 0.00 in0.0 mm 0.00 in0.0 mm 0.00 in0.0 mm
08:22 AM 79.2°F26.2°C 73.2°F22.9°C 82% 2.2 mph SW3.5 kmh SW 2.2 mph3.5 kmh 29.23 in989.8 mb 0.00 in0.0 mm 0.00 in0.0 mm 0.00 in0.0 mm
08:21 AM 79.2°F26.2°C 73.2°F22.9°C 82% 1.7 mph SW2.7 kmh SW 2.2 mph3.5 kmh 29.23 in989.8 mb 0.00 in0.0 mm 0.00 in0.0 mm 0.00 in0.0 mm
08:20 AM 79.0°F26.1°C 73.0°F22.8°C 82% Calm Calm 2.2 mph3.5 kmh 29.23 in989.8 mb 0.00 in0.0 mm 0.00 in0.0 mm 0.00 in0.0 mm
08:19 AM 79.0°F26.1°C 73.0°F22.8°C 82% 2.2 mph SSW3.5 kmh SSW 2.2 mph3.5 kmh 29.23 in989.8 mb 0.00 in0.0 mm 0.00 in0.0 mm 0.00 in0.0 mm
08:18 AM 79.0°F26.1°C 73.0°F22.8°C 82% Calm Calm 2.2 mph3.5 kmh 29.23 in989.8 mb 0.00 in0.0 mm 0.00 in0.0 mm 0.00 in0.0 mm
08:17 AM 79.0°F26.1°C 73.4°F23.0°C 83% 1.7 mph SSW2.7 kmh SSW 2.2 mph3.5 kmh 29.23 in989.8 mb 0.00 in0.0 mm 0.00 in0.0 mm 0.00 in0.0 mm
08:16 AM 78.8°F26.0°C 73.2°F22.9°C 83% Calm Calm 2.2 mph3.5 kmh 29.23 in989.8 mb 0.00 in0.0 mm 0.00 in0.0 mm 0.00 in0.0 mm
08:15 AM 78.8°F26.0°C 73.2°F22.9°C 83% Calm Calm 2.2 mph3.5 kmh 29.23 in989.8 mb 0.00 in0.0 mm 0.00 in0.0 mm 0.00 in0.0 mm
08:14 AM 78.8°F26.0°C 73.2°F22.9°C 83% Calm Calm 2.2 mph3.5 kmh 29.23 in989.8 mb 0.00 in0.0 mm 0.00 in0.0 mm 0.00 in0.0 mm
08:13 AM 78.8°F26.0°C 73.2°F22.9°C 83% Calm Calm 2.2 mph3.5 kmh 29.23 in989.8 mb 0.00 in0.0 mm 0.00 in0.0 mm 0.00 in0.0 mm
08:12 AM 78.6°F25.9°C 73.0°F22.8°C 83% 1.7 mph NNE2.7 kmh NNE 2.2 mph3.5 kmh 29.23 in989.8 mb 0.00 in0.0 mm 0.00 in0.0 mm 0.00 in0.0 mm
08:11 AM 78.6°F25.9°C 73.0°F22.8°C 83% 1.7 mph W2.7 kmh W 2.2 mph3.5 kmh 29.23 in989.8 mb 0.00 in0.0 mm 0.00 in0.0 mm 0.00 in0.0 mm
08:10 AM 78.6°F25.9°C 73.0°F22.8°C 83% 2.2 mph SSW3.5 kmh SSW 2.2 mph3.5 kmh 29.23 in989.8 mb 0.00 in0.0 mm 0.00 in0.0 mm 0.00 in0.0 mm
08:09 AM 78.4°F25.8°C 73.2°F22.9°C 84% 2.2 mph ESE3.5 kmh ESE 2.2 mph3.5 kmh 29.23 in989.8 mb 0.00 in0.0 mm 0.00 in0.0 mm 0.00 in0.0 mm
08:08 AM 78.4°F25.8°C 73.2°F22.9°C 84% Calm Calm -- 29.23 in989.8 mb 0.00 in0.0 mm 0.00 in0.0 mm 0.00 in0.0 mm
08:07 AM 78.3°F25.7°C 73.1°F22.8°C 84% Calm Calm -- 29.23 in989.8 mb 0.00 in0.0 mm 0.00 in0.0 mm 0.00 in0.0 mm
08:06 AM 78.3°F25.7°C 73.1°F22.8°C 84% Calm Calm -- 29.23 in989.8 mb 0.00 in0.0 mm 0.00 in0.0 mm 0.00 in0.0 mm
08:05 AM 78.3°F25.7°C 73.1°F22.8°C 84% Calm Calm -- 29.23 in989.8 mb 0.00 in0.0 mm 0.00 in0.0 mm 0.00 in0.0 mm
08:04 AM 78.3°F25.7°C 73.1°F22.8°C 84% Calm Calm -- 29.23 in989.8 mb 0.00 in0.0 mm 0.00 in0.0 mm 0.00 in0.0 mm
08:03 AM 78.3°F25.7°C 73.1°F22.8°C 84% Calm Calm -- 29.22 in989.5 mb 0.00 in0.0 mm 0.00 in0.0 mm 0.00 in0.0 mm
08:02 AM 78.1°F25.6°C 72.9°F22.7°C 84% Calm Calm -- 29.22 in989.5 mb 0.00 in0.0 mm 0.00 in0.0 mm 0.00 in0.0 mm
08:01 AM 78.1°F25.6°C 72.9°F22.7°C 84% Calm Calm -- 29.22 in989.5 mb 0.00 in0.0 mm 0.00 in0.0 mm 0.00 in0.0 mm
08:00 AM 78.1°F25.6°C 72.9°F22.7°C 84% Calm Calm -- 29.22 in989.5 mb 0.00 in0.0 mm 0.00 in0.0 mm 0.00 in0.0 mm
07:59 AM 78.1°F25.6°C 72.9°F22.7°C 84% Calm Calm -- 29.22 in989.5 mb 0.00 in0.0 mm 0.00 in0.0 mm 0.00 in0.0 mm
07:58 AM 77.9°F25.5°C 72.7°F22.6°C 84% Calm Calm -- 29.22 in989.5 mb 0.00 in0.0 mm 0.00 in0.0 mm 0.00 in0.0 mm
07:57 AM 77.9°F25.5°C 72.7°F22.6°C 84% Calm Calm -- 29.22 in989.5 mb 0.00 in0.0 mm 0.00 in0.0 mm 0.00 in0.0 mm
07:56 AM 77.7°F25.4°C 72.5°F22.5°C 84% Calm Calm -- 29.22 in989.5 mb 0.00 in0.0 mm 0.00 in0.0 mm 0.00 in0.0 mm
07:55 AM 77.7°F25.4°C 72.5°F22.5°C 84% Calm Calm -- 29.22 in989.5 mb 0.00 in0.0 mm 0.00 in0.0 mm 0.00 in0.0 mm
07:54 AM 77.7°F25.4°C 72.5°F22.5°C 84% Calm Calm -- 29.22 in989.5 mb 0.00 in0.0 mm 0.00 in0.0 mm 0.00 in0.0 mm
07:53 AM 77.7°F25.4°C 72.5°F22.5°C 84% Calm Calm -- 29.22 in989.5 mb 0.00 in0.0 mm 0.00 in0.0 mm 0.00 in0.0 mm
07:52 AM 77.7°F25.4°C 72.5°F22.5°C 84% Calm Calm -- 29.22 in989.5 mb 0.00 in0.0 mm 0.00 in0.0 mm 0.00 in0.0 mm
07:51 AM 77.7°F25.4°C 72.5°F22.5°C 84% Calm Calm -- 29.22 in989.5 mb 0.00 in0.0 mm 0.00 in0.0 mm 0.00 in0.0 mm
07:50 AM 77.5°F25.3°C 72.3°F22.4°C 84% Calm Calm -- 29.22 in989.5 mb 0.00 in0.0 mm 0.00 in0.0 mm 0.00 in0.0 mm
07:49 AM 77.5°F25.3°C 72.3°F22.4°C 84% Calm Calm -- 29.22 in989.5 mb 0.00 in0.0 mm 0.00 in0.0 mm 0.00 in0.0 mm
07:48 AM 77.5°F25.3°C 72.3°F22.4°C 84% Calm Calm -- 29.22 in989.5 mb 0.00 in0.0 mm 0.00 in0.0 mm 0.00 in0.0 mm
07:47 AM 77.5°F25.3°C 72.3°F22.4°C 84% Calm Calm -- 29.22 in989.5 mb 0.00 in0.0 mm 0.00 in0.0 mm 0.00 in0.0 mm
07:46 AM 77.5°F25.3°C 72.3°F22.4°C 84% Calm Calm -- 29.22 in989.5 mb 0.00 in0.0 mm 0.00 in0.0 mm 0.00 in0.0 mm
07:45 AM 77.5°F25.3°C 72.3°F22.4°C 84% Calm Calm -- 29.22 in989.5 mb 0.00 in0.0 mm 0.00 in0.0 mm 0.00 in0.0 mm
07:44 AM 77.5°F25.3°C 72.3°F22.4°C 84% Calm Calm -- 29.22 in989.5 mb 0.00 in0.0 mm 0.00 in0.0 mm 0.00 in0.0 mm
07:43 AM 77.5°F25.3°C 72.3°F22.4°C 84% Calm Calm -- 29.22 in989.5 mb 0.00 in0.0 mm 0.00 in0.0 mm 0.00 in0.0 mm
07:42 AM 77.5°F25.3°C 72.3°F22.4°C 84% Calm Calm -- 29.22 in989.5 mb 0.00 in0.0 mm 0.00 in0.0 mm 0.00 in0.0 mm
07:41 AM 77.5°F25.3°C 72.3°F22.4°C 84% Calm Calm -- 29.22 in989.5 mb 0.00 in0.0 mm 0.00 in0.0 mm 0.00 in0.0 mm
07:40 AM 77.4°F25.2°C 72.2°F22.3°C 84% Calm Calm -- 29.22 in989.5 mb 0.00 in0.0 mm 0.00 in0.0 mm 0.00 in0.0 mm
07:39 AM 77.4°F25.2°C 72.2°F22.3°C 84% Calm Calm -- 29.22 in989.5 mb 0.00 in0.0 mm 0.00 in0.0 mm 0.00 in0.0 mm
07:38 AM 77.4°F25.2°C 72.2°F22.3°C 84% Calm Calm -- 29.22 in989.5 mb 0.00 in0.0 mm 0.00 in0.0 mm 0.00 in0.0 mm
07:37 AM 77.4°F25.2°C 72.2°F22.3°C 84% Calm Calm -- 29.22 in989.5 mb 0.00 in0.0 mm 0.00 in0.0 mm 0.00 in0.0 mm
07:36 AM 77.4°F25.2°C 72.2°F22.3°C 84% Calm Calm -- 29.22 in989.5 mb 0.00 in0.0 mm 0.00 in0.0 mm 0.00 in0.0 mm
07:35 AM 77.4°F25.2°C 72.2°F22.3°C 84% Calm Calm -- 29.22 in989.5 mb 0.00 in0.0 mm 0.00 in0.0 mm 0.00 in0.0 mm
07:34 AM 77.4°F25.2°C 72.2°F22.3°C 84% Calm Calm -- 29.22 in989.5 mb 0.00 in0.0 mm 0.00 in0.0 mm 0.00 in0.0 mm
07:33 AM 77.4°F25.2°C 72.2°F22.3°C 84% Calm Calm -- 29.22 in989.5 mb 0.00 in0.0 mm 0.00 in0.0 mm 0.00 in0.0 mm
07:32 AM 77.4°F25.2°C 72.2°F22.3°C 84% Calm Calm -- 29.22 in989.5 mb 0.00 in0.0 mm 0.00 in0.0 mm 0.00 in0.0 mm
07:31 AM 77.4°F25.2°C 72.2°F22.3°C 84% Calm Calm -- 29.22 in989.5 mb 0.00 in0.0 mm 0.00 in0.0 mm 0.00 in0.0 mm
07:30 AM 77.4°F25.2°C 72.2°F22.3°C 84% Calm Calm -- 29.22 in989.5 mb 0.00 in0.0 mm 0.00 in0.0 mm 0.00 in0.0 mm
07:29 AM 77.4°F25.2°C 72.2°F22.3°C 84% Calm Calm -- 29.22 in989.5 mb 0.00 in0.0 mm 0.00 in0.0 mm 0.00 in0.0 mm
07:28 AM 77.4°F25.2°C 72.2°F22.3°C 84% Calm Calm -- 29.22 in989.5 mb 0.00 in0.0 mm 0.00 in0.0 mm 0.00 in0.0 mm
07:27 AM 77.4°F25.2°C 72.2°F22.3°C 84% Calm Calm -- 29.21 in989.2 mb 0.00 in0.0 mm 0.00 in0.0 mm 0.00 in0.0 mm
07:26 AM 77.4°F25.2°C 72.2°F22.3°C 84% Calm Calm -- 29.21 in989.2 mb 0.00 in0.0 mm 0.00 in0.0 mm 0.00 in0.0 mm
07:25 AM 77.4°F25.2°C 72.2°F22.3°C 84% Calm Calm -- 29.21 in989.2 mb 0.00 in0.0 mm 0.00 in0.0 mm 0.00 in0.0 mm
07:24 AM 77.4°F25.2°C 72.2°F22.3°C 84% Calm Calm -- 29.21 in989.2 mb 0.00 in0.0 mm 0.00 in0.0 mm 0.00 in0.0 mm
07:23 AM 77.4°F25.2°C 72.2°F22.3°C 84% Calm Calm -- 29.21 in989.2 mb 0.00 in0.0 mm 0.00 in0.0 mm 0.00 in0.0 mm
07:22 AM 77.4°F25.2°C 72.2°F22.3°C 84% Calm Calm -- 29.21 in989.2 mb 0.00 in0.0 mm 0.00 in0.0 mm 0.00 in0.0 mm
07:21 AM 77.4°F25.2°C 72.2°F22.3°C 84% Calm Calm -- 29.21 in989.2 mb 0.00 in0.0 mm 0.00 in0.0 mm 0.00 in0.0 mm
07:20 AM 77.4°F25.2°C 72.2°F22.3°C 84% Calm Calm -- 29.21 in989.2 mb 0.00 in0.0 mm 0.00 in0.0 mm 0.00 in0.0 mm
07:19 AM 77.4°F25.2°C 71.8°F22.1°C 83% Calm Calm -- 29.21 in989.2 mb 0.00 in0.0 mm 0.00 in0.0 mm 0.00 in0.0 mm
07:18 AM 77.4°F25.2°C 71.8°F22.1°C 83% Calm Calm -- 29.21 in989.2 mb 0.00 in0.0 mm 0.00 in0.0 mm 0.00 in0.0 mm
07:17 AM 77.4°F25.2°C 71.8°F22.1°C 83% Calm Calm -- 29.21 in989.2 mb 0.00 in0.0 mm 0.00 in0.0 mm 0.00 in0.0 mm
07:16 AM 77.4°F25.2°C 71.8°F22.1°C 83% Calm Calm -- 29.21 in989.2 mb 0.00 in0.0 mm 0.00 in0.0 mm 0.00 in0.0 mm
07:15 AM 77.4°F25.2°C 71.8°F22.1°C 83% Calm Calm -- 29.21 in989.2 mb 0.00 in0.0 mm 0.00 in0.0 mm 0.00 in0.0 mm
07:14 AM 77.4°F25.2°C 71.8°F22.1°C 83% Calm Calm -- 29.21 in989.2 mb 0.00 in0.0 mm 0.00 in0.0 mm 0.00 in0.0 mm
07:13 AM 77.4°F25.2°C 71.8°F22.1°C 83% Calm Calm -- 29.21 in989.2 mb 0.00 in0.0 mm 0.00 in0.0 mm 0.00 in0.0 mm
07:12 AM 77.4°F25.2°C 71.8°F22.1°C 83% Calm Calm -- 29.21 in989.2 mb 0.00 in0.0 mm 0.00 in0.0 mm 0.00 in0.0 mm
07:11 AM 77.4°F25.2°C 71.8°F22.1°C 83% Calm Calm -- 29.21 in989.2 mb 0.00 in0.0 mm 0.00 in0.0 mm 0.00 in0.0 mm
07:10 AM 77.4°F25.2°C 71.8°F22.1°C 83% Calm Calm -- 29.21 in989.2 mb 0.00 in0.0 mm 0.00 in0.0 mm 0.00 in0.0 mm
07:09 AM 77.4°F25.2°C 71.8°F22.1°C 83% Calm Calm -- 29.21 in989.2 mb 0.00 in0.0 mm 0.00 in0.0 mm 0.00 in0.0 mm
07:08 AM 77.4°F25.2°C 71.8°F22.1°C 83% Calm Calm -- 29.21 in989.2 mb 0.00 in0.0 mm 0.00 in0.0 mm 0.00 in0.0 mm
07:07 AM 77.4°F25.2°C 71.8°F22.1°C 83% Calm Calm -- 29.21 in989.2 mb 0.00 in0.0 mm 0.00 in0.0 mm 0.00 in0.0 mm
07:06 AM 77.4°F25.2°C 71.8°F22.1°C 83% Calm Calm -- 29.21 in989.2 mb 0.00 in0.0 mm 0.00 in0.0 mm 0.00 in0.0 mm
07:05 AM 77.4°F25.2°C 71.8°F22.1°C 83% Calm Calm -- 29.21 in989.2 mb 0.00 in0.0 mm 0.00 in0.0 mm 0.00 in0.0 mm
07:04 AM 77.4°F25.2°C 71.8°F22.1°C 83% Calm Calm -- 29.21 in989.2 mb 0.00 in0.0 mm 0.00 in0.0 mm 0.00 in0.0 mm
07:03 AM 77.4°F25.2°C 71.8°F22.1°C 83% Calm Calm -- 29.21 in989.2 mb 0.00 in0.0 mm 0.00 in0.0 mm 0.00 in0.0 mm
07:02 AM 77.4°F25.2°C 71.8°F22.1°C 83% Calm Calm -- 29.21 in989.2 mb 0.00 in0.0 mm 0.00 in0.0 mm 0.00 in0.0 mm
07:01 AM 77.4°F25.2°C 71.8°F22.1°C 83% Calm Calm -- 29.21 in989.2 mb 0.00 in0.0 mm 0.00 in0.0 mm 0.00 in0.0 mm
07:00 AM 77.4°F25.2°C 71.8°F22.1°C 83% Calm Calm -- 29.21 in989.2 mb 0.00 in0.0 mm 0.00 in0.0 mm 0.00 in0.0 mm
06:59 AM 77.4°F25.2°C 71.8°F22.1°C 83% Calm Calm -- 29.21 in989.2 mb 0.00 in0.0 mm 0.00 in0.0 mm 0.00 in0.0 mm
06:58 AM 77.4°F25.2°C 71.8°F22.1°C 83% Calm Calm -- 29.21 in989.2 mb 0.00 in0.0 mm 0.00 in0.0 mm 0.00 in0.0 mm
06:57 AM 77.5°F25.3°C 71.9°F22.2°C 83% Calm Calm -- 29.21 in989.2 mb 0.00 in0.0 mm 0.00 in0.0 mm 0.00 in0.0 mm
06:56 AM 77.5°F25.3°C 71.9°F22.2°C 83% Calm Calm -- 29.21 in989.2 mb 0.00 in0.0 mm 0.00 in0.0 mm 0.00 in0.0 mm
06:55 AM 77.5°F25.3°C 71.9°F22.2°C 83% Calm Calm -- 29.21 in989.2 mb 0.00 in0.0 mm 0.00 in0.0 mm 0.00 in0.0 mm
06:54 AM 77.5°F25.3°C 71.9°F22.2°C 83% Calm Calm -- 29.21 in989.2 mb 0.00 in0.0 mm 0.00 in0.0 mm 0.00 in0.0 mm
06:53 AM 77.5°F25.3°C 71.9°F22.2°C 83% Calm Calm -- 29.21 in989.2 mb 0.00 in0.0 mm 0.00 in0.0 mm 0.00 in0.0 mm
06:52 AM 77.5°F25.3°C 71.9°F22.2°C 83% Calm Calm -- 29.21 in989.2 mb 0.00 in0.0 mm 0.00 in0.0 mm 0.00 in0.0 mm
06:51 AM 77.5°F25.3°C 71.6°F22.0°C 82% Calm Calm -- 29.20 in988.8 mb 0.00 in0.0 mm 0.00 in0.0 mm 0.00 in0.0 mm
06:50 AM 77.5°F25.3°C 71.6°F22.0°C 82% Calm Calm -- 29.20 in988.8 mb 0.00 in0.0 mm 0.00 in0.0 mm 0.00 in0.0 mm
06:49 AM 77.5°F25.3°C 71.6°F22.0°C 82% Calm Calm -- 29.20 in988.8 mb 0.00 in0.0 mm 0.00 in0.0 mm 0.00 in0.0 mm
06:48 AM 77.5°F25.3°C 71.6°F22.0°C 82% Calm Calm -- 29.20 in988.8 mb 0.00 in0.0 mm 0.00 in0.0 mm 0.00 in0.0 mm
06:47 AM 77.5°F25.3°C 71.6°F22.0°C 82% Calm Calm -- 29.20 in988.8 mb 0.00 in0.0 mm 0.00 in0.0 mm 0.00 in0.0 mm
06:46 AM 77.5°F25.3°C 71.6°F22.0°C 82% Calm Calm -- 29.20 in988.8 mb 0.00 in0.0 mm 0.00 in0.0 mm 0.00 in0.0 mm
06:45 AM 77.7°F25.4°C 71.8°F22.1°C 82% Calm Calm -- 29.20 in988.8 mb 0.00 in0.0 mm 0.00 in0.0 mm 0.00 in0.0 mm
06:44 AM 77.7°F25.4°C 71.8°F22.1°C 82% Calm Calm -- 29.20 in988.8 mb 0.00 in0.0 mm 0.00 in0.0 mm 0.00 in0.0 mm
06:43 AM 77.7°F25.4°C 71.8°F22.1°C 82% Calm Calm -- 29.20 in988.8 mb 0.00 in0.0 mm 0.00 in0.0 mm 0.00 in0.0 mm
06:42 AM 77.7°F25.4°C 71.8°F22.1°C 82% Calm Calm -- 29.20 in988.8 mb 0.00 in0.0 mm 0.00 in0.0 mm 0.00 in0.0 mm
06:41 AM 77.7°F25.4°C 71.8°F22.1°C 82% Calm Calm -- 29.20 in988.8 mb 0.00 in0.0 mm 0.00 in0.0 mm 0.00 in0.0 mm
06:40 AM 77.7°F25.4°C 71.8°F22.1°C 82% Calm Calm -- 29.20 in988.8 mb 0.00 in0.0 mm 0.00 in0.0 mm 0.00 in0.0 mm
06:39 AM 77.7°F25.4°C 71.8°F22.1°C 82% Calm Calm -- 29.20 in988.8 mb 0.00 in0.0 mm 0.00 in0.0 mm 0.00 in0.0 mm
06:38 AM 77.7°F25.4°C 71.8°F22.1°C 82% Calm Calm -- 29.20 in988.8 mb 0.00 in0.0 mm 0.00 in0.0 mm 0.00 in0.0 mm
06:37 AM 77.7°F25.4°C 71.8°F22.1°C 82% Calm Calm -- 29.20 in988.8 mb 0.00 in0.0 mm 0.00 in0.0 mm 0.00 in0.0 mm
06:36 AM 77.7°F25.4°C 71.8°F22.1°C 82% Calm Calm -- 29.20 in988.8 mb 0.00 in0.0 mm 0.00 in0.0 mm 0.00 in0.0 mm
06:35 AM 77.7°F25.4°C 71.8°F22.1°C 82% Calm Calm -- 29.20 in988.8 mb 0.00 in0.0 mm 0.00 in0.0 mm 0.00 in0.0 mm
06:34 AM 77.9°F25.5°C 71.9°F22.2°C 82% Calm Calm -- 29.20 in988.8 mb 0.00 in0.0 mm 0.00 in0.0 mm 0.00 in0.0 mm
06:33 AM 77.9°F25.5°C 71.9°F22.2°C 82% Calm Calm -- 29.20 in988.8 mb 0.00 in0.0 mm 0.00 in0.0 mm 0.00 in0.0 mm
06:32 AM 77.9°F25.5°C 71.9°F22.2°C 82% Calm Calm -- 29.20 in988.8 mb 0.00 in0.0 mm 0.00 in0.0 mm 0.00 in0.0 mm
06:31 AM 77.9°F25.5°C 71.9°F22.2°C 82% Calm Calm -- 29.20 in988.8 mb 0.00 in0.0 mm 0.00 in0.0 mm 0.00 in0.0 mm
06:30 AM 77.9°F25.5°C 71.9°F22.2°C 82% Calm Calm -- 29.20 in988.8 mb 0.00 in0.0 mm 0.00 in0.0 mm 0.00 in0.0 mm
06:29 AM 77.9°F25.5°C 71.9°F22.2°C 82% Calm Calm -- 29.20 in988.8 mb 0.00 in0.0 mm 0.00 in0.0 mm 0.00 in0.0 mm
06:28 AM 77.9°F25.5°C 71.9°F22.2°C 82% Calm Calm -- 29.20 in988.8 mb 0.00 in0.0 mm 0.00 in0.0 mm 0.00 in0.0 mm
06:27 AM 77.9°F25.5°C 71.9°F22.2°C 82% Calm Calm -- 29.20 in988.8 mb 0.00 in0.0 mm 0.00 in0.0 mm 0.00 in0.0 mm
06:26 AM 77.9°F25.5°C 71.9°F22.2°C 82% Calm Calm -- 29.20 in988.8 mb 0.00 in0.0 mm 0.00 in0.0 mm 0.00 in0.0 mm
06:25 AM 77.9°F25.5°C 71.9°F22.2°C 82% Calm Calm -- 29.20 in988.8 mb 0.00 in0.0 mm 0.00 in0.0 mm 0.00 in0.0 mm
06:24 AM 77.9°F25.5°C 71.9°F22.2°C 82% Calm Calm -- 29.20 in988.8 mb 0.00 in0.0 mm 0.00 in0.0 mm 0.00 in0.0 mm
06:23 AM 77.9°F25.5°C 71.9°F22.2°C 82% Calm Calm -- 29.20 in988.8 mb 0.00 in0.0 mm 0.00 in0.0 mm 0.00 in0.0 mm
06:22 AM 77.9°F25.5°C 71.9°F22.2°C 82% Calm Calm -- 29.20 in988.8 mb 0.00 in0.0 mm 0.00 in0.0 mm 0.00 in0.0 mm
06:21 AM 77.9°F25.5°C 71.9°F22.2°C 82% Calm Calm -- 29.20 in988.8 mb 0.00 in0.0 mm 0.00 in0.0 mm 0.00 in0.0 mm
06:20 AM 77.9°F25.5°C 71.9°F22.2°C 82% Calm Calm -- 29.20 in988.8 mb 0.00 in0.0 mm 0.00 in0.0 mm 0.00 in0.0 mm
06:19 AM 77.9°F25.5°C 71.9°F22.2°C 82% Calm Calm -- 29.20 in988.8 mb 0.00 in0.0 mm 0.00 in0.0 mm 0.00 in0.0 mm
06:18 AM 77.9°F25.5°C 71.9°F22.2°C 82% Calm Calm -- 29.20 in988.8 mb 0.00 in0.0 mm 0.00 in0.0 mm 0.00 in0.0 mm
06:17 AM 77.9°F25.5°C 71.9°F22.2°C 82% Calm Calm -- 29.20 in988.8 mb 0.00 in0.0 mm 0.00 in0.0 mm 0.00 in0.0 mm
06:16 AM 77.9°F25.5°C 71.9°F22.2°C 82% Calm Calm -- 29.20 in988.8 mb 0.00 in0.0 mm 0.00 in0.0 mm 0.00 in0.0 mm
06:15 AM 77.9°F25.5°C 71.9°F22.2°C 82% Calm Calm -- 29.20 in988.8 mb 0.00 in0.0 mm 0.00 in0.0 mm 0.00 in0.0 mm
06:14 AM 77.9°F25.5°C 71.9°F22.2°C 82% Calm Calm -- 29.20 in988.8 mb 0.00 in0.0 mm 0.00 in0.0 mm 0.00 in0.0 mm
06:13 AM 77.9°F25.5°C 71.9°F22.2°C 82% Calm Calm -- 29.20 in988.8 mb 0.00 in0.0 mm 0.00 in0.0 mm 0.00 in0.0 mm
06:12 AM 78.1°F25.6°C 71.8°F22.1°C 81% Calm Calm -- 29.20 in988.8 mb 0.00 in0.0 mm 0.00 in0.0 mm 0.00 in0.0 mm
06:11 AM 78.1°F25.6°C 71.8°F22.1°C 81% Calm Calm -- 29.20 in988.8 mb 0.00 in0.0 mm 0.00 in0.0 mm 0.00 in0.0 mm
06:10 AM 78.1°F25.6°C 71.8°F22.1°C 81% Calm Calm -- 29.20 in988.8 mb 0.00 in0.0 mm 0.00 in0.0 mm 0.00 in0.0 mm
06:09 AM 78.1°F25.6°C 71.8°F22.1°C 81% Calm Calm -- 29.20 in988.8 mb 0.00 in0.0 mm 0.00 in0.0 mm 0.00 in0.0 mm
06:08 AM 78.1°F25.6°C 71.8°F22.1°C 81% Calm Calm -- 29.20 in988.8 mb 0.00 in0.0 mm 0.00 in0.0 mm 0.00 in0.0 mm
06:07 AM 78.1°F25.6°C 71.8°F22.1°C 81% Calm Calm -- 29.20 in988.8 mb 0.00 in0.0 mm 0.00 in0.0 mm 0.00 in0.0 mm
06:06 AM 78.1°F25.6°C 71.8°F22.1°C 81% Calm Calm -- 29.20 in988.8 mb 0.00 in0.0 mm 0.00 in0.0 mm 0.00 in0.0 mm
06:05 AM 78.3°F25.7°C 72.0°F22.2°C 81% Calm Calm -- 29.20 in988.8 mb 0.00 in0.0 mm 0.00 in0.0 mm 0.00 in0.0 mm
06:04 AM 78.3°F25.7°C 72.0°F22.2°C 81% Calm Calm -- 29.20 in988.8 mb 0.00 in0.0 mm 0.00 in0.0 mm 0.00 in0.0 mm
06:03 AM 78.3°F25.7°C 72.0°F22.2°C 81% Calm Calm -- 29.20 in988.8 mb 0.00 in0.0 mm 0.00 in0.0 mm 0.00 in0.0 mm
06:02 AM 78.3°F25.7°C 72.0°F22.2°C 81% Calm Calm -- 29.20 in988.8 mb 0.00 in0.0 mm 0.00 in0.0 mm 0.00 in0.0 mm
06:01 AM 78.3°F25.7°C 72.0°F22.2°C 81% Calm Calm -- 29.20 in988.8 mb 0.00 in0.0 mm 0.00 in0.0 mm 0.00 in0.0 mm
06:00 AM 78.3°F25.7°C 72.0°F22.2°C 81% Calm Calm -- 29.20 in988.8 mb 0.00 in0.0 mm 0.00 in0.0 mm 0.00 in0.0 mm
05:59 AM 78.3°F25.7°C 72.0°F22.2°C 81% Calm Calm -- 29.20 in988.8 mb 0.00 in0.0 mm 0.00 in0.0 mm 0.00 in0.0 mm
05:58 AM 78.3°F25.7°C 72.0°F22.2°C 81% Calm Calm -- 29.20 in988.8 mb 0.00 in0.0 mm 0.00 in0.0 mm 0.00 in0.0 mm
05:57 AM 78.3°F25.7°C 72.0°F22.2°C 81% Calm Calm -- 29.20 in988.8 mb 0.00 in0.0 mm 0.00 in0.0 mm 0.00 in0.0 mm
05:56 AM 78.3°F25.7°C 72.0°F22.2°C 81% Calm Calm -- 29.20 in988.8 mb 0.00 in0.0 mm 0.00 in0.0 mm 0.00 in0.0 mm
05:55 AM 78.4°F25.8°C 72.1°F22.3°C 81% Calm Calm -- 29.20 in988.8 mb 0.00 in0.0 mm 0.00 in0.0 mm 0.00 in0.0 mm
05:54 AM 78.4°F25.8°C 72.1°F22.3°C 81% Calm Calm -- 29.20 in988.8 mb 0.00 in0.0 mm 0.00 in0.0 mm 0.00 in0.0 mm
05:53 AM 78.4°F25.8°C 72.1°F22.3°C 81% Calm Calm -- 29.20 in988.8 mb 0.00 in0.0 mm 0.00 in0.0 mm 0.00 in0.0 mm
05:52 AM 78.4°F25.8°C 72.1°F22.3°C 81% Calm Calm -- 29.20 in988.8 mb 0.00 in0.0 mm 0.00 in0.0 mm 0.00 in0.0 mm
05:51 AM 78.4°F25.8°C 72.1°F22.3°C 81% Calm Calm -- 29.20 in988.8 mb 0.00 in0.0 mm 0.00 in0.0 mm 0.00 in0.0 mm
05:50 AM 78.4°F25.8°C 72.1°F22.3°C 81% Calm Calm -- 29.20 in988.8 mb 0.00 in0.0 mm 0.00 in0.0 mm 0.00 in0.0 mm
05:49 AM 78.4°F25.8°C 72.1°F22.3°C 81% Calm Calm -- 29.20 in988.8 mb 0.00 in0.0 mm 0.00 in0.0 mm 0.00 in0.0 mm
05:48 AM 78.4°F25.8°C 72.1°F22.3°C 81% Calm Calm -- 29.20 in988.8 mb 0.00 in0.0 mm 0.00 in0.0 mm 0.00 in0.0 mm
05:47 AM 78.4°F25.8°C 72.1°F22.3°C 81% Calm Calm -- 29.20 in988.8 mb 0.00 in0.0 mm 0.00 in0.0 mm 0.00 in0.0 mm
05:46 AM 78.4°F25.8°C 72.1°F22.3°C 81% Calm Calm -- 29.20 in988.8 mb 0.00 in0.0 mm 0.00 in0.0 mm 0.00 in0.0 mm
05:45 AM 78.4°F25.8°C 72.1°F22.3°C 81% Calm Calm -- 29.20 in988.8 mb 0.00 in0.0 mm 0.00 in0.0 mm 0.00 in0.0 mm
05:44 AM 78.6°F25.9°C 72.3°F22.4°C 81% Calm Calm -- 29.20 in988.8 mb 0.00 in0.0 mm 0.00 in0.0 mm 0.00 in0.0 mm
05:43 AM 78.6°F25.9°C 71.9°F22.2°C 80% Calm Calm -- 29.20 in988.8 mb 0.00 in0.0 mm 0.00 in0.0 mm 0.00 in0.0 mm
05:42 AM 78.6°F25.9°C 71.9°F22.2°C 80% Calm Calm -- 29.20 in988.8 mb 0.00 in0.0 mm 0.00 in0.0 mm 0.00 in0.0 mm
05:41 AM 78.6°F25.9°C 71.9°F22.2°C 80% Calm Calm -- 29.20 in988.8 mb 0.00 in0.0 mm 0.00 in0.0 mm 0.00 in0.0 mm
05:40 AM 78.6°F25.9°C 71.9°F22.2°C 80% Calm Calm -- 29.20 in988.8 mb 0.00 in0.0 mm 0.00 in0.0 mm 0.00 in0.0 mm
05:39 AM 78.6°F25.9°C 71.9°F22.2°C 80% Calm Calm -- 29.20 in988.8 mb 0.00 in0.0 mm 0.00 in0.0 mm 0.00 in0.0 mm
05:38 AM 78.6°F25.9°C 71.9°F22.2°C 80% Calm Calm -- 29.20 in988.8 mb 0.00 in0.0 mm 0.00 in0.0 mm 0.00 in0.0 mm
05:37 AM 78.6°F25.9°C 71.9°F22.2°C 80% Calm Calm -- 29.20 in988.8 mb 0.00 in0.0 mm 0.00 in0.0 mm 0.00 in0.0 mm
05:36 AM 78.6°F25.9°C 71.9°F22.2°C 80% Calm Calm -- 29.20 in988.8 mb 0.00 in0.0 mm 0.00 in0.0 mm 0.00 in0.0 mm
05:35 AM 78.6°F25.9°C 71.9°F22.2°C 80% Calm Calm -- 29.20 in988.8 mb 0.00 in0.0 mm 0.00 in0.0 mm 0.00 in0.0 mm
05:34 AM 78.6°F25.9°C 71.9°F22.2°C 80% Calm Calm -- 29.20 in988.8 mb 0.00 in0.0 mm 0.00 in0.0 mm 0.00 in0.0 mm
05:33 AM 78.8°F26.0°C 72.1°F22.3°C 80% Calm Calm -- 29.20 in988.8 mb 0.00 in0.0 mm 0.00 in0.0 mm 0.00 in0.0 mm
05:32 AM 78.8°F26.0°C 72.1°F22.3°C 80% Calm Calm -- 29.20 in988.8 mb 0.00 in0.0 mm 0.00 in0.0 mm 0.00 in0.0 mm
05:31 AM 78.8°F26.0°C 72.1°F22.3°C 80% Calm Calm -- 29.20 in988.8 mb 0.00 in0.0 mm 0.00 in0.0 mm 0.00 in0.0 mm
05:30 AM 78.8°F26.0°C 72.1°F22.3°C 80% Calm Calm -- 29.20 in988.8 mb 0.00 in0.0 mm 0.00 in0.0 mm 0.00 in0.0 mm
05:29 AM 78.8°F26.0°C 72.1°F22.3°C 80% Calm Calm -- 29.20 in988.8 mb 0.00 in0.0 mm 0.00 in0.0 mm 0.00 in0.0 mm
05:28 AM 78.8°F26.0°C 72.1°F22.3°C 80% Calm Calm -- 29.20 in988.8 mb 0.00 in0.0 mm 0.00 in0.0 mm 0.00 in0.0 mm
05:27 AM 78.8°F26.0°C 72.1°F22.3°C 80% Calm Calm -- 29.20 in988.8 mb 0.00 in0.0 mm 0.00 in0.0 mm 0.00 in0.0 mm
05:26 AM 78.8°F26.0°C 72.1°F22.3°C 80% Calm Calm -- 29.20 in988.8 mb 0.00 in0.0 mm 0.00 in0.0 mm 0.00 in0.0 mm
05:25 AM 78.8°F26.0°C 72.1°F22.3°C 80% Calm Calm -- 29.20 in988.8 mb 0.00 in0.0 mm 0.00 in0.0 mm 0.00 in0.0 mm
05:24 AM 78.8°F26.0°C 72.1°F22.3°C 80% Calm Calm -- 29.20 in988.8 mb 0.00 in0.0 mm 0.00 in0.0 mm 0.00 in0.0 mm
05:23 AM 78.8°F26.0°C 72.1°F22.3°C 80% Calm Calm -- 29.20 in988.8 mb 0.00 in0.0 mm 0.00 in0.0 mm 0.00 in0.0 mm
05:22 AM 78.8°F26.0°C 72.1°F22.3°C 80% Calm Calm -- 29.20 in988.8 mb 0.00 in0.0 mm 0.00 in0.0 mm 0.00 in0.0 mm
05:21 AM 79.0°F26.1°C 72.3°F22.4°C 80% Calm Calm -- 29.20 in988.8 mb 0.00 in0.0 mm 0.00 in0.0 mm 0.00 in0.0 mm
05:20 AM 79.0°F26.1°C 72.3°F22.4°C 80% Calm Calm -- 29.20 in988.8 mb 0.00 in0.0 mm 0.00 in0.0 mm 0.00 in0.0 mm
05:19 AM 79.0°F26.1°C 72.3°F22.4°C 80% Calm Calm -- 29.20 in988.8 mb 0.00 in0.0 mm 0.00 in0.0 mm 0.00 in0.0 mm
05:18 AM 79.0°F26.1°C 72.3°F22.4°C 80% Calm Calm -- 29.20 in988.8 mb 0.00 in0.0 mm 0.00 in0.0 mm 0.00 in0.0 mm
05:17 AM 79.0°F26.1°C 72.3°F22.4°C 80% Calm Calm -- 29.20 in988.8 mb 0.00 in0.0 mm 0.00 in0.0 mm 0.00 in0.0 mm
05:16 AM 79.0°F26.1°C 72.3°F22.4°C 80% Calm Calm -- 29.20 in988.8 mb 0.00 in0.0 mm 0.00 in0.0 mm 0.00 in0.0 mm
05:15 AM 79.0°F26.1°C 72.3°F22.4°C 80% Calm Calm -- 29.20 in988.8 mb 0.00 in0.0 mm 0.00 in0.0 mm 0.00 in0.0 mm
05:14 AM 79.0°F26.1°C 72.3°F22.4°C 80% Calm Calm -- 29.20 in988.8 mb 0.00 in0.0 mm 0.00 in0.0 mm 0.00 in0.0 mm
05:13 AM 79.0°F26.1°C 72.3°F22.4°C 80% Calm Calm -- 29.20 in988.8 mb 0.00 in0.0 mm 0.00 in0.0 mm 0.00 in0.0 mm
05:12 AM 79.0°F26.1°C 72.3°F22.4°C 80% Calm Calm -- 29.20 in988.8 mb 0.00 in0.0 mm 0.00 in0.0 mm 0.00 in0.0 mm
05:11 AM 79.2°F26.2°C 72.5°F22.5°C 80% Calm Calm -- 29.20 in988.8 mb 0.00 in0.0 mm 0.00 in0.0 mm 0.00 in0.0 mm
05:10 AM 79.2°F26.2°C 72.5°F22.5°C 80% Calm Calm -- 29.20 in988.8 mb 0.00 in0.0 mm 0.00 in0.0 mm 0.00 in0.0 mm
05:09 AM 79.2°F26.2°C 72.5°F22.5°C 80% Calm Calm -- 29.20 in988.8 mb 0.00 in0.0 mm 0.00 in0.0 mm 0.00 in0.0 mm
05:08 AM 79.2°F26.2°C 72.5°F22.5°C 80% Calm Calm -- 29.20 in988.8 mb 0.00 in0.0 mm 0.00 in0.0 mm 0.00 in0.0 mm
05:07 AM 79.2°F26.2°C 72.5°F22.5°C 80% Calm Calm -- 29.20 in988.8 mb 0.00 in0.0 mm 0.00 in0.0 mm 0.00 in0.0 mm
05:06 AM 79.2°F26.2°C 72.5°F22.5°C 80% Calm Calm -- 29.20 in988.8 mb 0.00 in0.0 mm 0.00 in0.0 mm 0.00 in0.0 mm
05:05 AM 79.2°F26.2°C 72.5°F22.5°C 80% Calm Calm -- 29.20 in988.8 mb 0.00 in0.0 mm 0.00 in0.0 mm 0.00 in0.0 mm
05:04 AM 79.2°F26.2°C 72.1°F22.3°C 79% Calm Calm -- 29.20 in988.8 mb 0.00 in0.0 mm 0.00 in0.0 mm 0.00 in0.0 mm
05:03 AM 79.2°F26.2°C 72.1°F22.3°C 79% Calm Calm -- 29.19 in988.5 mb 0.00 in0.0 mm 0.00 in0.0 mm 0.00 in0.0 mm
05:02 AM 79.2°F26.2°C 72.1°F22.3°C 79% Calm Calm -- 29.19 in988.5 mb 0.00 in0.0 mm 0.00 in0.0 mm 0.00 in0.0 mm
05:01 AM 79.2°F26.2°C 72.1°F22.3°C 79% Calm Calm -- 29.19 in988.5 mb 0.00 in0.0 mm 0.00 in0.0 mm 0.00 in0.0 mm
05:00 AM 79.2°F26.2°C 72.1°F22.3°C 79% Calm Calm -- 29.19 in988.5 mb 0.00 in0.0 mm 0.00 in0.0 mm 0.00 in0.0 mm
04:59 AM 79.2°F26.2°C 72.1°F22.3°C 79% Calm Calm -- 29.19 in988.5 mb 0.00 in0.0 mm 0.00 in0.0 mm 0.00 in0.0 mm
04:58 AM 79.2°F26.2°C 72.1°F22.3°C 79% Calm Calm -- 29.19 in988.5 mb 0.00 in0.0 mm 0.00 in0.0 mm 0.00 in0.0 mm
04:57 AM 79.2°F26.2°C 72.1°F22.3°C 79% Calm Calm -- 29.19 in988.5 mb 0.00 in0.0 mm 0.00 in0.0 mm 0.00 in0.0 mm
04:56 AM 79.2°F26.2°C 72.1°F22.3°C 79% Calm Calm -- 29.19 in988.5 mb 0.00 in0.0 mm 0.00 in0.0 mm 0.00 in0.0 mm
04:55 AM 79.3°F26.3°C 72.2°F22.3°C 79% Calm Calm -- 29.19 in988.5 mb 0.00 in0.0 mm 0.00 in0.0 mm 0.00 in0.0 mm
04:54 AM 79.3°F26.3°C 72.2°F22.3°C 79% Calm Calm -- 29.19 in988.5 mb 0.00 in0.0 mm 0.00 in0.0 mm 0.00 in0.0 mm
04:53 AM 79.3°F26.3°C 72.2°F22.3°C 79% Calm Calm -- 29.19 in988.5 mb 0.00 in0.0 mm 0.00 in0.0 mm 0.00 in0.0 mm
04:52 AM 79.3°F26.3°C 72.2°F22.3°C 79% Calm Calm -- 29.19 in988.5 mb 0.00 in0.0 mm 0.00 in0.0 mm 0.00 in0.0 mm
04:51 AM 79.3°F26.3°C 72.2°F22.3°C 79% Calm Calm -- 29.20 in988.8 mb 0.00 in0.0 mm 0.00 in0.0 mm 0.00 in0.0 mm
04:50 AM 79.3°F26.3°C 72.2°F22.3°C 79% Calm Calm -- 29.20 in988.8 mb 0.00 in0.0 mm 0.00 in0.0 mm 0.00 in0.0 mm
04:49 AM 79.3°F26.3°C 72.2°F22.3°C 79% Calm Calm -- 29.20 in988.8 mb 0.00 in0.0 mm 0.00 in0.0 mm 0.00 in0.0 mm
04:48 AM 79.3°F26.3°C 72.2°F22.3°C 79% Calm Calm -- 29.20 in988.8 mb 0.00 in0.0 mm 0.00 in0.0 mm 0.00 in0.0 mm
04:47 AM 79.3°F26.3°C 72.2°F22.3°C 79% Calm Calm -- 29.20 in988.8 mb 0.00 in0.0 mm 0.00 in0.0 mm 0.00 in0.0 mm
04:46 AM 79.3°F26.3°C 72.2°F22.3°C 79% Calm Calm -- 29.20 in988.8 mb 0.00 in0.0 mm 0.00 in0.0 mm 0.00 in0.0 mm
04:45 AM 79.5°F26.4°C 72.4°F22.4°C 79% Calm Calm -- 29.20 in988.8 mb 0.00 in0.0 mm 0.00 in0.0 mm 0.00 in0.0 mm
04:44 AM 79.5°F26.4°C 72.4°F22.4°C 79% Calm Calm -- 29.20 in988.8 mb 0.00 in0.0 mm 0.00 in0.0 mm 0.00 in0.0 mm
04:43 AM 79.5°F26.4°C 72.4°F22.4°C 79% Calm Calm -- 29.20 in988.8 mb 0.00 in0.0 mm 0.00 in0.0 mm 0.00 in0.0 mm
04:42 AM 79.5°F26.4°C 72.4°F22.4°C 79% Calm Calm -- 29.20 in988.8 mb 0.00 in0.0 mm 0.00 in0.0 mm 0.00 in0.0 mm
04:41 AM 79.5°F26.4°C 72.4°F22.4°C 79% Calm Calm -- 29.20 in988.8 mb 0.00 in0.0 mm 0.00 in0.0 mm 0.00 in0.0 mm
04:40 AM 79.5°F26.4°C 72.4°F22.4°C 79% Calm Calm -- 29.20 in988.8 mb 0.00 in0.0 mm 0.00 in0.0 mm 0.00 in0.0 mm
04:39 AM 79.5°F26.4°C 72.4°F22.4°C 79% Calm Calm -- 29.20 in988.8 mb 0.00 in0.0 mm 0.00 in0.0 mm 0.00 in0.0 mm
04:38 AM 79.5°F26.4°C 72.4°F22.4°C 79% Calm Calm -- 29.20 in988.8 mb 0.00 in0.0 mm 0.00 in0.0 mm 0.00 in0.0 mm
04:37 AM 79.5°F26.4°C 72.4°F22.4°C 79% Calm Calm -- 29.20 in988.8 mb 0.00 in0.0 mm 0.00 in0.0 mm 0.00 in0.0 mm
04:36 AM 79.5°F26.4°C 72.4°F22.4°C 79% Calm Calm -- 29.20 in988.8 mb 0.00 in0.0 mm 0.00 in0.0 mm 0.00 in0.0 mm
04:35 AM 79.7°F26.5°C 72.2°F22.3°C 78% Calm Calm -- 29.20 in988.8 mb 0.00 in0.0 mm 0.00 in0.0 mm 0.00 in0.0 mm
04:34 AM 79.7°F26.5°C 72.2°F22.3°C 78% Calm Calm -- 29.20 in988.8 mb 0.00 in0.0 mm 0.00 in0.0 mm 0.00 in0.0 mm
04:33 AM 79.7°F26.5°C 72.2°F22.3°C 78% Calm Calm -- 29.20 in988.8 mb 0.00 in0.0 mm 0.00 in0.0 mm 0.00 in0.0 mm
04:32 AM 79.7°F26.5°C 72.2°F22.3°C 78% Calm Calm -- 29.20 in988.8 mb 0.00 in0.0 mm 0.00 in0.0 mm 0.00 in0.0 mm
04:31 AM 79.7°F26.5°C 72.2°F22.3°C 78% Calm Calm -- 29.20 in988.8 mb 0.00 in0.0 mm 0.00 in0.0 mm 0.00 in0.0 mm
04:30 AM 79.7°F26.5°C 72.2°F22.3°C 78% Calm Calm -- 29.20 in988.8 mb 0.00 in0.0 mm 0.00 in0.0 mm 0.00 in0.0 mm
04:29 AM 79.7°F26.5°C 72.2°F22.3°C 78% Calm Calm -- 29.20 in988.8 mb 0.00 in0.0 mm 0.00 in0.0 mm 0.00 in0.0 mm
04:28 AM 79.9°F26.6°C 72.4°F22.4°C 78% Calm Calm -- 29.20 in988.8 mb 0.00 in0.0 mm 0.00 in0.0 mm 0.00 in0.0 mm
04:27 AM 79.9°F26.6°C 72.4°F22.4°C 78% Calm Calm -- 29.20 in988.8 mb 0.00 in0.0 mm 0.00 in0.0 mm 0.00 in0.0 mm
04:26 AM 79.9°F26.6°C 72.4°F22.4°C 78% Calm Calm -- 29.20 in988.8 mb 0.00 in0.0 mm 0.00 in0.0 mm 0.00 in0.0 mm
04:25 AM 79.9°F26.6°C 72.4°F22.4°C 78% Calm Calm -- 29.20 in988.8 mb 0.00 in0.0 mm 0.00 in0.0 mm 0.00 in0.0 mm
04:24 AM 79.9°F26.6°C 72.4°F22.4°C 78% Calm Calm -- 29.20 in988.8 mb 0.00 in0.0 mm 0.00 in0.0 mm 0.00 in0.0 mm
04:23 AM 79.9°F26.6°C 72.4°F22.4°C 78% Calm Calm -- 29.20 in988.8 mb 0.00 in0.0 mm 0.00 in0.0 mm 0.00 in0.0 mm
04:22 AM 79.9°F26.6°C 72.4°F22.4°C 78% Calm Calm -- 29.20 in988.8 mb 0.00 in0.0 mm 0.00 in0.0 mm 0.00 in0.0 mm
04:21 AM 79.9°F26.6°C 72.4°F22.4°C 78% Calm Calm -- 29.20 in988.8 mb 0.00 in0.0 mm 0.00 in0.0 mm 0.00 in0.0 mm
04:20 AM 79.9°F26.6°C 72.4°F22.4°C 78% Calm Calm -- 29.20 in988.8 mb 0.00 in0.0 mm 0.00 in0.0 mm 0.00 in0.0 mm
04:19 AM 80.1°F26.7°C 72.6°F22.6°C 78% Calm Calm -- 29.20 in988.8 mb 0.00 in0.0 mm 0.00 in0.0 mm 0.00 in0.0 mm
04:18 AM 80.1°F26.7°C 72.6°F22.6°C 78% Calm Calm -- 29.20 in988.8 mb 0.00 in0.0 mm 0.00 in0.0 mm 0.00 in0.0 mm
04:17 AM 80.1°F26.7°C 72.6°F22.6°C 78% Calm Calm -- 29.20 in988.8 mb 0.00 in0.0 mm 0.00 in0.0 mm 0.00 in0.0 mm
04:16 AM 80.1°F26.7°C 72.6°F22.6°C 78% Calm Calm -- 29.20 in988.8 mb 0.00 in0.0 mm 0.00 in0.0 mm 0.00 in0.0 mm
04:15 AM 80.1°F26.7°C 72.6°F22.6°C 78% Calm Calm -- 29.20 in988.8 mb 0.00 in0.0 mm 0.00 in0.0 mm 0.00 in0.0 mm
04:14 AM 80.1°F26.7°C 72.2°F22.3°C 77% Calm Calm -- 29.20 in988.8 mb 0.00 in0.0 mm 0.00 in0.0 mm 0.00 in0.0 mm
04:13 AM 80.1°F26.7°C 72.2°F22.3°C 77% Calm Calm -- 29.20 in988.8 mb 0.00 in0.0 mm 0.00 in0.0 mm 0.00 in0.0 mm
04:12 AM 80.1°F26.7°C 72.2°F22.3°C 77% Calm Calm -- 29.20 in988.8 mb 0.00 in0.0 mm 0.00 in0.0 mm 0.00 in0.0 mm
04:11 AM 80.1°F26.7°C 72.2°F22.3°C 77% Calm Calm -- 29.20 in988.8 mb 0.00 in0.0 mm 0.00 in0.0 mm 0.00 in0.0 mm
04:10 AM 80.2°F26.8°C 72.3°F22.4°C 77% Calm Calm -- 29.20 in988.8 mb 0.00 in0.0 mm 0.00 in0.0 mm 0.00 in0.0 mm
04:09 AM 80.2°F26.8°C 72.3°F22.4°C 77% Calm Calm -- 29.20 in988.8 mb 0.00 in0.0 mm 0.00 in0.0 mm 0.00 in0.0 mm
04:08 AM 80.2°F26.8°C 72.3°F22.4°C 77% Calm Calm -- 29.20 in988.8 mb 0.00 in0.0 mm 0.00 in0.0 mm 0.00 in0.0 mm
04:07 AM 80.2°F26.8°C 72.3°F22.4°C 77% Calm Calm -- 29.20 in988.8 mb 0.00 in0.0 mm 0.00 in0.0 mm 0.00 in0.0 mm
04:06 AM 80.2°F26.8°C 72.3°F22.4°C 77% Calm Calm -- 29.20 in988.8 mb 0.00 in0.0 mm 0.00 in0.0 mm 0.00 in0.0 mm
04:05 AM 80.2°F26.8°C 72.3°F22.4°C 77% Calm Calm -- 29.20 in988.8 mb 0.00 in0.0 mm 0.00 in0.0 mm 0.00 in0.0 mm
04:04 AM 80.2°F26.8°C 72.3°F22.4°C 77% Calm Calm -- 29.20 in988.8 mb 0.00 in0.0 mm 0.00 in0.0 mm 0.00 in0.0 mm
04:03 AM 80.2°F26.8°C 72.3°F22.4°C 77% Calm Calm 1.1 mph1.8 kmh 29.20 in988.8 mb 0.00 in0.0 mm 0.00 in0.0 mm 0.00 in0.0 mm
04:02 AM 80.2°F26.8°C 72.3°F22.4°C 77% Calm Calm 3.2 mph5.1 kmh 29.20 in988.8 mb 0.00 in0.0 mm 0.00 in0.0 mm 0.00 in0.0 mm
04:01 AM 80.2°F26.8°C 72.3°F22.4°C 77% Calm Calm 3.2 mph5.1 kmh 29.20 in988.8 mb 0.00 in0.0 mm 0.00 in0.0 mm 0.00 in0.0 mm
04:00 AM 80.2°F26.8°C 72.3°F22.4°C 77% Calm Calm 3.2 mph5.1 kmh 29.20 in988.8 mb 0.00 in0.0 mm 0.00 in0.0 mm 0.00 in0.0 mm
03:59 AM 80.2°F26.8°C 72.3°F22.4°C 77% Calm Calm 3.2 mph5.1 kmh 29.20 in988.8 mb 0.00 in0.0 mm 0.00 in0.0 mm 0.00 in0.0 mm
03:58 AM 80.2°F26.8°C 72.3°F22.4°C 77% Calm Calm 3.2 mph5.1 kmh 29.20 in988.8 mb 0.00 in0.0 mm 0.00 in0.0 mm 0.00 in0.0 mm
03:57 AM 80.2°F26.8°C 72.3°F22.4°C 77% Calm Calm 3.2 mph5.1 kmh 29.20 in988.8 mb 0.00 in0.0 mm 0.00 in0.0 mm 0.00 in0.0 mm
03:56 AM 80.2°F26.8°C 72.3°F22.4°C 77% Calm Calm 3.2 mph5.1 kmh 29.20 in988.8 mb 0.00 in0.0 mm 0.00 in0.0 mm 0.00 in0.0 mm
03:55 AM 80.2°F26.8°C 72.3°F22.4°C 77% Calm Calm 3.2 mph5.1 kmh 29.20 in988.8 mb 0.00 in0.0 mm 0.00 in0.0 mm 0.00 in0.0 mm
03:54 AM 80.4°F26.9°C 72.5°F22.5°C 77% Calm Calm 3.2 mph5.1 kmh 29.20 in988.8 mb 0.00 in0.0 mm 0.00 in0.0 mm 0.00 in0.0 mm
03:53 AM 80.4°F26.9°C 72.5°F22.5°C 77% 1.1 mph SSW1.8 kmh SSW 3.2 mph5.1 kmh 29.20 in988.8 mb 0.00 in0.0 mm 0.00 in0.0 mm 0.00 in0.0 mm
03:52 AM 80.4°F26.9°C 72.5°F22.5°C 77% 1.7 mph SSW2.7 kmh SSW 1.7 mph2.7 kmh 29.20 in988.8 mb 0.00 in0.0 mm 0.00 in0.0 mm 0.00 in0.0 mm
03:51 AM 80.4°F26.9°C 72.1°F22.3°C 76% Calm Calm 1.7 mph2.7 kmh 29.20 in988.8 mb 0.00 in0.0 mm 0.00 in0.0 mm 0.00 in0.0 mm
03:50 AM 80.4°F26.9°C 72.1°F22.3°C 76% 1.1 mph SSW1.8 kmh SSW 1.7 mph2.7 kmh 29.20 in988.8 mb 0.00 in0.0 mm 0.00 in0.0 mm 0.00 in0.0 mm
03:49 AM 80.4°F26.9°C 72.1°F22.3°C 76% Calm Calm 1.7 mph2.7 kmh 29.20 in988.8 mb 0.00 in0.0 mm 0.00 in0.0 mm 0.00 in0.0 mm
03:48 AM 80.6°F27.0°C 72.3°F22.4°C 76% Calm Calm 1.7 mph2.7 kmh 29.20 in988.8 mb 0.00 in0.0 mm 0.00 in0.0 mm 0.00 in0.0 mm
03:47 AM 80.6°F27.0°C 72.3°F22.4°C 76% Calm Calm 2.2 mph3.5 kmh 29.20 in988.8 mb 0.00 in0.0 mm 0.00 in0.0 mm 0.00 in0.0 mm
03:46 AM 80.6°F27.0°C 72.3°F22.4°C 76% Calm Calm 2.2 mph3.5 kmh 29.20 in988.8 mb 0.00 in0.0 mm 0.00 in0.0 mm 0.00 in0.0 mm
03:45 AM 80.6°F27.0°C 72.3°F22.4°C 76% Calm Calm 2.2 mph3.5 kmh 29.20 in988.8 mb 0.00 in0.0 mm 0.00 in0.0 mm 0.00 in0.0 mm
03:44 AM 80.6°F27.0°C 72.3°F22.4°C 76% Calm Calm 2.2 mph3.5 kmh 29.20 in988.8 mb 0.00 in0.0 mm 0.00 in0.0 mm 0.00 in0.0 mm
03:43 AM 80.6°F27.0°C 72.3°F22.4°C 76% Calm Calm 2.2 mph3.5 kmh 29.20 in988.8 mb 0.00 in0.0 mm 0.00 in0.0 mm 0.00 in0.0 mm
03:42 AM 80.8°F27.1°C 72.5°F22.5°C 76% Calm Calm 2.2 mph3.5 kmh 29.20 in988.8 mb 0.00 in0.0 mm 0.00 in0.0 mm 0.00 in0.0 mm
03:41 AM 80.8°F27.1°C 72.5°F22.5°C 76% Calm Calm 2.2 mph3.5 kmh 29.20 in988.8 mb 0.00 in0.0 mm 0.00 in0.0 mm 0.00 in0.0 mm
03:40 AM 80.8°F27.1°C 72.5°F22.5°C 76% 1.1 mph SSW1.8 kmh SSW 2.2 mph3.5 kmh 29.20 in988.8 mb 0.00 in0.0 mm 0.00 in0.0 mm 0.00 in0.0 mm
03:39 AM 80.8°F27.1°C 72.5°F22.5°C 76% 1.7 mph SSW2.7 kmh SSW 2.2 mph3.5 kmh 29.21 in989.2 mb 0.00 in0.0 mm 0.00 in0.0 mm 0.00 in0.0 mm
03:38 AM 80.8°F27.1°C 72.5°F22.5°C 76% 2.2 mph S3.5 kmh S 2.2 mph3.5 kmh 29.21 in989.2 mb 0.00 in0.0 mm 0.00 in0.0 mm 0.00 in0.0 mm
03:37 AM 80.8°F27.1°C 72.5°F22.5°C 76% Calm Calm 2.2 mph3.5 kmh 29.21 in989.2 mb 0.00 in0.0 mm 0.00 in0.0 mm 0.00 in0.0 mm
03:36 AM 81.0°F27.2°C 72.7°F22.6°C 76% Calm Calm 2.2 mph3.5 kmh 29.21 in989.2 mb 0.00 in0.0 mm 0.00 in0.0 mm 0.00 in0.0 mm
03:35 AM 81.0°F27.2°C 72.3°F22.4°C 75% Calm Calm 2.2 mph3.5 kmh 29.21 in989.2 mb 0.00 in0.0 mm 0.00 in0.0 mm 0.00 in0.0 mm
03:34 AM 81.0°F27.2°C 72.3°F22.4°C 75% 1.1 mph SSW1.8 kmh SSW 2.2 mph3.5 kmh 29.21 in989.2 mb 0.00 in0.0 mm 0.00 in0.0 mm 0.00 in0.0 mm
03:33 AM 81.0°F27.2°C 72.3°F22.4°C 75% 1.1 mph SW1.8 kmh SW 2.2 mph3.5 kmh 29.21 in989.2 mb 0.00 in0.0 mm 0.00 in0.0 mm 0.00 in0.0 mm
03:32 AM 81.0°F27.2°C 72.3°F22.4°C 75% Calm Calm 2.2 mph3.5 kmh 29.21 in989.2 mb 0.00 in0.0 mm 0.00 in0.0 mm 0.00 in0.0 mm
03:31 AM 81.0°F27.2°C 72.3°F22.4°C 75% Calm Calm 2.2 mph3.5 kmh 29.21 in989.2 mb 0.00 in0.0 mm 0.00 in0.0 mm 0.00 in0.0 mm
03:30 AM 81.0°F27.2°C 72.3°F22.4°C 75% Calm Calm 2.2 mph3.5 kmh 29.21 in989.2 mb 0.00 in0.0 mm 0.00 in0.0 mm 0.00 in0.0 mm
03:29 AM 81.0°F27.2°C 72.3°F22.4°C 75% Calm Calm 2.2 mph3.5 kmh 29.21 in989.2 mb 0.00 in0.0 mm 0.00 in0.0 mm 0.00 in0.0 mm
03:28 AM 81.0°F27.2°C 72.3°F22.4°C 75% Calm Calm 2.2 mph3.5 kmh 29.21 in989.2 mb 0.00 in0.0 mm 0.00 in0.0 mm 0.00 in0.0 mm
03:27 AM 81.1°F27.3°C 72.4°F22.4°C 75% Calm Calm 2.2 mph3.5 kmh 29.21 in989.2 mb 0.00 in0.0 mm 0.00 in0.0 mm 0.00 in0.0 mm
03:26 AM 81.1°F27.3°C 72.4°F22.4°C 75% 1.1 mph SSW1.8 kmh SSW 3.2 mph5.1 kmh 29.21 in989.2 mb 0.00 in0.0 mm 0.00 in0.0 mm 0.00 in0.0 mm
03:25 AM 81.1°F27.3°C 72.4°F22.4°C 75% Calm Calm 3.2 mph5.1 kmh 29.21 in989.2 mb 0.00 in0.0 mm 0.00 in0.0 mm 0.00 in0.0 mm
03:24 AM 81.1°F27.3°C 72.4°F22.4°C 75% Calm Calm 3.2 mph5.1 kmh 29.21 in989.2 mb 0.00 in0.0 mm 0.00 in0.0 mm 0.00 in0.0 mm
03:23 AM 81.3°F27.4°C 72.6°F22.6°C 75% Calm Calm 3.2 mph5.1 kmh 29.21 in989.2 mb 0.00 in0.0 mm 0.00 in0.0 mm 0.00 in0.0 mm
03:22 AM 81.3°F27.4°C 72.6°F22.6°C 75% Calm Calm 3.2 mph5.1 kmh 29.21 in989.2 mb 0.00 in0.0 mm 0.00 in0.0 mm 0.00 in0.0 mm
03:21 AM 81.3°F27.4°C 72.6°F22.6°C 75% Calm Calm 3.2 mph5.1 kmh 29.21 in989.2 mb 0.00 in0.0 mm 0.00 in0.0 mm 0.00 in0.0 mm
03:20 AM 81.3°F27.4°C 72.6°F22.6°C 75% Calm Calm 3.2 mph5.1 kmh 29.21 in989.2 mb 0.00 in0.0 mm 0.00 in0.0 mm 0.00 in0.0 mm
03:19 AM 81.5°F27.5°C 72.8°F22.7°C 75% Calm Calm 3.2 mph5.1 kmh 29.21 in989.2 mb 0.00 in0.0 mm 0.00 in0.0 mm 0.00 in0.0 mm
03:18 AM 81.5°F27.5°C 72.8°F22.7°C 75% Calm Calm 3.2 mph5.1 kmh 29.21 in989.2 mb 0.00 in0.0 mm 0.00 in0.0 mm 0.00 in0.0 mm
03:17 AM 81.5°F27.5°C 72.8°F22.7°C 75% Calm Calm 3.2 mph5.1 kmh 29.21 in989.2 mb 0.00 in0.0 mm 0.00 in0.0 mm 0.00 in0.0 mm
03:16 AM 81.5°F27.5°C 72.8°F22.7°C 75% 3.2 mph NE5.1 kmh NE 3.2 mph5.1 kmh 29.21 in989.2 mb 0.00 in0.0 mm 0.00 in0.0 mm 0.00 in0.0 mm
03:15 AM 81.5°F27.5°C 72.8°F22.7°C 75% Calm Calm 1.7 mph2.7 kmh 29.21 in989.2 mb 0.00 in0.0 mm 0.00 in0.0 mm 0.00 in0.0 mm
03:14 AM 81.5°F27.5°C 72.8°F22.7°C 75% Calm Calm 1.7 mph2.7 kmh 29.21 in989.2 mb 0.00 in0.0 mm 0.00 in0.0 mm 0.00 in0.0 mm
03:13 AM 81.5°F27.5°C 72.8°F22.7°C 75% Calm Calm 1.7 mph2.7 kmh 29.21 in989.2 mb 0.00 in0.0 mm 0.00 in0.0 mm 0.00 in0.0 mm
03:12 AM 81.5°F27.5°C 72.8°F22.7°C 75% Calm Calm 1.7 mph2.7 kmh 29.21 in989.2 mb 0.00 in0.0 mm 0.00 in0.0 mm 0.00 in0.0 mm
03:11 AM 81.5°F27.5°C 72.8°F22.7°C 75% Calm Calm 1.7 mph2.7 kmh 29.21 in989.2 mb 0.00 in0.0 mm 0.00 in0.0 mm 0.00 in0.0 mm
03:10 AM 81.5°F27.5°C 72.8°F22.7°C 75% Calm Calm 2.2 mph3.5 kmh 29.21 in989.2 mb 0.00 in0.0 mm 0.00 in0.0 mm 0.00 in0.0 mm
03:09 AM 81.7°F27.6°C 73.0°F22.8°C 75% Calm Calm 2.2 mph3.5 kmh 29.21 in989.2 mb 0.00 in0.0 mm 0.00 in0.0 mm 0.00 in0.0 mm
03:08 AM 81.7°F27.6°C 73.0°F22.8°C 75% Calm Calm 2.2 mph3.5 kmh 29.21 in989.2 mb 0.00 in0.0 mm 0.00 in0.0 mm 0.00 in0.0 mm
03:07 AM 81.7°F27.6°C 73.0°F22.8°C 75% Calm Calm 2.2 mph3.5 kmh 29.21 in989.2 mb 0.00 in0.0 mm 0.00 in0.0 mm 0.00 in0.0 mm
03:06 AM 81.7°F27.6°C 72.6°F22.6°C 74% Calm Calm 2.2 mph3.5 kmh 29.21 in989.2 mb 0.00 in0.0 mm 0.00 in0.0 mm 0.00 in0.0 mm
03:05 AM 81.7°F27.6°C 72.6°F22.6°C 74% Calm Calm 2.2 mph3.5 kmh 29.21 in989.2 mb 0.00 in0.0 mm 0.00 in0.0 mm 0.00 in0.0 mm
03:04 AM 81.7°F27.6°C 72.6°F22.6°C 74% Calm Calm 2.2 mph3.5 kmh 29.21 in989.2 mb 0.00 in0.0 mm 0.00 in0.0 mm 0.00 in0.0 mm
03:03 AM 81.7°F27.6°C 72.6°F22.6°C 74% Calm Calm 2.2 mph3.5 kmh 29.21 in989.2 mb 0.00 in0.0 mm 0.00 in0.0 mm 0.00 in0.0 mm
03:02 AM 81.9°F27.7°C 72.8°F22.7°C 74% Calm Calm 2.2 mph3.5 kmh 29.21 in989.2 mb 0.00 in0.0 mm 0.00 in0.0 mm 0.00 in0.0 mm
03:01 AM 81.9°F27.7°C 72.8°F22.7°C 74% 1.7 mph SSW2.7 kmh SSW 2.7 mph4.3 kmh 29.21 in989.2 mb 0.00 in0.0 mm 0.00 in0.0 mm 0.00 in0.0 mm
03:00 AM 81.9°F27.7°C 72.8°F22.7°C 74% Calm Calm 2.7 mph4.3 kmh 29.21 in989.2 mb 0.00 in0.0 mm 0.00 in0.0 mm 0.00 in0.0 mm
02:59 AM 81.9°F27.7°C 72.8°F22.7°C 74% Calm Calm 2.7 mph4.3 kmh 29.21 in989.2 mb 0.00 in0.0 mm 0.00 in0.0 mm 0.00 in0.0 mm
02:58 AM 81.9°F27.7°C 72.8°F22.7°C 74% Calm Calm 2.7 mph4.3 kmh 29.21 in989.2 mb 0.00 in0.0 mm 0.00 in0.0 mm 0.00 in0.0 mm
02:57 AM 81.9°F27.7°C 72.8°F22.7°C 74% 2.2 mph SSW3.5 kmh SSW 2.7 mph4.3 kmh 29.21 in989.2 mb 0.00 in0.0 mm 0.00 in0.0 mm 0.00 in0.0 mm
02:56 AM 81.9°F27.7°C 72.4°F22.4°C 73% 1.7 mph W2.7 kmh W 2.7 mph4.3 kmh 29.21 in989.2 mb 0.00 in0.0 mm 0.00 in0.0 mm 0.00 in0.0 mm
02:55 AM 81.9°F27.7°C 72.4°F22.4°C 73% Calm Calm 3.7 mph6.0 kmh 29.21 in989.2 mb 0.00 in0.0 mm 0.00 in0.0 mm 0.00 in0.0 mm
02:54 AM 81.9°F27.7°C 72.4°F22.4°C 73% Calm Calm 3.7 mph6.0 kmh 29.21 in989.2 mb 0.00 in0.0 mm 0.00 in0.0 mm 0.00 in0.0 mm
02:53 AM 81.9°F27.7°C 72.4°F22.4°C 73% Calm Calm 3.7 mph6.0 kmh 29.21 in989.2 mb 0.00 in0.0 mm 0.00 in0.0 mm 0.00 in0.0 mm
02:52 AM 81.9°F27.7°C 72.4°F22.4°C 73% Calm Calm 3.7 mph6.0 kmh 29.21 in989.2 mb 0.00 in0.0 mm 0.00 in0.0 mm 0.00 in0.0 mm
02:51 AM 81.9°F27.7°C 72.4°F22.4°C 73% 2.7 mph SSW4.3 kmh SSW 3.7 mph6.0 kmh 29.20 in988.8 mb 0.00 in0.0 mm 0.00 in0.0 mm 0.00 in0.0 mm
02:50 AM 82.0°F27.8°C 72.5°F22.5°C 73% Calm Calm 3.7 mph6.0 kmh 29.20 in988.8 mb 0.00 in0.0 mm 0.00 in0.0 mm 0.00 in0.0 mm
02:49 AM 82.0°F27.8°C 72.5°F22.5°C 73% 1.7 mph SSW2.7 kmh SSW 3.7 mph6.0 kmh 29.20 in988.8 mb 0.00 in0.0 mm 0.00 in0.0 mm 0.00 in0.0 mm
02:48 AM 82.0°F27.8°C 72.5°F22.5°C 73% 1.7 mph S2.7 kmh S 3.7 mph6.0 kmh 29.20 in988.8 mb 0.00 in0.0 mm 0.00 in0.0 mm 0.00 in0.0 mm
02:47 AM 82.0°F27.8°C 72.5°F22.5°C 73% 2.2 mph SW3.5 kmh SW 3.7 mph6.0 kmh 29.20 in988.8 mb 0.00 in0.0 mm 0.00 in0.0 mm 0.00 in0.0 mm
02:46 AM 82.0°F27.8°C 72.5°F22.5°C 73% 1.7 mph SSW2.7 kmh SSW 3.7 mph6.0 kmh 29.20 in988.8 mb 0.00 in0.0 mm 0.00 in0.0 mm 0.00 in0.0 mm
02:45 AM 82.0°F27.8°C 72.5°F22.5°C 73% 2.7 mph SW4.3 kmh SW 2.7 mph4.3 kmh 29.20 in988.8 mb 0.00 in0.0 mm 0.00 in0.0 mm 0.00 in0.0 mm
02:44 AM 82.2°F27.9°C 72.7°F22.6°C 73% Calm Calm 2.2 mph3.5 kmh 29.20 in988.8 mb 0.00 in0.0 mm 0.00 in0.0 mm 0.00 in0.0 mm
02:43 AM 82.2°F27.9°C 72.7°F22.6°C 73% Calm Calm 2.2 mph3.5 kmh 29.20 in988.8 mb 0.00 in0.0 mm 0.00 in0.0 mm 0.00 in0.0 mm
02:42 AM 82.2°F27.9°C 72.7°F22.6°C 73% Calm Calm 2.2 mph3.5 kmh 29.20 in988.8 mb 0.00 in0.0 mm 0.00 in0.0 mm 0.00 in0.0 mm
02:41 AM 82.2°F27.9°C 72.7°F22.6°C 73% Calm Calm 2.2 mph3.5 kmh 29.20 in988.8 mb 0.00 in0.0 mm 0.00 in0.0 mm 0.00 in0.0 mm
02:40 AM 82.2°F27.9°C 72.7°F22.6°C 73% Calm Calm 2.2 mph3.5 kmh 29.20 in988.8 mb 0.00 in0.0 mm 0.00 in0.0 mm 0.00 in0.0 mm
02:39 AM 82.4°F28.0°C 72.4°F22.4°C 72% Calm Calm 2.2 mph3.5 kmh 29.20 in988.8 mb 0.00 in0.0 mm 0.00 in0.0 mm 0.00 in0.0 mm
02:38 AM 82.4°F28.0°C 72.4°F22.4°C 72% Calm Calm 2.2 mph3.5 kmh 29.20 in988.8 mb 0.00 in0.0 mm 0.00 in0.0 mm 0.00 in0.0 mm
02:37 AM 82.4°F28.0°C 72.4°F22.4°C 72% Calm Calm 3.7 mph6.0 kmh 29.20 in988.8 mb 0.00 in0.0 mm 0.00 in0.0 mm 0.00 in0.0 mm
02:36 AM 82.4°F28.0°C 72.4°F22.4°C 72% 1.7 mph S2.7 kmh S 3.7 mph6.0 kmh 29.20 in988.8 mb 0.00 in0.0 mm 0.00 in0.0 mm 0.00 in0.0 mm
02:35 AM 82.6°F28.1°C 72.6°F22.6°C 72% 1.7 mph SSW2.7 kmh SSW 3.7 mph6.0 kmh 29.20 in988.8 mb 0.00 in0.0 mm 0.00 in0.0 mm 0.00 in0.0 mm
02:34 AM 82.6°F28.1°C 72.6°F22.6°C 72% Calm Calm 3.7 mph6.0 kmh 29.20 in988.8 mb 0.00 in0.0 mm 0.00 in0.0 mm 0.00 in0.0 mm
02:33 AM 82.6°F28.1°C 72.6°F22.6°C 72% Calm Calm 3.7 mph6.0 kmh 29.20 in988.8 mb 0.00 in0.0 mm 0.00 in0.0 mm 0.00 in0.0 mm
02:32 AM 82.4°F28.0°C 72.4°F22.4°C 72% Calm Calm 3.7 mph6.0 kmh 29.20 in988.8 mb 0.00 in0.0 mm 0.00 in0.0 mm 0.00 in0.0 mm
02:31 AM 82.4°F28.0°C 72.4°F22.4°C 72% Calm Calm 3.7 mph6.0 kmh 29.20 in988.8 mb 0.00 in0.0 mm 0.00 in0.0 mm 0.00 in0.0 mm
02:30 AM 82.4°F28.0°C 72.4°F22.4°C 72% Calm Calm 3.7 mph6.0 kmh 29.20 in988.8 mb 0.00 in0.0 mm 0.00 in0.0 mm 0.00 in0.0 mm
02:29 AM 82.4°F28.0°C 72.4°F22.4°C 72% 1.7 mph WSW2.7 kmh WSW 3.7 mph6.0 kmh 29.20 in988.8 mb 0.00 in0.0 mm 0.00 in0.0 mm 0.00 in0.0 mm
02:28 AM 82.4°F28.0°C 72.4°F22.4°C 72% 1.7 mph S2.7 kmh S 3.7 mph6.0 kmh 29.20 in988.8 mb 0.00 in0.0 mm 0.00 in0.0 mm 0.00 in0.0 mm
02:27 AM 82.4°F28.0°C 72.4°F22.4°C 72% 1.1 mph SSW1.8 kmh SSW 2.2 mph3.5 kmh 29.21 in989.2 mb 0.00 in0.0 mm 0.00 in0.0 mm 0.00 in0.0 mm
02:26 AM 82.4°F28.0°C 72.4°F22.4°C 72% Calm Calm 3.7 mph6.0 kmh 29.21 in989.2 mb 0.00 in0.0 mm 0.00 in0.0 mm 0.00 in0.0 mm
02:25 AM 82.4°F28.0°C 72.4°F22.4°C 72% Calm Calm 3.7 mph6.0 kmh 29.21 in989.2 mb 0.00 in0.0 mm 0.00 in0.0 mm 0.00 in0.0 mm
02:24 AM 82.6°F28.1°C 72.6°F22.6°C 72% 1.1 mph SSW1.8 kmh SSW 3.7 mph6.0 kmh 29.21 in989.2 mb 0.00 in0.0 mm 0.00 in0.0 mm 0.00 in0.0 mm
02:23 AM 82.6°F28.1°C 72.6°F22.6°C 72% 1.7 mph SSW2.7 kmh SSW 3.7 mph6.0 kmh 29.21 in989.2 mb 0.00 in0.0 mm 0.00 in0.0 mm 0.00 in0.0 mm
02:22 AM 82.6°F28.1°C 72.6°F22.6°C 72% Calm Calm 3.7 mph6.0 kmh 29.21 in989.2 mb 0.00 in0.0 mm 0.00 in0.0 mm 0.00 in0.0 mm
02:21 AM 82.6°F28.1°C 72.6°F22.6°C 72% 1.7 mph S2.7 kmh S 3.7 mph6.0 kmh 29.21 in989.2 mb 0.00 in0.0 mm 0.00 in0.0 mm 0.00 in0.0 mm
02:20 AM 82.6°F28.1°C 72.6°F22.6°C 72% 1.7 mph S2.7 kmh S 3.7 mph6.0 kmh 29.21 in989.2 mb 0.00 in0.0 mm 0.00 in0.0 mm 0.00 in0.0 mm
02:19 AM 82.8°F28.2°C 72.4°F22.4°C 71% 1.1 mph NE1.8 kmh NE 3.7 mph6.0 kmh 29.21 in989.2 mb 0.00 in0.0 mm 0.00 in0.0 mm 0.00 in0.0 mm
02:18 AM 82.8°F28.2°C 72.4°F22.4°C 71% Calm Calm 3.7 mph6.0 kmh 29.21 in989.2 mb 0.00 in0.0 mm 0.00 in0.0 mm 0.00 in0.0 mm
02:17 AM 82.8°F28.2°C 72.4°F22.4°C 71% 1.7 mph NNE2.7 kmh NNE 3.7 mph6.0 kmh 29.21 in989.2 mb 0.00 in0.0 mm 0.00 in0.0 mm 0.00 in0.0 mm
02:16 AM 82.8°F28.2°C 72.4°F22.4°C 71% Calm Calm 2.7 mph4.3 kmh 29.21 in989.2 mb 0.00 in0.0 mm 0.00 in0.0 mm 0.00 in0.0 mm
02:15 AM 82.8°F28.2°C 72.4°F22.4°C 71% Calm Calm 2.7 mph4.3 kmh 29.21 in989.2 mb 0.00 in0.0 mm 0.00 in0.0 mm 0.00 in0.0 mm
02:14 AM 82.8°F28.2°C 72.4°F22.4°C 71% Calm Calm 2.7 mph4.3 kmh 29.21 in989.2 mb 0.00 in0.0 mm 0.00 in0.0 mm 0.00 in0.0 mm
02:13 AM 82.8°F28.2°C 72.4°F22.4°C 71% 1.7 mph W2.7 kmh W 2.7 mph4.3 kmh 29.21 in989.2 mb 0.00 in0.0 mm 0.00 in0.0 mm 0.00 in0.0 mm
02:12 AM 82.9°F28.3°C 72.5°F22.5°C 71% 2.2 mph SSW3.5 kmh SSW 2.2 mph3.5 kmh 29.21 in989.2 mb 0.00 in0.0 mm 0.00 in0.0 mm 0.00 in0.0 mm
02:11 AM 82.9°F28.3°C 72.5°F22.5°C 71% Calm Calm -- 29.21 in989.2 mb 0.00 in0.0 mm 0.00 in0.0 mm 0.00 in0.0 mm
02:10 AM 82.9°F28.3°C 72.5°F22.5°C 71% Calm Calm -- 29.21 in989.2 mb 0.00 in0.0 mm 0.00 in0.0 mm 0.00 in0.0 mm
02:09 AM 82.9°F28.3°C 72.5°F22.5°C 71% Calm Calm -- 29.21 in989.2 mb 0.00 in0.0 mm 0.00 in0.0 mm 0.00 in0.0 mm
02:08 AM 82.9°F28.3°C 72.5°F22.5°C 71% Calm Calm -- 29.21 in989.2 mb 0.00 in0.0 mm 0.00 in0.0 mm 0.00 in0.0 mm
02:07 AM 82.9°F28.3°C 72.5°F22.5°C 71% Calm Calm -- 29.21 in989.2 mb 0.00 in0.0 mm 0.00 in0.0 mm 0.00 in0.0 mm
02:06 AM 82.9°F28.3°C 72.5°F22.5°C 71% Calm Calm -- 29.21 in989.2 mb 0.00 in0.0 mm 0.00 in0.0 mm 0.00 in0.0 mm
02:05 AM 83.1°F28.4°C 72.7°F22.6°C 71% Calm Calm -- 29.21 in989.2 mb 0.00 in0.0 mm 0.00 in0.0 mm 0.00 in0.0 mm
02:04 AM 83.3°F28.5°C 72.9°F22.7°C 71% Calm Calm -- 29.22 in989.5 mb 0.00 in0.0 mm 0.00 in0.0 mm 0.00 in0.0 mm
02:03 AM 83.3°F28.5°C 72.9°F22.7°C 71% Calm Calm 1.1 mph1.8 kmh 29.22 in989.5 mb 0.00 in0.0 mm 0.00 in0.0 mm 0.00 in0.0 mm
02:02 AM 83.3°F28.5°C 72.9°F22.7°C 71% Calm Calm 2.2 mph3.5 kmh 29.22 in989.5 mb 0.00 in0.0 mm 0.00 in0.0 mm 0.00 in0.0 mm
02:01 AM 83.3°F28.5°C 72.9°F22.7°C 71% Calm Calm 2.2 mph3.5 kmh 29.22 in989.5 mb 0.00 in0.0 mm 0.00 in0.0 mm 0.00 in0.0 mm
02:00 AM 83.3°F28.5°C 72.9°F22.7°C 71% Calm Calm 2.2 mph3.5 kmh 29.22 in989.5 mb 0.00 in0.0 mm 0.00 in0.0 mm 0.00 in0.0 mm
01:59 AM 83.5°F28.6°C 73.1°F22.8°C 71% Calm Calm 2.2 mph3.5 kmh 29.22 in989.5 mb 0.00 in0.0 mm 0.00 in0.0 mm 0.00 in0.0 mm
01:58 AM 83.5°F28.6°C 73.1°F22.8°C 71% Calm Calm 2.7 mph4.3 kmh 29.22 in989.5 mb 0.00 in0.0 mm 0.00 in0.0 mm 0.00 in0.0 mm
01:57 AM 83.5°F28.6°C 73.1°F22.8°C 71% Calm Calm 4.2 mph6.8 kmh 29.22 in989.5 mb 0.00 in0.0 mm 0.00 in0.0 mm 0.00 in0.0 mm
01:56 AM 83.5°F28.6°C 73.1°F22.8°C 71% Calm Calm 4.2 mph6.8 kmh 29.22 in989.5 mb 0.00 in0.0 mm 0.00 in0.0 mm 0.00 in0.0 mm
01:55 AM 83.5°F28.6°C 73.1°F22.8°C 71% Calm Calm 4.2 mph6.8 kmh 29.22 in989.5 mb 0.00 in0.0 mm 0.00 in0.0 mm 0.00 in0.0 mm
01:54 AM 83.5°F28.6°C 73.1°F22.8°C 71% Calm Calm 4.2 mph6.8 kmh 29.22 in989.5 mb 0.00 in0.0 mm 0.00 in0.0 mm 0.00 in0.0 mm
01:53 AM 83.5°F28.6°C 73.1°F22.8°C 71% 1.1 mph S1.8 kmh S 4.7 mph7.6 kmh 29.22 in989.5 mb 0.00 in0.0 mm 0.00 in0.0 mm 0.00 in0.0 mm
01:52 AM 83.5°F28.6°C 73.1°F22.8°C 71% 1.1 mph SSE1.8 kmh SSE 4.7 mph7.6 kmh 29.22 in989.5 mb 0.00 in0.0 mm 0.00 in0.0 mm 0.00 in0.0 mm
01:51 AM 83.5°F28.6°C 73.1°F22.8°C 71% Calm Calm 4.7 mph7.6 kmh 29.22 in989.5 mb 0.00 in0.0 mm 0.00 in0.0 mm 0.00 in0.0 mm
01:50 AM 83.5°F28.6°C 73.1°F22.8°C 71% 1.1 mph SSW1.8 kmh SSW 4.7 mph7.6 kmh 29.22 in989.5 mb 0.00 in0.0 mm 0.00 in0.0 mm 0.00 in0.0 mm
01:49 AM 83.5°F28.6°C 73.1°F22.8°C 71% 2.2 mph SSW3.5 kmh SSW 4.7 mph7.6 kmh 29.22 in989.5 mb 0.00 in0.0 mm 0.00 in0.0 mm 0.00 in0.0 mm
01:48 AM 83.5°F28.6°C 73.1°F22.8°C 71% 4.2 mph WSW6.8 kmh WSW 4.7 mph7.6 kmh 29.22 in989.5 mb 0.00 in0.0 mm 0.00 in0.0 mm 0.00 in0.0 mm
01:47 AM 83.5°F28.6°C 73.1°F22.8°C 71% 2.2 mph NW3.5 kmh NW 4.7 mph7.6 kmh 29.22 in989.5 mb 0.00 in0.0 mm 0.00 in0.0 mm 0.00 in0.0 mm
01:46 AM 83.5°F28.6°C 73.1°F22.8°C 71% 3.2 mph SSW5.1 kmh SSW 4.7 mph7.6 kmh 29.22 in989.5 mb 0.00 in0.0 mm 0.00 in0.0 mm 0.00 in0.0 mm
01:45 AM 83.5°F28.6°C 73.1°F22.8°C 71% 4.2 mph ESE6.8 kmh ESE 4.7 mph7.6 kmh 29.22 in989.5 mb 0.00 in0.0 mm 0.00 in0.0 mm 0.00 in0.0 mm
01:44 AM 83.5°F28.6°C 73.1°F22.8°C 71% 2.7 mph SSW4.3 kmh SSW 4.7 mph7.6 kmh 29.22 in989.5 mb 0.00 in0.0 mm 0.00 in0.0 mm 0.00 in0.0 mm
01:43 AM 83.5°F28.6°C 73.1°F22.8°C 71% 4.7 mph SSW7.6 kmh SSW 4.7 mph7.6 kmh 29.22 in989.5 mb 0.00 in0.0 mm 0.00 in0.0 mm 0.00 in0.0 mm
01:42 AM 83.5°F28.6°C 73.1°F22.8°C 71% Calm Calm 3.7 mph6.0 kmh 29.22 in989.5 mb 0.00 in0.0 mm 0.00 in0.0 mm 0.00 in0.0 mm
01:41 AM 83.5°F28.6°C 73.1°F22.8°C 71% 2.2 mph SSW3.5 kmh SSW 3.7 mph6.0 kmh 29.22 in989.5 mb 0.00 in0.0 mm 0.00 in0.0 mm 0.00 in0.0 mm
01:40 AM 83.7°F28.7°C 73.3°F22.9°C 71% 2.2 mph SSW3.5 kmh SSW 3.7 mph6.0 kmh 29.22 in989.5 mb 0.00 in0.0 mm 0.00 in0.0 mm 0.00 in0.0 mm
01:39 AM 83.7°F28.7°C 73.3°F22.9°C 71% 3.7 mph SW6.0 kmh SW 3.7 mph6.0 kmh 29.22 in989.5 mb 0.00 in0.0 mm 0.00 in0.0 mm 0.00 in0.0 mm
01:38 AM 83.7°F28.7°C 73.3°F22.9°C 71% 2.7 mph SSW4.3 kmh SSW 3.7 mph6.0 kmh 29.22 in989.5 mb 0.00 in0.0 mm 0.00 in0.0 mm 0.00 in0.0 mm
01:37 AM 83.7°F28.7°C 73.7°F23.2°C 72% 1.7 mph SSW2.7 kmh SSW 4.2 mph6.8 kmh 29.22 in989.5 mb 0.00 in0.0 mm 0.00 in0.0 mm 0.00 in0.0 mm
01:36 AM 83.7°F28.7°C 73.7°F23.2°C 72% Calm Calm 4.2 mph6.8 kmh 29.22 in989.5 mb 0.00 in0.0 mm 0.00 in0.0 mm 0.00 in0.0 mm
01:35 AM 83.7°F28.7°C 73.7°F23.2°C 72% Calm Calm 4.2 mph6.8 kmh 29.22 in989.5 mb 0.00 in0.0 mm 0.00 in0.0 mm 0.00 in0.0 mm
01:34 AM 83.8°F28.8°C 73.8°F23.2°C 72% 2.2 mph SW3.5 kmh SW 4.2 mph6.8 kmh 29.22 in989.5 mb 0.00 in0.0 mm 0.00 in0.0 mm 0.00 in0.0 mm
01:33 AM 83.8°F28.8°C 73.8°F23.2°C 72% Calm Calm 4.2 mph6.8 kmh 29.22 in989.5 mb 0.00 in0.0 mm 0.00 in0.0 mm 0.00 in0.0 mm
01:32 AM 83.8°F28.8°C 73.8°F23.2°C 72% 1.7 mph SSW2.7 kmh SSW 4.2 mph6.8 kmh 29.22 in989.5 mb 0.00 in0.0 mm 0.00 in0.0 mm 0.00 in0.0 mm
01:31 AM 83.8°F28.8°C 74.2°F23.4°C 73% 2.2 mph WSW3.5 kmh WSW 4.2 mph6.8 kmh 29.22 in989.5 mb 0.00 in0.0 mm 0.00 in0.0 mm 0.00 in0.0 mm
01:30 AM 83.8°F28.8°C 74.2°F23.4°C 73% Calm Calm 4.2 mph6.8 kmh 29.22 in989.5 mb 0.00 in0.0 mm 0.00 in0.0 mm 0.00 in0.0 mm
01:29 AM 83.8°F28.8°C 74.2°F23.4°C 73% 2.7 mph SSW4.3 kmh SSW 4.2 mph6.8 kmh 29.22 in989.5 mb 0.00 in0.0 mm 0.00 in0.0 mm 0.00 in0.0 mm
01:28 AM 83.8°F28.8°C 74.2°F23.4°C 73% 2.2 mph SSW3.5 kmh SSW 4.2 mph6.8 kmh 29.22 in989.5 mb 0.00 in0.0 mm 0.00 in0.0 mm 0.00 in0.0 mm
01:27 AM 83.8°F28.8°C 74.2°F23.4°C 73% 4.2 mph SSW6.8 kmh SSW 4.2 mph6.8 kmh 29.22 in989.5 mb 0.00 in0.0 mm 0.00 in0.0 mm 0.00 in0.0 mm
01:26 AM 83.8°F28.8°C 74.2°F23.4°C 73% Calm Calm 2.2 mph3.5 kmh 29.22 in989.5 mb 0.00 in0.0 mm 0.00 in0.0 mm 0.00 in0.0 mm
01:25 AM 84.0°F28.9°C 74.4°F23.6°C 73% Calm Calm 2.2 mph3.5 kmh 29.22 in989.5 mb 0.00 in0.0 mm 0.00 in0.0 mm 0.00 in0.0 mm
01:24 AM 84.0°F28.9°C 74.4°F23.6°C 73% Calm Calm 2.2 mph3.5 kmh 29.22 in989.5 mb 0.00 in0.0 mm 0.00 in0.0 mm 0.00 in0.0 mm
01:23 AM 84.0°F28.9°C 74.4°F23.6°C 73% Calm Calm 2.2 mph3.5 kmh 29.22 in989.5 mb 0.00 in0.0 mm 0.00 in0.0 mm 0.00 in0.0 mm
01:22 AM 84.0°F28.9°C 74.4°F23.6°C 73% Calm Calm 2.2 mph3.5 kmh 29.22 in989.5 mb 0.00 in0.0 mm 0.00 in0.0 mm 0.00 in0.0 mm
01:21 AM 84.0°F28.9°C 74.4°F23.6°C 73% Calm Calm 2.2 mph3.5 kmh 29.22 in989.5 mb 0.00 in0.0 mm 0.00 in0.0 mm 0.00 in0.0 mm
01:20 AM 84.0°F28.9°C 74.4°F23.6°C 73% Calm Calm 2.7 mph4.3 kmh 29.22 in989.5 mb 0.00 in0.0 mm 0.00 in0.0 mm 0.00 in0.0 mm
01:19 AM 84.2°F29.0°C 74.6°F23.7°C 73% Calm Calm 2.7 mph4.3 kmh 29.22 in989.5 mb 0.00 in0.0 mm 0.00 in0.0 mm 0.00 in0.0 mm
01:18 AM 84.2°F29.0°C 74.6°F23.7°C 73% 1.1 mph SW1.8 kmh SW 3.7 mph6.0 kmh 29.22 in989.5 mb 0.00 in0.0 mm 0.00 in0.0 mm 0.00 in0.0 mm
01:17 AM 84.2°F29.0°C 74.6°F23.7°C 73% Calm Calm 3.7 mph6.0 kmh 29.22 in989.5 mb 0.00 in0.0 mm 0.00 in0.0 mm 0.00 in0.0 mm
01:16 AM 84.4°F29.1°C 74.8°F23.8°C 73% 1.1 mph SSW1.8 kmh SSW 3.7 mph6.0 kmh 29.22 in989.5 mb 0.00 in0.0 mm 0.00 in0.0 mm 0.00 in0.0 mm
01:15 AM 84.4°F29.1°C 74.8°F23.8°C 73% 1.7 mph W2.7 kmh W 3.7 mph6.0 kmh 29.22 in989.5 mb 0.00 in0.0 mm 0.00 in0.0 mm 0.00 in0.0 mm
01:14 AM 84.4°F29.1°C 74.8°F23.8°C 73% Calm Calm 3.7 mph6.0 kmh 29.22 in989.5 mb 0.00 in0.0 mm 0.00 in0.0 mm 0.00 in0.0 mm
01:13 AM 84.4°F29.1°C 74.8°F23.8°C 73% Calm Calm 3.7 mph6.0 kmh 29.22 in989.5 mb 0.00 in0.0 mm 0.00 in0.0 mm 0.00 in0.0 mm
01:12 AM 84.4°F29.1°C 74.8°F23.8°C 73% Calm Calm 3.7 mph6.0 kmh 29.22 in989.5 mb 0.00 in0.0 mm 0.00 in0.0 mm 0.00 in0.0 mm
01:11 AM 84.4°F29.1°C 74.8°F23.8°C 73% 2.7 mph SSW4.3 kmh SSW 3.7 mph6.0 kmh 29.22 in989.5 mb 0.00 in0.0 mm 0.00 in0.0 mm 0.00 in0.0 mm
01:10 AM 84.6°F29.2°C 75.0°F23.9°C 73% 1.1 mph SW1.8 kmh SW 3.7 mph6.0 kmh 29.22 in989.5 mb 0.00 in0.0 mm 0.00 in0.0 mm 0.00 in0.0 mm
01:09 AM 84.6°F29.2°C 75.0°F23.9°C 73% 3.2 mph W5.1 kmh W 3.7 mph6.0 kmh 29.22 in989.5 mb 0.00 in0.0 mm 0.00 in0.0 mm 0.00 in0.0 mm
01:08 AM 84.6°F29.2°C 75.0°F23.9°C 73% Calm Calm 3.7 mph6.0 kmh 29.22 in989.5 mb 0.00 in0.0 mm 0.00 in0.0 mm 0.00 in0.0 mm
01:07 AM 84.6°F29.2°C 75.0°F23.9°C 73% 2.2 mph W3.5 kmh W 3.7 mph6.0 kmh 29.22 in989.5 mb 0.00 in0.0 mm 0.00 in0.0 mm 0.00 in0.0 mm
01:06 AM 84.6°F29.2°C 75.0°F23.9°C 73% Calm Calm 3.7 mph6.0 kmh 29.22 in989.5 mb 0.00 in0.0 mm 0.00 in0.0 mm 0.00 in0.0 mm
01:05 AM 84.7°F29.3°C 74.6°F23.7°C 72% 2.2 mph SW3.5 kmh SW 3.7 mph6.0 kmh 29.22 in989.5 mb 0.00 in0.0 mm 0.00 in0.0 mm 0.00 in0.0 mm
01:04 AM 84.7°F29.3°C 74.6°F23.7°C 72% Calm Calm 3.7 mph6.0 kmh 29.22 in989.5 mb 0.00 in0.0 mm 0.00 in0.0 mm 0.00 in0.0 mm
01:03 AM 84.7°F29.3°C 74.6°F23.7°C 72% Calm Calm 3.7 mph6.0 kmh 29.23 in989.8 mb 0.00 in0.0 mm 0.00 in0.0 mm 0.00 in0.0 mm
01:02 AM 84.7°F29.3°C 74.6°F23.7°C 72% Calm Calm 3.7 mph6.0 kmh 29.23 in989.8 mb 0.00 in0.0 mm 0.00 in0.0 mm 0.00 in0.0 mm
01:01 AM 84.7°F29.3°C 74.6°F23.7°C 72% 1.1 mph SW1.8 kmh SW 2.7 mph4.3 kmh 29.23 in989.8 mb 0.00 in0.0 mm 0.00 in0.0 mm 0.00 in0.0 mm
01:00 AM 84.9°F29.4°C 74.8°F23.8°C 72% Calm Calm 2.7 mph4.3 kmh 29.23 in989.8 mb 0.00 in0.0 mm 0.00 in0.0 mm 0.00 in0.0 mm
12:59 AM 84.9°F29.4°C 74.8°F23.8°C 72% Calm Calm 2.7 mph4.3 kmh 29.23 in989.8 mb 0.00 in0.0 mm 0.00 in0.0 mm 0.00 in0.0 mm
12:58 AM 84.9°F29.4°C 74.8°F23.8°C 72% Calm Calm 2.7 mph4.3 kmh 29.23 in989.8 mb 0.00 in0.0 mm 0.00 in0.0 mm 0.00 in0.0 mm
12:57 AM 84.9°F29.4°C 74.8°F23.8°C 72% Calm Calm 2.7 mph4.3 kmh 29.23 in989.8 mb 0.00 in0.0 mm 0.00 in0.0 mm 0.00 in0.0 mm
12:56 AM 84.9°F29.4°C 74.4°F23.6°C 71% Calm Calm 2.7 mph4.3 kmh 29.23 in989.8 mb 0.00 in0.0 mm 0.00 in0.0 mm 0.00 in0.0 mm
12:55 AM 84.9°F29.4°C 74.4°F23.6°C 71% 1.7 mph W2.7 kmh W 2.7 mph4.3 kmh 29.23 in989.8 mb 0.00 in0.0 mm 0.00 in0.0 mm 0.00 in0.0 mm
12:54 AM 84.9°F29.4°C 74.4°F23.6°C 71% Calm Calm 2.7 mph4.3 kmh 29.23 in989.8 mb 0.00 in0.0 mm 0.00 in0.0 mm 0.00 in0.0 mm
12:53 AM 85.1°F29.5°C 74.6°F23.7°C 71% 2.7 mph SSW4.3 kmh SSW 2.7 mph4.3 kmh 29.23 in989.8 mb 0.00 in0.0 mm 0.00 in0.0 mm 0.00 in0.0 mm
12:52 AM 85.1°F29.5°C 74.6°F23.7°C 71% Calm Calm 2.7 mph4.3 kmh 29.23 in989.8 mb 0.00 in0.0 mm 0.00 in0.0 mm 0.00 in0.0 mm
12:51 AM 85.1°F29.5°C 74.6°F23.7°C 71% Calm Calm 2.7 mph4.3 kmh 29.23 in989.8 mb 0.00 in0.0 mm 0.00 in0.0 mm 0.00 in0.0 mm
12:50 AM 85.1°F29.5°C 74.6°F23.7°C 71% Calm Calm 2.7 mph4.3 kmh 29.23 in989.8 mb 0.00 in0.0 mm 0.00 in0.0 mm 0.00 in0.0 mm
12:49 AM 85.3°F29.6°C 74.8°F23.8°C 71% 2.7 mph SSW4.3 kmh SSW 2.7 mph4.3 kmh 29.23 in989.8 mb 0.00 in0.0 mm 0.00 in0.0 mm 0.00 in0.0 mm
12:48 AM 85.3°F29.6°C 74.4°F23.6°C 70% Calm Calm 3.7 mph6.0 kmh 29.23 in989.8 mb 0.00 in0.0 mm 0.00 in0.0 mm 0.00 in0.0 mm
12:47 AM 85.3°F29.6°C 74.4°F23.6°C 70% 1.7 mph SSW2.7 kmh SSW 3.7 mph6.0 kmh 29.23 in989.8 mb 0.00 in0.0 mm 0.00 in0.0 mm 0.00 in0.0 mm
12:46 AM 85.3°F29.6°C 74.4°F23.6°C 70% 1.7 mph SSW2.7 kmh SSW 3.7 mph6.0 kmh 29.23 in989.8 mb 0.00 in0.0 mm 0.00 in0.0 mm 0.00 in0.0 mm
12:45 AM 85.3°F29.6°C 74.4°F23.6°C 70% 1.1 mph SW1.8 kmh SW 3.7 mph6.0 kmh 29.23 in989.8 mb 0.00 in0.0 mm 0.00 in0.0 mm 0.00 in0.0 mm
12:44 AM 85.3°F29.6°C 74.4°F23.6°C 70% Calm Calm 3.7 mph6.0 kmh 29.23 in989.8 mb 0.00 in0.0 mm 0.00 in0.0 mm 0.00 in0.0 mm
12:43 AM 85.3°F29.6°C 74.4°F23.6°C 70% Calm Calm 4.2 mph6.8 kmh 29.23 in989.8 mb 0.00 in0.0 mm 0.00 in0.0 mm 0.00 in0.0 mm
12:42 AM 85.3°F29.6°C 74.4°F23.6°C 70% Calm Calm 4.2 mph6.8 kmh 29.23 in989.8 mb 0.00 in0.0 mm 0.00 in0.0 mm 0.00 in0.0 mm
12:41 AM 85.3°F29.6°C 74.4°F23.6°C 70% Calm Calm 4.2 mph6.8 kmh 29.23 in989.8 mb 0.00 in0.0 mm 0.00 in0.0 mm 0.00 in0.0 mm
12:40 AM 85.3°F29.6°C 74.4°F23.6°C 70% 1.1 mph ENE1.8 kmh ENE 4.2 mph6.8 kmh 29.23 in989.8 mb 0.00 in0.0 mm 0.00 in0.0 mm 0.00 in0.0 mm
12:39 AM 85.3°F29.6°C 74.4°F23.6°C 70% 2.7 mph SSW4.3 kmh SSW 4.2 mph6.8 kmh 29.22 in989.5 mb 0.00 in0.0 mm 0.00 in0.0 mm 0.00 in0.0 mm
12:38 AM 85.3°F29.6°C 74.4°F23.6°C 70% 2.2 mph S3.5 kmh S 4.2 mph6.8 kmh 29.22 in989.5 mb 0.00 in0.0 mm 0.00 in0.0 mm 0.00 in0.0 mm
12:37 AM 85.3°F29.6°C 74.4°F23.6°C 70% Calm Calm 4.2 mph6.8 kmh 29.22 in989.5 mb 0.00 in0.0 mm 0.00 in0.0 mm 0.00 in0.0 mm
12:36 AM 85.3°F29.6°C 74.4°F23.6°C 70% Calm Calm 4.2 mph6.8 kmh 29.22 in989.5 mb 0.00 in0.0 mm 0.00 in0.0 mm 0.00 in0.0 mm
12:35 AM 85.3°F29.6°C 74.4°F23.6°C 70% Calm Calm 4.2 mph6.8 kmh 29.22 in989.5 mb 0.00 in0.0 mm 0.00 in0.0 mm 0.00 in0.0 mm
12:34 AM 85.3°F29.6°C 74.4°F23.6°C 70% 4.2 mph N6.8 kmh N 4.2 mph6.8 kmh 29.22 in989.5 mb 0.00 in0.0 mm 0.00 in0.0 mm 0.00 in0.0 mm
12:33 AM 85.3°F29.6°C 74.4°F23.6°C 70% 4.2 mph ESE6.8 kmh ESE 4.2 mph6.8 kmh 29.22 in989.5 mb 0.00 in0.0 mm 0.00 in0.0 mm 0.00 in0.0 mm
12:32 AM 85.3°F29.6°C 74.4°F23.6°C 70% 2.7 mph ESE4.3 kmh ESE 3.7 mph6.0 kmh 29.22 in989.5 mb 0.00 in0.0 mm 0.00 in0.0 mm 0.00 in0.0 mm
12:31 AM 85.5°F29.7°C 74.6°F23.7°C 70% 3.7 mph SE6.0 kmh SE 3.7 mph6.0 kmh 29.22 in989.5 mb 0.00 in0.0 mm 0.00 in0.0 mm 0.00 in0.0 mm
12:30 AM 85.5°F29.7°C 74.6°F23.7°C 70% Calm Calm 3.7 mph6.0 kmh 29.22 in989.5 mb 0.00 in0.0 mm 0.00 in0.0 mm 0.00 in0.0 mm
12:29 AM 85.5°F29.7°C 74.6°F23.7°C 70% 1.7 mph S2.7 kmh S 3.7 mph6.0 kmh 29.22 in989.5 mb 0.00 in0.0 mm 0.00 in0.0 mm 0.00 in0.0 mm
12:28 AM 85.5°F29.7°C 74.6°F23.7°C 70% 1.7 mph SSW2.7 kmh SSW 3.2 mph5.1 kmh 29.22 in989.5 mb 0.00 in0.0 mm 0.00 in0.0 mm 0.00 in0.0 mm
12:27 AM 85.5°F29.7°C 74.6°F23.7°C 70% 1.1 mph SSW1.8 kmh SSW 3.2 mph5.1 kmh 29.22 in989.5 mb 0.00 in0.0 mm 0.00 in0.0 mm 0.00 in0.0 mm
12:26 AM 85.5°F29.7°C 74.6°F23.7°C 70% 3.2 mph ESE5.1 kmh ESE 3.2 mph5.1 kmh 29.22 in989.5 mb 0.00 in0.0 mm 0.00 in0.0 mm 0.00 in0.0 mm
12:25 AM 85.5°F29.7°C 74.6°F23.7°C 70% Calm Calm 3.2 mph5.1 kmh 29.22 in989.5 mb 0.00 in0.0 mm 0.00 in0.0 mm 0.00 in0.0 mm
12:24 AM 85.5°F29.7°C 74.6°F23.7°C 70% 1.7 mph SSW2.7 kmh SSW 3.2 mph5.1 kmh 29.22 in989.5 mb 0.00 in0.0 mm 0.00 in0.0 mm 0.00 in0.0 mm
12:23 AM 85.5°F29.7°C 74.6°F23.7°C 70% 2.2 mph NNE3.5 kmh NNE 3.2 mph5.1 kmh 29.22 in989.5 mb 0.00 in0.0 mm 0.00 in0.0 mm 0.00 in0.0 mm
12:22 AM 85.5°F29.7°C 74.6°F23.7°C 70% 2.7 mph S4.3 kmh S 3.2 mph5.1 kmh 29.22 in989.5 mb 0.00 in0.0 mm 0.00 in0.0 mm 0.00 in0.0 mm
12:21 AM 85.5°F29.7°C 74.6°F23.7°C 70% Calm Calm 2.2 mph3.5 kmh 29.22 in989.5 mb 0.00 in0.0 mm 0.00 in0.0 mm 0.00 in0.0 mm
12:20 AM 85.5°F29.7°C 74.6°F23.7°C 70% Calm Calm 2.2 mph3.5 kmh 29.22 in989.5 mb 0.00 in0.0 mm 0.00 in0.0 mm 0.00 in0.0 mm
12:19 AM 85.6°F29.8°C 74.7°F23.7°C 70% Calm Calm 3.2 mph5.1 kmh 29.22 in989.5 mb 0.00 in0.0 mm 0.00 in0.0 mm 0.00 in0.0 mm
12:18 AM 85.6°F29.8°C 74.7°F23.7°C 70% Calm Calm 3.2 mph5.1 kmh 29.22 in989.5 mb 0.00 in0.0 mm 0.00 in0.0 mm 0.00 in0.0 mm
12:17 AM 85.8°F29.9°C 74.9°F23.8°C 70% Calm Calm 3.2 mph5.1 kmh 29.22 in989.5 mb 0.00 in0.0 mm 0.00 in0.0 mm 0.00 in0.0 mm
12:16 AM 85.8°F29.9°C 74.9°F23.8°C 70% Calm Calm 3.2 mph5.1 kmh 29.22 in989.5 mb 0.00 in0.0 mm 0.00 in0.0 mm 0.00 in0.0 mm
12:15 AM 85.8°F29.9°C 74.9°F23.8°C 70% Calm Calm 3.2 mph5.1 kmh 29.22 in989.5 mb 0.00 in0.0 mm 0.00 in0.0 mm 0.00 in0.0 mm
12:14 AM 85.8°F29.9°C 74.9°F23.8°C 70% 2.2 mph SW3.5 kmh SW 3.2 mph5.1 kmh 29.22 in989.5 mb 0.00 in0.0 mm 0.00 in0.0 mm 0.00 in0.0 mm
12:13 AM 85.8°F29.9°C 74.9°F23.8°C 70% Calm Calm 3.2 mph5.1 kmh 29.22 in989.5 mb 0.00 in0.0 mm 0.00 in0.0 mm 0.00 in0.0 mm
12:12 AM 85.8°F29.9°C 74.9°F23.8°C 70% Calm Calm 3.2 mph5.1 kmh 29.22 in989.5 mb 0.00 in0.0 mm 0.00 in0.0 mm 0.00 in0.0 mm
12:11 AM 86.0°F30.0°C 75.0°F23.9°C 70% 1.1 mph SW1.8 kmh SW 3.2 mph5.1 kmh 29.22 in989.5 mb 0.00 in0.0 mm 0.00 in0.0 mm 0.00 in0.0 mm
12:10 AM 86.0°F30.0°C 75.0°F23.9°C 70% 3.2 mph ENE5.1 kmh ENE 3.2 mph5.1 kmh 29.22 in989.5 mb 0.00 in0.0 mm 0.00 in0.0 mm 0.00 in0.0 mm
12:09 AM 86.0°F30.0°C 75.0°F23.9°C 70% 3.2 mph E5.1 kmh E 3.2 mph5.1 kmh 29.22 in989.5 mb 0.00 in0.0 mm 0.00 in0.0 mm 0.00 in0.0 mm
12:08 AM 86.0°F30.0°C 75.0°F23.9°C 70% 1.1 mph ESE1.8 kmh ESE 3.2 mph5.1 kmh 29.22 in989.5 mb 0.00 in0.0 mm 0.00 in0.0 mm 0.00 in0.0 mm
12:07 AM 86.0°F30.0°C 74.6°F23.7°C 69% 1.7 mph S2.7 kmh S 3.7 mph6.0 kmh 29.22 in989.5 mb 0.00 in0.0 mm 0.00 in0.0 mm 0.00 in0.0 mm
12:06 AM 86.0°F30.0°C 74.6°F23.7°C 69% 1.7 mph ESE2.7 kmh ESE 3.7 mph6.0 kmh 29.22 in989.5 mb 0.00 in0.0 mm 0.00 in0.0 mm 0.00 in0.0 mm
12:05 AM 86.0°F30.0°C 74.6°F23.7°C 69% Calm Calm 4.7 mph7.6 kmh 29.22 in989.5 mb 0.00 in0.0 mm 0.00 in0.0 mm 0.00 in0.0 mm
12:04 AM 86.2°F30.1°C 74.8°F23.8°C 69% 1.1 mph ENE1.8 kmh ENE 4.7 mph7.6 kmh 29.22 in989.5 mb 0.00 in0.0 mm 0.00 in0.0 mm 0.00 in0.0 mm
12:03 AM 86.2°F30.1°C 74.8°F23.8°C 69% Calm Calm 4.7 mph7.6 kmh 29.22 in989.5 mb 0.00 in0.0 mm 0.00 in0.0 mm 0.00 in0.0 mm
12:02 AM 86.2°F30.1°C 74.8°F23.8°C 69% 3.2 mph SSW5.1 kmh SSW 4.7 mph7.6 kmh 29.22 in989.5 mb 0.00 in0.0 mm 0.00 in0.0 mm 0.00 in0.0 mm
12:01 AM 86.2°F30.1°C 74.8°F23.8°C 69% 2.2 mph SSW3.5 kmh SSW 4.7 mph7.6 kmh 29.22 in989.5 mb 0.00 in0.0 mm 0.00 in0.0 mm 0.00 in0.0 mm
12:00 AM 86.4°F30.2°C 74.6°F23.7°C 68% 1.1 mph SE1.8 kmh SE 4.7 mph7.6 kmh 29.22 in989.5 mb 0.00 in0.0 mm 0.00 in0.0 mm 0.00 in0.0 mm